Warning: Javascript must be enabled to use all the features on this page!


Page Loading - Please Wait...

Click to hideNews Bulletins
Click to hide state-specific text


USGS 01650800 SLIGO CREEK NEAR TAKOMA PARK, MD

PROVISIONAL DATA SUBJECT TO REVISION

Click to hidestation-specific text

LOCATION.--Lat 38°59'10.4", long 77°00'17.5", Montgomery County, MD, Hydrologic Unit 02070010, 
   0.5 mi northwest of Takoma Park, 0.7 mi upstream from confluence with Long Branch, 2.0 mi upstream from mouth. 
DRAINAGE AREA.--6.45 mi2.
PERIOD OF RECORD.--October 2008 to current year.
GAGE.--Water-stage recorder, crest-stage gage and concrete control. Datum of gage is 161.27 ft above North 
   American Vertical Datum of 1988. 
REMARKS.--U.S. Geological Survey satellite data-collection platform at station.
COOPERATION.--Funding for the operation of this station is provided by the Montgomery County Department 
   of Environmental Protection, and the U.S. Geological Survey. 
Boating safety tips
This station managed by the MD-DE-DC Water Science Center Baltimore office.

Available Parameters Available Period
All 7 Available Parameters for this site
  
00010 Temperature, water 2013-03-23  2017-10-19
00060 Discharge 2008-10-07  2017-10-19
00065 Gage height 2008-10-07  2017-10-19
00095 Specific cond at 25C 2013-03-23  2017-10-19
00300 Dissolved oxygen 2013-03-23  2017-10-19
00400 pH 2013-03-23  2017-10-19
63680 Turbidity, Form Neph 2013-03-23  2017-10-19

Graph
Graph w/ stats
Graph w/o stats
Graph w/ (up to 3) parms
Table
Tab-separated
Days  (7)
 

  -- or --
Begin date
 

End date
 

Summary of all available data for this site
Instantaneous-data availability statement






Date / Time




Gage
height,
feet,




Dis-
charge,
ft3/s,



Temper-
ature,
water,
deg C,

pH,
water,
unfltrd
field,
std
units,
Specif-
ic
conduc-
tance,
wat unf
uS/cm @
25 degC,



Dis-
solved
oxygen,
mg/L,
Turbid-
ity,
IR LED
light,
det ang
90 deg,
FNU,
10/12/2017 00:00 EST3.67P  588P  19.8P  7.3P  118P  8.5P  289P  
10/12/2017 00:05 EST3.49P  522P  19.8P  7.3P  110P  8.5P  218P  
10/12/2017 00:10 EST3.36P  475P  19.8P  7.3P  111P  8.5P  345P  
10/12/2017 00:15 EST3.21P  421P  19.8P  7.3P  110P  8.5P  200P  
10/12/2017 00:20 EST3.11P  386P  19.7P  7.3P  105P  8.6P  172P  
10/12/2017 00:25 EST2.97P  341P  19.7P  7.3P  99P  8.6P  213P  
10/12/2017 00:30 EST2.88P  314P  19.7P  7.3P  90P  8.6P  168P  
10/12/2017 00:35 EST2.78P  285P  19.7P  7.3P  94P  8.7P  166P  
10/12/2017 00:40 EST2.69P  261P  19.7P  7.3P  96P  8.7P  155P  
10/12/2017 00:45 EST2.59P  235P  19.8P  7.3P  99P  8.7P  127P  
10/12/2017 00:50 EST2.50P  213P  19.8P  7.3P  103P  8.7P  128P  
10/12/2017 00:55 EST2.42P  194P  19.8P  7.3P  110P  8.7P  128P  
10/12/2017 01:00 EST2.32P  169P  19.8P  7.3P  117P  8.7P  129P  
10/12/2017 01:05 EST2.23P  148P  19.9P  7.3P  122P  8.7P  130P  
10/12/2017 01:10 EST2.17P  135P  19.9P  7.3P  125P  8.6P  128P  
10/12/2017 01:15 EST2.10P  120P  19.9P  7.3P  125P  8.6P  126P  
10/12/2017 01:20 EST2.04P  109P  19.9P  7.3P  122P  8.6P  122P  
10/12/2017 01:25 EST1.99P  99.8P  19.9P  7.3P  119P  8.6P  125P  
10/12/2017 01:30 EST1.94P  91.2P  19.9P  7.3P  116P  8.7P  119P  
10/12/2017 01:35 EST1.90P  84.1P  19.9P  7.3P  114P  8.6P  104P  
10/12/2017 01:40 EST1.86P  77.4P  19.9P  7.3P  111P  8.6P  96.2P  
10/12/2017 01:45 EST1.82P  71.1P  19.9P  7.3P  109P  8.6P  97.8P  
10/12/2017 01:50 EST1.79P  66.6P  19.9P  7.3P  108P  8.6P  86.2P  
10/12/2017 01:55 EST1.76P  62.2P  19.8P  7.3P  106P  8.6P  80.0P  
10/12/2017 02:00 EST1.73P  58.1P  19.8P  7.3P  106P  8.6P  77.7P  
10/12/2017 02:05 EST1.70P  54.2P  19.8P  7.2P  105P  8.6P  70.5P  
10/12/2017 02:10 EST1.67P  51.1P  19.8P  7.3P  105P  8.6P  69.2P  
10/12/2017 02:15 EST1.65P  49.1P  19.8P  7.3P  105P  8.6P  65.5P  
10/12/2017 02:20 EST1.62P  46.2P  19.8P  7.2P  105P  8.6P  62.1P  
10/12/2017 02:25 EST1.60P  44.3P  19.8P  7.3P  105P  8.6P  57.7P  
10/12/2017 02:30 EST1.58P  42.5P  19.8P  7.2P  106P  8.6P  56.4P  
10/12/2017 02:35 EST1.56P  40.7P  19.8P  7.3P  107P  8.6P  53.0P  
10/12/2017 02:40 EST1.54P  39.0P  19.8P  7.3P  108P  8.6P  50.7P  
10/12/2017 02:45 EST1.52P  37.3P  19.8P  7.3P  109P  8.6P  47.6P  
10/12/2017 02:50 EST1.50P  35.7P  19.8P  7.3P  110P  8.6P  47.3P  
10/12/2017 02:55 EST1.49P  34.9P  19.8P  7.3P  112P  8.6P  45.2P  
10/12/2017 03:00 EST1.47P  33.4P  19.8P  7.3P  113P  8.6P  43.3P  
10/12/2017 03:05 EST1.46P  32.6P  19.8P  7.3P  116P  8.6P  41.3P  
10/12/2017 03:10 EST1.45P  31.9P  19.8P  7.3P  118P  8.6P  42.2P  
10/12/2017 03:15 EST1.44P  31.2P  19.8P  7.3P  120P  8.6P  39.6P  
10/12/2017 03:20 EST1.43P  30.4P  19.8P  7.3P  122P  8.6P  38.7P  
10/12/2017 03:25 EST1.42P  29.7P  19.8P  7.3P  125P  8.6P  37.4P  
10/12/2017 03:30 EST1.41P  29.0P  19.8P  7.3P  128P  8.6P  36.5P  
10/12/2017 03:35 EST1.40P  28.4P  19.8P  7.3P  130P  8.6P  35.3P  
10/12/2017 03:40 EST1.39P  27.7P  19.8P  7.3P  133P  8.6P  34.9P  
10/12/2017 03:45 EST1.38P  27.0P  19.8P  7.3P  136P  8.6P  33.9P  
10/12/2017 03:50 EST1.38P  27.0P  19.8P  7.3P  139P  8.6P  33.6P  
10/12/2017 03:55 EST1.37P  26.4P  19.8P  7.3P  141P  8.6P  33.0P  
10/12/2017 04:00 EST1.36P  25.7P  19.8P  7.3P  144P  8.6P  30.9P  
10/12/2017 04:05 EST1.36P  25.7P  19.8P  7.3P  147P  8.6P  29.9P  
10/12/2017 04:10 EST1.35P  25.1P  19.8P  7.3P  149P  8.6P  28.0P  
10/12/2017 04:15 EST1.35P  25.1P  19.8P  7.3P  152P  8.6P  28.3P  
10/12/2017 04:20 EST1.34P  24.5P  19.8P  7.3P  154P  8.6P  28.6P  
10/12/2017 04:25 EST1.34P  24.5P  19.8P  7.3P  157P  8.6P  25.6P  
10/12/2017 04:30 EST1.34P  24.5P  19.8P  7.3P  159P  8.5P  26.2P  
10/12/2017 04:35 EST1.33P  23.9P  19.8P  7.4P  161P  8.6P  25.3P  
10/12/2017 04:40 EST1.33P  23.9P  19.8P  7.3P  163P  8.5P  25.1P  
10/12/2017 04:45 EST1.33P  23.9P  19.8P  7.4P  165P  8.5P  24.0P  
10/12/2017 04:50 EST1.32P  23.2P  19.8P  7.4P  166P  8.5P  23.5P  
10/12/2017 04:55 EST1.32P  23.2P  19.8P  7.4P  168P  8.5P  23.0P  
10/12/2017 05:00 EST1.32P  23.2P  19.8P  7.4P  169P  8.5P  22.5P  
10/12/2017 05:05 EST1.32P  23.2P  19.8P  7.4P  171P  8.5P  22.1P  
10/12/2017 05:10 EST1.31P  22.7P  19.8P  7.4P  172P  8.5P  22.4P  
10/12/2017 05:15 EST1.31P  22.7P  19.8P  7.4P  173P  8.5P  20.6P  
10/12/2017 05:20 EST1.31P  22.7P  19.8P  7.4P  174P  8.5P  20.1P  
10/12/2017 05:25 EST1.31P  22.7P  19.8P  7.4P  175P  8.5P  19.4P  
10/12/2017 05:30 EST1.31P  22.7P  19.8P  7.4P  176P  8.5P  19.0P  
10/12/2017 05:35 EST1.30P  22.1P  19.8P  7.4P  177P  8.5P  18.8P  
10/12/2017 05:40 EST1.30P  22.1P  19.8P  7.4P  177P  8.5P  18.3P  
10/12/2017 05:45 EST1.30P  22.1P  19.8P  7.4P  178P  8.5P  17.8P  
10/12/2017 05:50 EST1.30P  22.1P  19.8P  7.4P  179P  8.5P  19.4P  
10/12/2017 05:55 EST1.30P  22.1P  19.8P  7.4P  180P  8.5P  16.3P  
10/12/2017 06:00 EST1.30P  22.1P  19.8P  7.4P  181P  8.5P  16.3P  
10/12/2017 06:05 EST1.29P  21.5P  19.8P  7.4P  181P  8.5P  16.2P  
10/12/2017 06:10 EST1.29P  21.5P  19.8P  7.4P  182P  8.5P  15.7P  
10/12/2017 06:15 EST1.29P  21.5P  19.8P  7.4P  183P  8.5P  15.3P  
10/12/2017 06:20 EST1.29P  21.5P  19.8P  7.4P  184P  8.5P  15.2P  
10/12/2017 06:25 EST1.29P  21.5P  19.8P  7.4P  186P  8.5P  14.4P  
10/12/2017 06:30 EST1.30P  22.1P  19.8P  7.4P  187P  8.5P  14.4P  
10/12/2017 06:35 EST1.30P  22.1P  19.8P  7.4P  188P  8.5P  14.5P  
10/12/2017 06:40 EST1.30P  22.1P  19.8P  7.4P  190P  8.5P  13.7P  
10/12/2017 06:45 EST1.30P  22.1P  19.8P  7.4P  192P  8.5P  13.6P  
10/12/2017 06:50 EST1.30P  22.1P  19.8P  7.4P  194P  8.5P  13.1P  
10/12/2017 06:55 EST1.30P  22.1P  19.8P  7.4P  196P  8.6P  12.9P  
10/12/2017 07:00 EST1.30P  22.1P  19.8P  7.4P  198P  8.5P  12.5P  
10/12/2017 07:05 EST1.30P  22.1P  19.8P  7.4P  200P  8.6P  12.4P  
10/12/2017 07:10 EST1.30P  22.1P  19.8P  7.4P  203P  8.6P  12.5P  
10/12/2017 07:15 EST1.30P  22.1P  19.8P  7.4P  205P  8.5P  11.9P  
10/12/2017 07:20 EST1.30P  22.1P  19.8P  7.5P  208P  8.5P  11.7P  
10/12/2017 07:25 EST1.30P  22.1P  19.8P  7.5P  211P  8.5P  11.5P  
10/12/2017 07:30 EST1.30P  22.1P  19.8P  7.5P  213P  8.5P  11.1P  
10/12/2017 07:35 EST1.30P  22.1P  19.8P  7.5P  216P  8.5P  11.6P  
10/12/2017 07:40 EST1.30P  22.1P  19.8P  7.5P  219P  8.5P  11.6P  
10/12/2017 07:45 EST1.30P  22.1P  19.8P  7.5P  221P  8.6P  11.8P  
10/12/2017 07:50 EST1.30P  22.1P  19.8P  7.5P  224P  8.5P  11.4P  
10/12/2017 07:55 EST1.30P  22.1P  19.8P  7.5P  226P  8.5P  11.2P  
10/12/2017 08:00 EST1.30P  22.1P  19.8P  7.5P  228P  8.6P  11.2P  
10/12/2017 08:05 EST1.30P  22.1P  19.8P  7.5P  230P  8.6P  10.9P  
10/12/2017 08:10 EST1.30P  22.1P  19.8P  7.5P  232P  8.6P  11.2P  
10/12/2017 08:15 EST1.29P  21.5P  19.8P  7.5P  234P  8.6P  11.0P  
10/12/2017 08:20 EST1.29P  21.5P  19.8P  7.5P  235P  8.6P  10.5P  
10/12/2017 08:25 EST1.29P  21.5P  19.8P  7.5P  237P  8.6P  10.4P  
10/12/2017 08:30 EST1.29P  21.5P  19.8P  7.5P  238P  8.6P  10.4P  
10/12/2017 08:35 EST1.28P  20.9P  19.8P  7.5P  239P  8.6P  9.9P  
10/12/2017 08:40 EST1.28P  20.9P  19.8P  7.5P  240P  8.6P  9.7P  
10/12/2017 08:45 EST1.28P  20.9P  19.8P  7.5P  240P  8.6P  9.4P  
10/12/2017 08:50 EST1.28P  20.9P  19.8P  7.5P  241P  8.6P  9.8P  
10/12/2017 08:55 EST1.28P  20.9P  19.8P  7.5P  242P  8.6P  9.2P  
10/12/2017 09:00 EST1.28P  20.9P  19.8P  7.5P  242P  8.6P  9.2P  
10/12/2017 09:05 EST1.27P  20.4P  19.8P  7.5P  242P  8.6P  8.8P  
10/12/2017 09:10 EST1.27P  20.4P  19.8P  7.5P  242P  8.6P  8.7P  
10/12/2017 09:15 EST1.27P  20.4P  19.8P  7.5P  242P  8.6P  9.0P  
10/12/2017 09:20 EST1.27P  20.4P  19.8P  7.5P  242P  8.6P  8.8P  
10/12/2017 09:25 EST1.26P  19.9P  19.8P  7.5P  243P  8.6P  8.9P  
10/12/2017 09:30 EST1.26P  19.9P  19.8P  7.5P  243P  8.6P  8.7P  
10/12/2017 09:35 EST1.26P  19.9P  19.7P  7.5P  242P  8.6P  8.4P  
10/12/2017 09:40 EST1.26P  19.9P  19.7P  7.5P  242P  8.6P  8.5P  
10/12/2017 09:45 EST1.26P  19.9P  19.7P  7.5P  242P  8.6P  8.4P  
10/12/2017 09:50 EST1.25P  19.3P  19.7P  7.5P  242P  8.6P  8.1P  
10/12/2017 09:55 EST1.25P  19.3P  19.7P  7.5P  242P  8.6P  8.2P  
10/12/2017 10:00 EST1.25P  19.3P  19.7P  7.5P  241P  8.6P  8.1P  
10/12/2017 10:05 EST1.25P  19.3P  19.7P  7.5P  241P  8.6P  8.0P  
10/12/2017 10:10 EST1.25P  19.3P  19.7P  7.5P  241P  8.6P  7.7P  
10/12/2017 10:15 EST1.25P  19.3P  19.7P  7.5P  241P  8.6P  7.8P  
10/12/2017 10:20 EST1.25P  19.3P  19.7P  7.6P  241P  8.6P  7.7P  
10/12/2017 10:25 EST1.24P  18.8P  19.7P  7.6P  241P  8.6P  7.6P  
10/12/2017 10:30 EST1.24P  18.8P  19.7P  7.6P  241P  8.6P  7.6P  
10/12/2017 10:35 EST1.24P  18.8P  19.7P  7.6P  241P  8.6P  7.4P  
10/12/2017 10:40 EST1.24P  18.8P  19.6P  7.6P  240P  8.6P  7.3P  
10/12/2017 10:45 EST1.24P  18.8P  19.6P  7.6P  240P  8.6P  7.4P  
10/12/2017 10:50 EST1.24P  18.8P  19.6P  7.6P  240P  8.6P  7.4P  
10/12/2017 10:55 EST1.24P  18.8P  19.6P  7.6P  239P  8.6P  7.4P  
10/12/2017 11:00 EST1.24P  18.8P  19.6P  7.6P  239P  8.6P  7.2P  
10/12/2017 11:05 EST1.24P  18.8P  19.6P  7.6P  239P  8.6P  7.3P  
10/12/2017 11:10 EST1.25P  19.3P  19.6P  7.6P  238P  8.6P  8.9P  
10/12/2017 11:15 EST1.25P  19.3P  19.6P  7.6P  238P  8.6P  7.1P  
10/12/2017 11:20 EST1.25P  19.3P  19.6P  7.6P  238P  8.6P  6.8P  
10/12/2017 11:25 EST1.25P  19.3P  19.6P  7.6P  237P  8.6P  7.1P  
10/12/2017 11:30 EST1.25P  19.3P  19.6P  7.6P  237P  8.6P  7.1P  
10/12/2017 11:35 EST1.25P  19.3P  19.6P  7.6P  237P  8.6P  6.7P  
10/12/2017 11:40 EST1.25P  19.3P  19.5P  7.6P  236P  8.6P  6.6P  
10/12/2017 11:45 EST1.25P  19.3P  19.5P  7.6P  236P  8.6P  7.3P  
10/12/2017 11:50 EST1.25P  19.3P  19.5P  7.6P  236P  8.6P  6.5P  
10/12/2017 11:55 EST1.25P  19.3P  19.5P  7.6P  235P  8.7P  6.8P  
10/12/2017 12:00 EST1.25P  19.3P  19.5P  7.6P  236P  8.6P  6.5P  
10/12/2017 12:05 EST1.25P  19.3P  19.5P  7.5P  235P  8.6P  6.7P  
10/12/2017 12:10 EST1.25P  19.3P  19.5P  7.6P  236P  8.6P  6.6P  
10/12/2017 12:15 EST1.25P  19.3P  19.5P  7.6P  236P  8.7P  6.6P  
10/12/2017 12:20 EST1.25P  19.3P  19.5P  7.6P  236P  8.6P  6.7P  
10/12/2017 12:25 EST1.25P  19.3P  19.5P  7.6P  236P  8.7P  6.4P  
10/12/2017 12:30 EST1.25P  19.3P  19.5P  7.6P  236P  8.7P  6.2P  
10/12/2017 12:35 EST1.25P  19.3P  19.5P  7.6P  236P  8.6P  6.4P  
10/12/2017 12:40 EST1.25P  19.3P  19.4P  7.6P  236P  8.6P  6.2P  
10/12/2017 12:45 EST1.24P  18.8P  19.4P  7.6P  235P  8.7P  6.4P  
10/12/2017 12:50 EST1.24P  18.8P  19.4P  7.6P  235P  8.7P  6.3P  
10/12/2017 12:55 EST1.25P  19.3P  19.4P  7.6P  235P  8.7P  6.2P  
10/12/2017 13:00 EST1.25P  19.3P  19.4P  7.6P  235P  8.7P  6.1P  
10/12/2017 13:05 EST1.25P  19.3P  19.4P  7.6P  234P  8.7P  6.2P  
10/12/2017 13:10 EST1.24P  18.8P  19.4P  7.6P  234P  8.7P  6.4P  
10/12/2017 13:15 EST1.24P  18.8P  19.4P  7.6P  234P  8.7P  6.3P  
10/12/2017 13:20 EST1.24P  18.8P  19.4P  7.6P  233P  8.7P  6.2P  
10/12/2017 13:25 EST1.24P  18.8P  19.4P  7.6P  233P  8.7P  6.1P  
10/12/2017 13:30 EST1.24P  18.8P  19.4P  7.6P  233P  8.7P  6.3P  
10/12/2017 13:35 EST1.24P  18.8P  19.4P  7.6P  232P  8.6P  6.2P  
10/12/2017 13:40 EST1.24P  18.8P  19.4P  7.6P  232P  8.7P  6.1P  
10/12/2017 13:45 EST1.24P  18.8P  19.4P  7.6P  232P  8.7P  6.2P  
10/12/2017 13:50 EST1.23P  18.3P  19.3P  7.6P  231P  8.6P  6.0P  
10/12/2017 13:55 EST1.23P  18.3P  19.3P  7.6P  231P  8.7P  6.3P  
10/12/2017 14:00 EST1.23P  18.3P  19.3P  7.6P  231P  8.7P  6.0P  
10/12/2017 14:05 EST1.23P  18.3P  19.3P  7.6P  230P  8.7P  6.0P  
10/12/2017 14:10 EST1.23P  18.3P  19.3P  7.6P  230P  8.7P  5.9P  
10/12/2017 14:15 EST1.23P  18.3P  19.3P  7.6P  230P  8.7P  6.2P  
10/12/2017 14:20 EST1.23P  18.3P  19.3P  7.6P  231P  8.7P  6.1P  
10/12/2017 14:25 EST1.23P  18.3P  19.3P  7.6P  231P  8.7P  6.1P  
10/12/2017 14:30 EST1.23P  18.3P  19.3P  7.6P  231P  8.7P  6.1P  
10/12/2017 14:35 EST1.23P  18.3P  19.3P  7.6P  231P  8.7P  6.2P  
10/12/2017 14:40 EST1.24P  18.8P  19.3P  7.6P  231P  8.7P  6.3P  
10/12/2017 14:45 EST1.25P  19.3P  19.3P  7.6P  231P  8.7P  6.1P  
10/12/2017 14:50 EST1.25P  19.3P  19.3P  7.6P  230P  8.7P  6.0P  
10/12/2017 14:55 EST1.25P  19.3P  19.3P  7.6P  230P  8.7P  6.0P  
10/12/2017 15:00 EST1.26P  19.9P  19.3P  7.6P  229P  8.7P  6.1P  
10/12/2017 15:05 EST1.26P  19.9P  19.3P  7.6P  229P  8.7P  6.1P  
10/12/2017 15:10 EST1.26P  19.9P  19.2P  7.6P  228P  8.7P  6.0P  
10/12/2017 15:15 EST1.27P  20.4P  19.2P  7.6P  228P  8.7P  6.2P  
10/12/2017 15:20 EST1.27P  20.4P  19.2P  7.6P  227P  8.7P  6.2P  
10/12/2017 15:25 EST1.27P  20.4P  19.2P  7.6P  227P  8.7P  6.1P  
10/12/2017 15:30 EST1.27P  20.4P  19.2P  7.6P  226P  8.7P  6.3P  
10/12/2017 15:35 EST1.27P  20.4P  19.2P  7.6P  226P  8.7P  6.0P  
10/12/2017 15:40 EST1.27P  20.4P  19.2P  7.6P  225P  8.7P  6.1P  
10/12/2017 15:45 EST1.27P  20.4P  19.2P  7.6P  225P  8.7P  5.9P  
10/12/2017 15:50 EST1.27P  20.4P  19.2P  7.6P  224P  8.7P  6.1P  
10/12/2017 15:55 EST1.27P  20.4P  19.2P  7.6P  224P  8.7P  6.2P  
10/12/2017 16:00 EST1.27P  20.4P  19.2P  7.6P  223P  8.7P  6.0P  
10/12/2017 16:05 EST1.27P  20.4P  19.2P  7.6P  223P  8.7P  6.1P  
10/12/2017 16:10 EST1.26P  19.9P  19.2P  7.6P  223P  8.7P  5.9P  
10/12/2017 16:15 EST1.26P  19.9P  19.2P  7.6P  222P  8.7P  6.1P  
10/12/2017 16:20 EST1.26P  19.9P  19.2P  7.6P  222P  8.7P  6.0P  
10/12/2017 16:25 EST1.26P  19.9P  19.2P  7.6P  222P  8.7P  6.3P  
10/12/2017 16:30 EST1.26P  19.9P  19.2P  7.6P  222P  8.7P  6.1P  
10/12/2017 16:35 EST1.25P  19.3P  19.1P  7.6P  222P  8.7P  6.0P  
10/12/2017 16:40 EST1.25P  19.3P  19.1P  7.6P  221P  8.7P  6.0P  
10/12/2017 16:45 EST1.25P  19.3P  19.1P  7.6P  221P  8.7P  6.5P  
10/12/2017 16:50 EST1.24P  18.8P  19.1P  7.6P  221P  8.7P  5.7P  
10/12/2017 16:55 EST1.24P  18.8P  19.1P  7.6P  221P  8.7P  6.0P  
10/12/2017 17:00 EST1.24P  18.8P  19.1P  7.6P  220P  8.7P  6.0P  
10/12/2017 17:05 EST1.23P  18.3P  19.1P  7.6P  220P  8.7P  6.0P  
10/12/2017 17:10 EST1.23P  18.3P  19.1P  7.6P  220P  8.7P  5.9P  
10/12/2017 17:15 EST1.22P  17.8P  19.1P  7.6P  220P  8.7P  5.9P  
10/12/2017 17:20 EST1.22P  17.8P  19.1P  7.5P  220P  8.7P  5.7P  
10/12/2017 17:25 EST1.22P  17.8P  19.1P  7.6P  219P  8.7P  5.9P  
10/12/2017 17:30 EST1.21P  17.3P  19.1P  7.6P  219P  8.7P  5.8P  
10/12/2017 17:35 EST1.21P  17.3P  19.1P  7.6P  219P  8.7P  5.9P  
10/12/2017 17:40 EST1.20P  16.8P  19.0P  7.6P  219P  8.7P  5.8P  
10/12/2017 17:45 EST1.20P  16.8P  19.0P  7.6P  219P  8.7P  5.7P  
10/12/2017 17:50 EST1.20P  16.8P  19.0P  7.6P  219P  8.7P  5.6P  
10/12/2017 17:55 EST1.19P  16.3P  19.0P  7.6P  218P  8.7P  5.7P  
10/12/2017 18:00 EST1.19P  16.3P  19.0P  7.6P  218P  8.7P  5.5P  
10/12/2017 18:05 EST1.19P  16.3P  19.0P  7.6P  218P  8.7P  5.6P  
10/12/2017 18:10 EST1.18P  15.9P  19.0P  7.6P  218P  8.7P  5.7P  
10/12/2017 18:15 EST1.18P  15.9P  19.0P  7.6P  218P  8.7P  5.6P  
10/12/2017 18:20 EST1.18P  15.9P  19.0P  7.6P  218P  8.7P  5.4P  
10/12/2017 18:25 EST1.18P  15.9P  19.0P  7.6P  218P  8.7P  5.6P  
10/12/2017 18:30 EST1.18P  15.9P  19.0P  7.6P  218P  8.7P  5.5P  
10/12/2017 18:35 EST1.17P  15.4P  19.0P  7.6P  218P  8.7P  5.6P  
10/12/2017 18:40 EST1.17P  15.4P  19.0P  7.6P  218P  8.7P  5.5P  
10/12/2017 18:45 EST1.17P  15.4P  18.9P  7.6P  218P  8.7P  5.4P  
10/12/2017 18:50 EST1.17P  15.4P  18.9P  7.6P  218P  8.7P  5.3P  
10/12/2017 18:55 EST1.17P  15.4P  18.9P  7.6P  218P  8.7P  5.4P  
10/12/2017 19:00 EST1.17P  15.4P  18.9P  7.6P  218P  8.7P  5.4P  
10/12/2017 19:05 EST1.16P  15.0P  18.9P  7.6P  218P  8.7P  5.3P  
10/12/2017 19:10 EST1.16P  15.0P  18.9P  7.6P  218P  8.7P  5.4P  
10/12/2017 19:15 EST1.16P  15.0P  18.9P  7.6P  218P  8.7P  5.2P  
10/12/2017 19:20 EST1.16P  15.0P  18.9P  7.6P  218P  8.7P  5.3P  
10/12/2017 19:25 EST1.16P  15.0P  18.9P  7.6P  218P  8.7P  5.1P  
10/12/2017 19:30 EST1.16P  15.0P  18.8P  7.6P  218P  8.7P  5.2P  
10/12/2017 19:35 EST1.16P  15.0P  18.8P  7.6P  218P  8.7P  5.2P  
10/12/2017 19:40 EST1.16P  15.0P  18.8P  7.6P  218P  8.7P  5.5P  
10/12/2017 19:45 EST1.16P  15.0P  18.8P  7.6P  218P  8.7P  5.1P  
10/12/2017 19:50 EST1.15P  14.5P  18.8P  7.6P  219P  8.7P  5.2P  
10/12/2017 19:55 EST1.15P  14.5P  18.8P  7.6P  219P  8.7P  4.9P  
10/12/2017 20:00 EST1.15P  14.5P  18.8P  7.6P  219P  8.7P  4.9P  
10/12/2017 20:05 EST1.15P  14.5P  18.8P  7.6P  219P  8.7P  5.1P  
10/12/2017 20:10 EST1.15P  14.5P  18.8P  7.5P  219P  8.7P  5.1P  
10/12/2017 20:15 EST1.15P  14.5P  18.8P  7.6P  219P  8.7P  5.0P  
10/12/2017 20:20 EST1.15P  14.5P  18.8P  7.6P  219P  8.7P  5.1P  
10/12/2017 20:25 EST1.15P  14.5P  18.8P  7.6P  220P  8.7P  4.9P  
10/12/2017 20:30 EST1.15P  14.5P  18.7P  7.6P  220P  8.7P  5.0P  
10/12/2017 20:35 EST1.15P  14.5P  18.7P  7.6P  220P  8.7P  4.9P  
10/12/2017 20:40 EST1.15P  14.5P  18.7P  7.5P  220P  8.7P  5.1P  
10/12/2017 20:45 EST1.15P  14.5P  18.7P  7.6P  220P  8.7P  5.0P  
10/12/2017 20:50 EST1.14P  14.1P  18.7P  7.5P  221P  8.7P  4.8P  
10/12/2017 20:55 EST1.14P  14.1P  18.7P  7.6P  221P  8.7P  4.9P  
10/12/2017 21:00 EST1.14P  14.1P  18.7P  7.6P  221P  8.7P  4.7P  
10/12/2017 21:05 EST1.14P  14.1P  18.7P  7.6P  221P  8.7P  4.9P  
10/12/2017 21:10 EST1.14P  14.1P  18.6P  7.5P  222P  8.7P  4.8P  
10/12/2017 21:15 EST1.14P  14.1P  18.6P  7.6P  222P  8.7P  4.7P  
10/12/2017 21:20 EST1.14P  14.1P  18.6P  7.6P  222P  8.7P  4.7P  
10/12/2017 21:25 EST1.14P  14.1P  18.6P  7.6P  223P  8.7P  4.6P  
10/12/2017 21:30 EST1.14P  14.1P  18.6P  7.6P  223P  8.7P  4.6P  
10/12/2017 21:35 EST1.14P  14.1P  18.6P  7.6P  223P  8.7P  4.6P  
10/12/2017 21:40 EST1.14P  14.1P  18.6P  7.6P  223P  8.7P  4.7P  
10/12/2017 21:45 EST1.14P  14.1P  18.6P  7.6P  224P  8.7P  4.5P  
10/12/2017 21:50 EST1.13P  13.7P  18.6P  7.5P  224P  8.7P  4.5P  
10/12/2017 21:55 EST1.13P  13.7P  18.6P  7.6P  224P  8.7P  4.6P  
10/12/2017 22:00 EST1.13P  13.7P  18.5P  7.6P  224P  8.7P  4.4P  
10/12/2017 22:05 EST1.13P  13.7P  18.5P  7.5P  225P  8.7P  4.5P  
10/12/2017 22:10 EST1.13P  13.7P  18.5P  7.6P  225P  8.7P  4.5P  
10/12/2017 22:15 EST1.13P  13.7P  18.5P  7.6P  225P  8.7P  4.3P  
10/12/2017 22:20 EST1.13P  13.7P  18.5P  7.6P  226P  8.7P  4.3P  
10/12/2017 22:25 EST1.13P  13.7P  18.5P  7.6P  226P  8.7P  4.3P  
10/12/2017 22:30 EST1.13P  13.7P  18.5P  7.6P  226P  8.7P  4.5P  
10/12/2017 22:35 EST1.13P  13.7P  18.5P  7.6P  226P  8.7P  4.3P  
10/12/2017 22:40 EST1.13P  13.7P  18.5P  7.6P  227P  8.7P  4.3P  
10/12/2017 22:45 EST1.13P  13.7P  18.4P  7.6P  227P  8.7P  4.2P  
10/12/2017 22:50 EST1.13P  13.7P  18.4P  7.6P  227P  8.7P  4.0P  
10/12/2017 22:55 EST1.13P  13.7P  18.4P  7.6P  228P  8.7P  4.0P  
10/12/2017 23:00 EST1.13P  13.7P  18.4P  7.6P  228P  8.7P  4.1P  
10/12/2017 23:05 EST1.12P  13.3P  18.4P  7.6P  229P  8.7P  4.0P  
10/12/2017 23:10 EST1.12P  13.3P  18.4P  7.6P  229P  8.7P  4.0P  
10/12/2017 23:15 EST1.12P  13.3P  18.4P  7.6P  229P  8.7P  4.1P  
10/12/2017 23:20 EST1.12P  13.3P  18.4P  7.5P  230P  8.7P  4.3P  
10/12/2017 23:25 EST1.12P  13.3P  18.4P  7.6P  230P  8.7P  4.0P  
10/12/2017 23:30 EST1.12P  13.3P  18.4P  7.6P  230P  8.7P  4.0P  
10/12/2017 23:35 EST1.12P  13.3P  18.4P  7.6P  231P  8.7P  4.2P  
10/12/2017 23:40 EST1.12P  13.3P  18.4P  7.6P  231P  8.7P  3.8P  
10/12/2017 23:45 EST1.12P  13.3P  18.4P  7.6P  231P  8.7P  4.0P  
10/12/2017 23:50 EST1.11P  12.9P  18.4P  7.6P  232P  8.7P  3.9P  
10/12/2017 23:55 EST1.11P  12.9P  18.3P  7.6P  232P  8.7P  4.2P  
10/13/2017 00:00 EST1.11P  12.9P  18.3P  7.5P  232P  8.7P  4.0P  
10/13/2017 00:05 EST1.11P  12.9P  18.3P  7.6P  233P  8.7P  3.9P  
10/13/2017 00:10 EST1.11P  12.9P  18.3P  7.6P  233P  8.8P  3.8P  
10/13/2017 00:15 EST1.11P  12.9P  18.3P  7.5P  234P  8.7P  4.2P  
10/13/2017 00:20 EST1.11P  12.9P  18.3P  7.6P  234P  8.8P  3.8P  
10/13/2017 00:25 EST1.11P  12.9P  18.3P  7.6P  234P  8.8P  3.8P  
10/13/2017 00:30 EST1.11P  12.9P  18.3P  7.6P  235P  8.8P  3.7P  
10/13/2017 00:35 EST1.10P  12.5P  18.3P  7.6P  235P  8.7P  3.6P  
10/13/2017 00:40 EST1.10P  12.5P  18.3P  7.5P  236P  8.7P  3.7P  
10/13/2017 00:45 EST1.10P  12.5P  18.3P  7.6P  236P  8.7P  3.7P  
10/13/2017 00:50 EST1.10P  12.5P  18.3P  7.6P  236P  8.7P  3.7P  
10/13/2017 00:55 EST1.10P  12.5P  18.2P  7.6P  237P  8.7P  3.7P  
10/13/2017 01:00 EST1.10P  12.5P  18.2P  7.6P  237P  8.7P  3.6P  
10/13/2017 01:05 EST1.10P  12.5P  18.2P  7.5P  238P  8.7P  3.6P  
10/13/2017 01:10 EST1.10P  12.5P  18.2P  7.6P  238P  8.7P  3.6P  
10/13/2017 01:15 EST1.10P  12.5P  18.2P  7.6P  238P  8.7P  3.5P  
10/13/2017 01:20 EST1.09P  12.1P  18.2P  7.6P  239P  8.7P  3.7P  
10/13/2017 01:25 EST1.09P  12.1P  18.2P  7.6P  239P  8.7P  3.5P  
10/13/2017 01:30 EST1.09P  12.1P  18.2P  7.5P  240P  8.7P  3.6P  
10/13/2017 01:35 EST1.09P  12.1P  18.2P  7.6P  240P  8.7P  3.5P  
10/13/2017 01:40 EST1.09P  12.1P  18.2P  7.6P  241P  8.7P  3.5P  
10/13/2017 01:45 EST1.09P  12.1P  18.2P  7.6P  241P  8.8P  4.1P  
10/13/2017 01:50 EST1.09P  12.1P  18.2P  7.6P  241P  8.7P  3.6P  
10/13/2017 01:55 EST1.08P  11.7P  18.2P  7.6P  242P  8.7P  3.5P  
10/13/2017 02:00 EST1.08P  11.7P  18.2P  7.6P  242P  8.7P  3.6P  
10/13/2017 02:05 EST1.08P  11.7P  18.2P  7.5P  243P  8.7P  3.4P  
10/13/2017 02:10 EST1.08P  11.7P  18.2P  7.6P  244P  8.7P  3.4P  
10/13/2017 02:15 EST1.08P  11.7P  18.2P  7.6P  244P  8.7P  3.3P  
10/13/2017 02:20 EST1.08P  11.7P  18.2P  7.6P  245P  8.7P  3.3P  
10/13/2017 02:25 EST1.07P  11.3P  18.2P  7.6P  245P  8.7P  3.3P  
10/13/2017 02:30 EST1.07P  11.3P  18.1P  7.6P  246P  8.7P  3.4P  
10/13/2017 02:35 EST1.07P  11.3P  18.1P  7.5P  246P  8.7P  3.3P  
10/13/2017 02:40 EST1.07P  11.3P  18.1P  7.6P  247P  8.7P  3.2P  
10/13/2017 02:45 EST1.07P  11.3P  18.1P  7.5P  248P  8.7P  3.3P  
10/13/2017 02:50 EST1.06P  11.0P  18.1P  7.6P  248P  8.7P  3.2P  
10/13/2017 02:55 EST1.06P  11.0P  18.1P  7.6P  249P  8.7P  3.2P  
10/13/2017 03:00 EST1.06P  11.0P  18.1P  7.6P  249P  8.7P  3.3P  
10/13/2017 03:05 EST1.06P  11.0P  18.1P  7.6P  250P  8.7P  3.1P  
10/13/2017 03:10 EST1.06P  11.0P  18.1P  7.6P  250P  8.7P  3.1P  
10/13/2017 03:15 EST1.06P  11.0P  18.1P  7.6P  251P  8.7P  3.1P  
10/13/2017 03:20 EST1.05P  10.6P  18.1P  7.6P  251P  8.7P  3.3P  
10/13/2017 03:25 EST1.05P  10.6P  18.1P  7.6P  251P  8.7P  3.1P  
10/13/2017 03:30 EST1.05P  10.6P  18.1P  7.6P  252P  8.7P  3.1P  
10/13/2017 03:35 EST1.05P  10.6P  18.1P  7.6P  252P  8.7P  3.1P  
10/13/2017 03:40 EST1.04P  10.3P  18.1P  7.6P  252P  8.7P  3.0P  
10/13/2017 03:45 EST1.04P  10.3P  18.0P  7.6P  253P  8.7P  3.1P  
10/13/2017 03:50 EST1.04P  10.3P  18.0P  7.6P  253P  8.7P  3.1P  
10/13/2017 03:55 EST1.04P  10.3P  18.0P  7.6P  254P  8.7P  3.0P  
10/13/2017 04:00 EST1.04P  10.3P  18.0P  7.6P  254P  8.7P  3.0P  
10/13/2017 04:05 EST1.03P  9.93P  18.0P  7.6P  254P  8.7P  3.1P  
10/13/2017 04:10 EST1.03P  9.93P  18.0P  7.6P  255P  8.7P  2.9P  
10/13/2017 04:15 EST1.03P  9.93P  18.0P  7.6P  255P  8.7P  2.9P  
10/13/2017 04:20 EST1.03P  9.93P  18.0P  7.6P  256P  8.7P  3.0P  
10/13/2017 04:25 EST1.02P  9.60P  18.0P  7.6P  256P  8.7P  3.0P  
10/13/2017 04:30 EST1.02P  9.60P  18.0P  7.6P  256P  8.7P  2.9P  
10/13/2017 04:35 EST1.02P  9.60P  18.0P  7.6P  257P  8.7P  2.9P  
10/13/2017 04:40 EST1.01P  9.28P  18.0P  7.6P  257P  8.7P  2.9P  
10/13/2017 04:45 EST1.01P  9.28P  18.0P  7.6P  257P  8.7P  2.8P  
10/13/2017 04:50 EST1.01P  9.28P  18.0P  7.6P  258P  8.7P  2.8P  
10/13/2017 04:55 EST1.01P  9.28P  18.0P  7.6P  258P  8.7P  2.8P  
10/13/2017 05:00 EST1.00P  8.96P  18.0P  7.6P  259P  8.7P  2.8P  
10/13/2017 05:05 EST1.00P  8.96P  18.0P  7.6P  259P  8.7P  2.8P  
10/13/2017 05:10 EST1.00P  8.96P  18.0P  7.6P  259P  8.7P  2.7P  
10/13/2017 05:15 EST1.00P  8.96P  18.0P  7.6P  260P  8.7P  2.6P  
10/13/2017 05:20 EST1.00P  8.96P  17.9P  7.6P  260P  8.7P  2.6P  
10/13/2017 05:25 EST0.99P  8.65P  17.9P  7.6P  261P  8.7P  2.8P  
10/13/2017 05:30 EST0.99P  8.65P  17.9P  7.6P  261P  8.7P  2.7P  
10/13/2017 05:35 EST0.99P  8.65P  17.9P  7.6P  262P  8.7P  2.8P  
10/13/2017 05:40 EST0.99P  8.65P  17.9P  7.6P  262P  8.7P  2.7P  
10/13/2017 05:45 EST0.99P  8.65P  17.9P  7.6P  262P  8.7P  2.6P  
10/13/2017 05:50 EST0.99P  8.65P  17.9P  7.6P  263P  8.7P  2.7P  
10/13/2017 05:55 EST0.98P  8.35P  17.9P  7.6P  263P  8.7P  2.6P  
10/13/2017 06:00 EST0.98P  8.35P  17.9P  7.6P  264P  8.7P  2.7P  
10/13/2017 06:05 EST0.98P  8.35P  17.9P  7.6P  264P  8.7P  2.5P  
10/13/2017 06:10 EST0.98P  8.35P  17.9P  7.6P  264P  8.7P  2.8P  
10/13/2017 06:15 EST0.98P  8.35P  17.9P  7.6P  265P  8.7P  2.6P  
10/13/2017 06:20 EST0.98P  8.35P  17.9P  7.6P  265P  8.7P  2.6P  
10/13/2017 06:25 EST0.98P  8.35P  17.9P  7.6P  266P  8.7P  2.6P  
10/13/2017 06:30 EST0.97P  8.06P  17.9P  7.6P  266P  8.7P  2.6P  
10/13/2017 06:35 EST0.97P  8.06P  17.9P  7.6P  267P  8.7P  2.5P  
10/13/2017 06:40 EST0.97P  8.06P  17.9P  7.6P  267P  8.7P  2.5P  
10/13/2017 06:45 EST0.97P  8.06P  17.9P  7.6P  267P  8.7P  2.5P  
10/13/2017 06:50 EST0.97P  8.06P  17.8P  7.6P  268P  8.7P  2.5P  
10/13/2017 06:55 EST0.96P  7.77P  17.8P  7.6P  268P  8.7P  2.6P  
10/13/2017 07:00 EST0.96P  7.77P  17.8P  7.6P  269P  8.7P  2.5P  
10/13/2017 07:05 EST0.96P  7.77P  17.8P  7.6P  269P  8.7P  2.4P  
10/13/2017 07:10 EST0.96P  7.77P  17.8P  7.6P  270P  8.7P  2.4P  
10/13/2017 07:15 EST0.96P  7.77P  17.8P  7.6P  270P  8.7P  2.6P  
10/13/2017 07:20 EST0.95P  7.49P  17.8P  7.6P  271P  8.7P  2.4P  
10/13/2017 07:25 EST0.95P  7.49P  17.8P  7.6P  271P  8.7P  2.4P  
10/13/2017 07:30 EST0.95P  7.49P  17.8P  7.5P  272P  8.7P  2.4P  
10/13/2017 07:35 EST0.95P  7.49P  17.8P  7.6P  272P  8.7P  2.3P  
10/13/2017 07:40 EST0.95P  7.49P  17.8P  7.6P  273P  8.7P  2.5P  
10/13/2017 07:45 EST0.95P  7.49P  17.8P  7.6P  273P  8.7P  2.4P  
10/13/2017 07:50 EST0.94P  7.21P  17.8P  7.6P  273P  8.7P  2.3P  
10/13/2017 07:55 EST0.94P  7.21P  17.8P  7.6P  274P  8.7P  2.4P  
10/13/2017 08:00 EST0.94P  7.21P  17.8P  7.6P  275P  8.7P  2.4P  
10/13/2017 08:05 EST0.94P  7.21P  17.8P  7.6P  275P  8.7P  2.3P  
10/13/2017 08:10 EST0.94P  7.21P  17.8P  7.6P  276P  8.7P  2.3P  
10/13/2017 08:15 EST0.94P  7.21P  17.8P  7.6P  276P  8.7P  2.3P  
10/13/2017 08:20 EST0.94P  7.21P  17.8P  7.6P  277P  8.7P  2.4P  
10/13/2017 08:25 EST0.93P  6.95P  17.8P  7.6P  277P  8.7P  2.2P  
10/13/2017 08:30 EST0.93P  6.95P  17.8P  7.6P  278P  8.7P  2.4P  
10/13/2017 08:35 EST0.93P  6.95P  17.8P  7.6P  278P  8.7P  2.6P  
10/13/2017 08:40 EST0.93P  6.95P  17.8P  7.6P  279P  8.7P  2.2P  
10/13/2017 08:45 EST0.93P  6.95P  17.8P  7.6P  279P  8.7P  2.2P  
10/13/2017 08:50 EST0.93P  6.95P  17.8P  7.6P  280P  8.7P  2.2P  
10/13/2017 08:55 EST0.93P  6.95P  17.8P  7.6P  280P  8.7P  2.2P  
10/13/2017 09:00 EST0.93P  6.95P  17.8P  7.6P  281P  8.7P  2.2P  
10/13/2017 09:05 EST0.93P  6.95P  17.8P  7.6P  281P  8.7P  2.2P  
10/13/2017 09:10 EST0.92P  6.69P  17.8P  7.6P  282P  8.7P  2.3P  
10/13/2017 09:15 EST0.92P  6.69P  17.8P  7.6P  282P  8.7P  2.2P  
10/13/2017 09:20 EST0.92P  6.69P  17.8P  7.6P  283P  8.7P  2.1P  
10/13/2017 09:25 EST0.92P  6.69P  17.8P  7.6P  283P  8.7P  2.2P  
10/13/2017 09:30 EST0.92P  6.69P  17.8P  7.6P  284P  8.7P  2.1P  
10/13/2017 09:35 EST0.92P  6.69P  17.8P  7.6P  284P  8.7P  2.2P  
10/13/2017 09:40 EST0.92P  6.69P  17.8P  7.6P  285P  8.7P  2.3P  
10/13/2017 09:45 EST0.92P  6.69P  17.8P  7.6P  286P  8.7P  2.1P  
10/13/2017 09:50 EST0.92P  6.69P  17.8P  7.6P  286P  8.7P  2.1P  
10/13/2017 09:55 EST0.92P  6.69P  17.8P  7.6P  287P  8.7P  2.3P  
10/13/2017 10:00 EST0.92P  6.69P  17.8P  7.6P  287P  8.7P  2.1P  
10/13/2017 10:05 EST0.92P  6.69P  17.8P  7.6P  288P  8.7P  2.0P  
10/13/2017 10:10 EST0.92P  6.69P  17.8P  7.6P  289P  8.7P  2.0P  
10/13/2017 10:15 EST0.91P  6.43P  17.8P  7.6P  289P  8.7P  2.0P  
10/13/2017 10:20 EST0.91P  6.43P  17.8P  7.6P  290P  8.7P  2.0P  
10/13/2017 10:25 EST0.91P  6.43P  17.8P  7.6P  290P  8.7P  2.0P  
10/13/2017 10:30 EST0.91P  6.43P  17.8P  7.6P  291P  8.7P  2.0P  
10/13/2017 10:35 EST0.91P  6.43P  17.8P  7.6P  292P  8.7P  2.0P  
10/13/2017 10:40 EST0.91P  6.43P  17.8P  7.6P  292P  8.7P  1.9P  
10/13/2017 10:45 EST0.91P  6.43P  17.9P  7.6P  293P  8.7P  1.9P  
10/13/2017 10:50 EST0.91P  6.43P  17.9P  7.6P  293P  8.7P  1.9P  
10/13/2017 10:55 EST0.91P  6.43P  17.9P  7.6P  294P  8.7P  2.1P  
10/13/2017 11:00 EST0.91P  6.43P  17.9P  7.6P  294P  8.7P  1.9P  
10/13/2017 11:05 EST0.91P  6.43P  17.9P  7.6P  295P  8.7P  1.9P  
10/13/2017 11:10 EST0.91P  6.43P  17.9P  7.6P  296P  8.7P  1.9P  
10/13/2017 11:15 EST0.91P  6.43P  17.9P  7.6P  296P  8.7P  2.0P  
10/13/2017 11:20 EST0.91P  6.43P  17.9P  7.6P  297P  8.7P  1.9P  
10/13/2017 11:25 EST0.91P  6.43P  17.9P  7.6P  297P  8.7P  1.8P  
10/13/2017 11:30 EST0.91P  6.43P  17.9P  7.6P  298P  8.7P  1.8P  
10/13/2017 11:35 EST0.91P  6.43P  17.9P  7.6P  298P  8.7P  1.8P  
10/13/2017 11:40 EST0.91P  6.43P  17.9P  7.6P  299P  8.7P  1.8P  
10/13/2017 11:45 EST0.91P  6.43P  17.9P  7.6P  299P  8.7P  1.8P  
10/13/2017 11:50 EST0.91P  6.43P  17.9P  7.6P  300P  8.7P  1.8P  
10/13/2017 11:55 EST0.91P  6.43P  17.9P  7.6P  301P  8.7P  1.9P  
10/13/2017 12:00 EST0.91P  6.43P  17.9P  7.6P  301P  8.7P  1.7P  
10/13/2017 12:05 EST0.91P  6.43P  17.9P  7.6P  302P  8.7P  1.9P  
10/13/2017 12:10 EST0.90P  6.15P  17.9P  7.6P  302P  8.7P  1.8P  
10/13/2017 12:15 EST0.90P  6.15P  17.9P  7.6P  303P  8.7P  1.8P  
10/13/2017 12:20 EST0.90P  6.15P  17.9P  7.6P  303P  8.8P  1.8P  
10/13/2017 12:25 EST0.90P  6.15P  17.9P  7.6P  304P  8.7P  1.7P  
10/13/2017 12:30 EST0.90P  6.15P  17.9P  7.6P  304P  8.7P  1.7P  
10/13/2017 12:35 EST0.90P  6.15P  17.9P  7.6P  305P  8.7P  1.7P  
10/13/2017 12:40 EST0.90P  6.15P  18.0P  7.6P  306P  8.8P  1.7P  
10/13/2017 12:45 EST0.90P  6.15P  18.0P  7.6P  306P  8.8P  1.7P  
10/13/2017 12:50 EST0.89P  5.88P  18.0P  7.6P  307P  8.8P  1.6P  
10/13/2017 12:55 EST0.89P  5.88P  18.0P  7.6P  308P  8.7P  1.6P  
10/13/2017 13:00 EST0.89P  5.88P  18.0P  7.6P  308P  8.7P  1.7P  
10/13/2017 13:05 EST0.89P  5.88P  18.0P  7.6P  309P  8.7P  1.6P  
10/13/2017 13:10 EST0.89P  5.88P  18.0P  7.6P  309P  8.7P  1.6P  
10/13/2017 13:15 EST0.88P  5.61P  18.0P  7.6P  310P  8.7P  1.7P  
10/13/2017 13:20 EST0.88P  5.61P  18.0P  7.6P  311P  8.7P  1.6P  
10/13/2017 13:25 EST0.87P  5.35P  18.0P  7.6P  311P  8.7P  1.6P  
10/13/2017 13:30 EST0.87P  5.35P  18.0P  7.6P  312P  8.7P  1.7P  
10/13/2017 13:35 EST0.87P  5.35P  18.0P  7.6P  312P  8.7P  1.7P  
10/13/2017 13:40 EST0.87P  5.35P  18.0P  7.6P  313P  8.7P  1.6P  
10/13/2017 13:45 EST0.86P  5.10P  18.0P  7.6P  314P  8.7P  1.7P  
10/13/2017 13:50 EST0.86P  5.10P  18.0P  7.6P  314P  8.7P  1.6P  
10/13/2017 13:55 EST0.86P  5.10P  18.0P  7.6P  315P  8.7P  1.5P  
10/13/2017 14:00 EST0.86P  5.10P  18.0P  7.6P  315P  8.7P  1.6P  
10/13/2017 14:05 EST0.85P  4.86P  18.0P  7.6P  316P  8.7P  1.5P  
10/13/2017 14:10 EST0.85P  4.86P  18.0P  7.6P  317P  8.7P  1.5P  
10/13/2017 14:15 EST0.85P  4.86P  18.0P  7.6P  317P  8.7P  1.5P  
10/13/2017 14:20 EST0.85P  4.86P  18.0P  7.6P  318P  8.7P  1.5P  
10/13/2017 14:25 EST0.85P  4.86P  18.0P  7.6P  318P  8.7P  1.4P  
10/13/2017 14:30 EST0.85P  4.86P  18.0P  7.6P  319P  8.7P  1.5P  
10/13/2017 14:35 EST0.84P  4.62P  18.0P  7.6P  320P  8.7P  1.5P  
10/13/2017 14:40 EST0.84P  4.62P  18.0P  7.6P  320P  8.7P  1.6P  
10/13/2017 14:45 EST0.84P  4.62P  18.0P  7.6P  321P  8.7P  1.5P  
10/13/2017 14:50 EST0.85P  4.86P  18.0P  7.6P  321P  8.7P  1.5P  
10/13/2017 14:55 EST0.85P  4.86P  18.0P  7.6P  322P  8.7P  1.4P  
10/13/2017 15:00 EST0.85P  4.86P  18.0P  7.6P  323P  8.7P  1.4P  
10/13/2017 15:05 EST0.85P  4.86P  18.0P  7.6P  323P  8.7P  1.4P  
10/13/2017 15:10 EST0.85P  4.86P  18.0P  7.6P  324P  8.6P  1.5P  
10/13/2017 15:15 EST0.85P  4.86P  18.0P  7.6P  324P  8.6P  1.4P  
10/13/2017 15:20 EST0.85P  4.86P  18.0P  7.6P  325P  8.6P  1.4P  
10/13/2017 15:25 EST0.85P  4.86P  18.0P  7.6P  325P  8.6P  1.4P  
10/13/2017 15:30 EST0.85P  4.86P  18.0P  7.6P  326P  8.6P  1.4P  
10/13/2017 15:35 EST0.85P  4.86P  18.0P  7.6P  326P  8.6P  1.4P  
10/13/2017 15:40 EST0.85P  4.86P  18.0P  7.6P  327P  8.6P  1.4P  
10/13/2017 15:45 EST0.85P  4.86P  18.0P  7.6P  328P  8.6P  1.4P  
10/13/2017 15:50 EST0.85P  4.86P  18.0P  7.6P  328P  8.6P  1.3P  
10/13/2017 15:55 EST0.85P  4.86P  18.0P  7.6P  329P  8.6P  1.3P  
10/13/2017 16:00 EST0.85P  4.86P  18.0P  7.6P  330P  8.6P  1.4P  
10/13/2017 16:05 EST0.85P  4.86P  18.0P  7.6P  330P  8.6P  1.3P  
10/13/2017 16:10 EST0.86P  5.10P  18.0P  7.6P  331P  8.6P  1.3P  
10/13/2017 16:15 EST0.86P  5.10P  18.0P  7.6P  332P  8.6P  1.3P  
10/13/2017 16:20 EST0.86P  5.10P  18.0P  7.6P  332P  8.6P  1.3P  
10/13/2017 16:25 EST0.86P  5.10P  18.0P  7.6P  333P  8.6P  1.3P  
10/13/2017 16:30 EST0.86P  5.10P  18.0P  7.6P  333P  8.6P  1.3P  
10/13/2017 16:35 EST0.87P  5.35P  18.0P  7.6P  334P  8.6P  1.3P  
10/13/2017 16:40 EST0.87P  5.35P  18.0P  7.6P  334P  8.6P  1.3P  
10/13/2017 16:45 EST0.88P  5.61P  18.0P  7.6P  335P  8.6P  1.3P  
10/13/2017 16:50 EST0.88P  5.61P  18.0P  7.6P  336P  8.6P  1.3P  
10/13/2017 16:55 EST0.88P  5.61P  18.0P  7.6P  336P  8.6P  1.3P  
10/13/2017 17:00 EST0.89P  5.88P  18.0P  7.6P  337P  8.6P  1.2P  
10/13/2017 17:05 EST0.89P  5.88P  18.0P  7.6P  338P  8.6P  1.3P  
10/13/2017 17:10 EST0.89P  5.88P  18.0P  7.6P  338P  8.6P  1.2P  
10/13/2017 17:15 EST0.89P  5.88P  18.0P  7.6P  339P  8.6P  1.4P  
10/13/2017 17:20 EST0.89P  5.88P  18.0P  7.6P  340P  8.6P  1.4P  
10/13/2017 17:25 EST0.89P  5.88P  18.0P  7.6P  340P  8.6P  1.3P  
10/13/2017 17:30 EST0.89P  5.88P  18.0P  7.6P  341P  8.6P  1.3P  
10/13/2017 17:35 EST0.89P  5.88P  18.0P  7.6P  341P  8.6P  1.4P  
10/13/2017 17:40 EST0.89P  5.88P  18.0P  7.6P  342P  8.6P  1.4P  
10/13/2017 17:45 EST0.89P  5.88P  18.0P  7.6P  343P  8.6P  1.5P  
10/13/2017 17:50 EST0.89P  5.88P  18.0P  7.6P  343P  8.6P  1.5P  
10/13/2017 17:55 EST0.89P  5.88P  18.0P  7.6P  344P  8.6P  1.3P  
10/13/2017 18:00 EST0.89P  5.88P  18.0P  7.6P  345P  8.6P  1.4P  
10/13/2017 18:05 EST0.89P  5.88P  18.0P  7.6P  345P  8.6P  1.3P  
10/13/2017 18:10 EST0.89P  5.88P  18.0P  7.6P  346P  8.6P  1.4P  
10/13/2017 18:15 EST0.89P  5.88P  18.0P  7.6P  347P  8.6P  1.3P  
10/13/2017 18:20 EST0.89P  5.88P  18.0P  7.6P  348P  8.6P  1.2P  
10/13/2017 18:25 EST0.89P  5.88P  18.0P  7.6P  348P  8.6P  1.3P  
10/13/2017 18:30 EST0.89P  5.88P  18.0P  7.6P  349P  8.6P  1.3P  
10/13/2017 18:35 EST0.89P  5.88P  18.0P  7.6P  350P  8.6P  1.3P  
10/13/2017 18:40 EST0.89P  5.88P  18.0P  7.6P  351P  8.6P  1.3P  
10/13/2017 18:45 EST0.89P  5.88P  17.9P  7.6P  351P  8.6P  1.3P  
10/13/2017 18:50 EST0.89P  5.88P  17.9P  7.6P  352P  8.6P  1.3P  
10/13/2017 18:55 EST0.89P  5.88P  17.9P  7.6P  353P  8.6P  1.3P  
10/13/2017 19:00 EST0.89P  5.88P  17.9P  7.6P  354P  8.6P  1.2P  
10/13/2017 19:05 EST0.88P  5.61P  17.9P  7.6P  354P  8.6P  1.2P  
10/13/2017 19:10 EST0.88P  5.61P  17.9P  7.6P  355P  8.6P  1.3P  
10/13/2017 19:15 EST0.88P  5.61P  17.9P  7.6P  356P  8.6P  1.2P  
10/13/2017 19:20 EST0.88P  5.61P  17.9P  7.6P  356P  8.6P  1.3P  
10/13/2017 19:25 EST0.88P  5.61P  17.9P  7.6P  357P  8.6P  1.2P  
10/13/2017 19:30 EST0.87P  5.35P  17.9P  7.6P  358P  8.6P  1.2P  
10/13/2017 19:35 EST0.87P  5.35P  17.9P  7.6P  358P  8.6P  1.2P  
10/13/2017 19:40 EST0.87P  5.35P  17.9P  7.6P  359P  8.6P  1.2P  
10/13/2017 19:45 EST0.87P  5.35P  17.9P  7.6P  359P  8.6P  1.3P  
10/13/2017 19:50 EST0.86P  5.10P  17.9P  7.6P  360P  8.6P  1.2P  
10/13/2017 19:55 EST0.86P  5.10P  17.9P  7.6P  361P  8.6P  1.2P  
10/13/2017 20:00 EST0.86P  5.10P  17.9P  7.6P  361P  8.6P  1.2P  
10/13/2017 20:05 EST0.86P  5.10P  17.9P  7.6P  362P  8.6P  1.1P  
10/13/2017 20:10 EST0.85P  4.86P  17.9P  7.6P  362P  8.6P  1.2P  
10/13/2017 20:15 EST0.85P  4.86P  17.9P  7.6P  363P  8.6P  1.2P  
10/13/2017 20:20 EST0.85P  4.86P  17.9P  7.6P  364P  8.6P  1.2P  
10/13/2017 20:25 EST0.85P  4.86P  17.9P  7.6P  364P  8.6P  1.1P  
10/13/2017 20:30 EST0.85P  4.86P  17.9P  7.6P  365P  8.6P  1.1P  
10/13/2017 20:35 EST0.85P  4.86P  17.9P  7.6P  365P  8.6P  1.2P  
10/13/2017 20:40 EST0.85P  4.86P  17.9P  7.6P  366P  8.6P  1.1P  
10/13/2017 20:45 EST0.84P  4.62P  17.9P  7.6P  366P  8.6P  1.1P  
10/13/2017 20:50 EST0.84P  4.62P  17.9P  7.6P  367P  8.6P  1.2P  
10/13/2017 20:55 EST0.84P  4.62P  17.9P  7.6P  368P  8.6P  1.1P  
10/13/2017 21:00 EST0.84P  4.62P  17.9P  7.6P  368P  8.6P  1.1P  
10/13/2017 21:05 EST0.85P  4.86P  17.9P  7.6P  368P  8.5P  1.1P  
10/13/2017 21:10 EST0.84P  4.62P  17.9P  7.6P  369P  8.6P  1.1P  
10/13/2017 21:15 EST0.84P  4.62P  17.9P  7.6P  370P  8.5P  1.1P  
10/13/2017 21:20 EST0.84P  4.62P  17.9P  7.6P  370P  8.5P  1.1P  
10/13/2017 21:25 EST0.84P  4.62P  17.9P  7.6P  371P  8.5P  1.1P  
10/13/2017 21:30 EST0.85P  4.86P  17.9P  7.6P  371P  8.5P  1.1P  
10/13/2017 21:35 EST0.85P  4.86P  17.9P  7.6P  372P  8.5P  1.2P  
10/13/2017 21:40 EST0.85P  4.86P  17.9P  7.6P  373P  8.5P  1.2P  
10/13/2017 21:45 EST0.85P  4.86P  17.9P  7.6P  374P  8.5P  1.1P  
10/13/2017 21:50 EST0.85P  4.86P  17.9P  7.6P  375P  8.5P  1.2P  
10/13/2017 21:55 EST0.85P  4.86P  17.9P  7.6P  375P  8.5P  1.2P  
10/13/2017 22:00 EST0.85P  4.86P  17.9P  7.6P  376P  8.5P  1.1P  
10/13/2017 22:05 EST0.85P  4.86P  17.9P  7.6P  377P  8.5P  1.1P  
10/13/2017 22:10 EST0.85P  4.86P  17.9P  7.6P  377P  8.5P  1.1P  
10/13/2017 22:15 EST0.85P  4.86P  17.8P  7.6P  378P  8.5P  1.1P  
10/13/2017 22:20 EST0.85P  4.86P  17.8P  7.6P  379P  8.5P  1.2P  
10/13/2017 22:25 EST0.85P  4.86P  17.8P  7.6P  380P  8.5P  1.1P  
10/13/2017 22:30 EST0.85P  4.86P  17.8P  7.6P  381P  8.5P  1.1P  
10/13/2017 22:35 EST0.85P  4.86P  17.8P  7.6P  381P  8.5P  1.1P  
10/13/2017 22:40 EST0.85P  4.86P  17.8P  7.6P  382P  8.5P  1.1P  
10/13/2017 22:45 EST0.85P  4.86P  17.8P  7.6P  383P  8.5P  1.1P  
10/13/2017 22:50 EST0.86P  5.10P  17.8P  7.6P  383P  8.5P  1.1P  
10/13/2017 22:55 EST0.86P  5.10P  17.8P  7.6P  384P  8.5P  1.0P  
10/13/2017 23:00 EST0.86P  5.10P  17.8P  7.6P  385P  8.5P  1.1P  
10/13/2017 23:05 EST0.86P  5.10P  17.8P  7.6P  385P  8.5P  1.0P  
10/13/2017 23:10 EST0.86P  5.10P  17.8P  7.6P  386P  8.5P  1.1P  
10/13/2017 23:15 EST0.86P  5.10P  17.8P  7.6P  387P  8.5P  1.0P  
10/13/2017 23:20 EST0.86P  5.10P  17.8P  7.6P  387P  8.5P  1.0P  
10/13/2017 23:25 EST0.86P  5.10P  17.8P  7.6P  388P  8.5P  1.0P  
10/13/2017 23:30 EST0.86P  5.10P  17.8P  7.6P  389P  8.5P  1.0P  
10/13/2017 23:35 EST0.86P  5.10P  17.8P  7.6P  389P  8.5P  1.0P  
10/13/2017 23:40 EST0.86P  5.10P  17.8P  7.6P  390P  8.5P  1.1P  
10/13/2017 23:45 EST0.86P  5.10P  17.8P  7.6P  390P  8.5P  1.0P  
10/13/2017 23:50 EST0.86P  5.10P  17.8P  7.6P  391P  8.5P  1.0P  
10/13/2017 23:55 EST0.86P  5.10P  17.8P  7.6P  391P  8.5P  1.0P  
10/14/2017 00:00 EST0.86P  5.10P  17.8P  7.6P  391P  8.5P  1.0P  
10/14/2017 00:05 EST0.86P  5.10P  17.8P  7.6P  392P  8.5P  1.1P  
10/14/2017 00:10 EST0.86P  5.10P  17.8P  7.6P  392P  8.5P  1.0P  
10/14/2017 00:15 EST0.86P  5.10P  17.8P  7.6P  393P  8.6P  0.9P  
10/14/2017 00:20 EST0.86P  5.10P  17.8P  7.6P  393P  8.5P  1.0P  
10/14/2017 00:25 EST0.86P  5.10P  17.8P  7.6P  393P  8.5P  1.0P  
10/14/2017 00:30 EST0.86P  5.10P  17.8P  7.6P  394P  8.5P  1.0P  
10/14/2017 00:35 EST0.86P  5.10P  17.8P  7.6P  394P  8.6P  1.0P  
10/14/2017 00:40 EST0.86P  5.10P  17.8P  7.6P  395P  8.5P  0.9P  
10/14/2017 00:45 EST0.86P  5.10P  17.8P  7.6P  395P  8.5P  0.9P  
10/14/2017 00:50 EST0.86P  5.10P  17.8P  7.6P  395P  8.5P  0.9P  
10/14/2017 00:55 EST0.86P  5.10P  17.8P  7.6P  396P  8.6P  0.9P  
10/14/2017 01:00 EST0.86P  5.10P  17.8P  7.6P  396P  8.5P  0.9P  
10/14/2017 01:05 EST0.86P  5.10P  17.8P  7.6P  396P  8.6P  0.9P  
10/14/2017 01:10 EST0.86P  5.10P  17.8P  7.6P  397P  8.6P  0.9P  
10/14/2017 01:15 EST0.86P  5.10P  17.8P  7.6P  397P  8.6P  0.9P  
10/14/2017 01:20 EST0.86P  5.10P  17.8P  7.6P  398P  8.6P  0.9P  
10/14/2017 01:25 EST0.86P  5.10P  17.8P  7.6P  398P  8.6P  0.9P  
10/14/2017 01:30 EST0.86P  5.10P  17.8P  7.6P  398P  8.6P  0.9P  
10/14/2017 01:35 EST0.86P  5.10P  17.8P  7.6P  399P  8.6P  0.9P  
10/14/2017 01:40 EST0.86P  5.10P  17.8P  7.6P  399P  8.6P  0.9P  
10/14/2017 01:45 EST0.86P  5.10P  17.8P  7.6P  400P  8.6P  0.9P  
10/14/2017 01:50 EST0.86P  5.10P  17.8P  7.6P  400P  8.6P  0.9P  
10/14/2017 01:55 EST0.86P  5.10P  17.8P  7.6P  400P  8.6P  0.8P  
10/14/2017 02:00 EST0.86P  5.10P  17.8P  7.6P  401P  8.6P  0.9P  
10/14/2017 02:05 EST0.86P  5.10P  17.8P  7.6P  401P  8.6P  0.8P  
10/14/2017 02:10 EST0.86P  5.10P  17.8P  7.6P  402P  8.6P  0.9P  
10/14/2017 02:15 EST0.86P  5.10P  17.8P  7.6P  402P  8.6P  0.9P  
10/14/2017 02:20 EST0.86P  5.10P  17.8P  7.6P  403P  8.6P  0.8P  
10/14/2017 02:25 EST0.86P  5.10P  17.8P  7.6P  403P  8.6P  0.8P  
10/14/2017 02:30 EST0.86P  5.10P  17.8P  7.6P  404P  8.6P  0.9P  
10/14/2017 02:35 EST0.86P  5.10P  17.8P  7.6P  404P  8.6P  0.8P  
10/14/2017 02:40 EST0.86P  5.10P  17.8P  7.6P  405P  8.6P  0.9P  
10/14/2017 02:45 EST0.86P  5.10P  17.8P  7.6P  405P  8.6P  0.8P  
10/14/2017 02:50 EST0.86P  5.10P  17.8P  7.6P  406P  8.6P  0.9P  
10/14/2017 02:55 EST0.86P  5.10P  17.8P  7.6P  406P  8.6P  0.8P  
10/14/2017 03:00 EST0.86P  5.10P  17.8P  7.6P  406P  8.5P  0.8P  
10/14/2017 03:05 EST0.86P  5.10P  17.8P  7.6P  407P  8.6P  0.8P  
10/14/2017 03:10 EST0.86P  5.10P  17.8P  7.6P  407P  8.6P  0.9P  
10/14/2017 03:15 EST0.86P  5.10P  17.8P  7.6P  408P  8.6P  0.8P  
10/14/2017 03:20 EST0.86P  5.10P  17.8P  7.6P  408P  8.6P  0.8P  
10/14/2017 03:25 EST0.86P  5.10P  17.8P  7.6P  409P  8.6P  0.8P  
10/14/2017 03:30 EST0.86P  5.10P  17.8P  7.6P  409P  8.6P  0.8P  
10/14/2017 03:35 EST0.86P  5.10P  17.8P  7.6P  410P  8.6P  0.9P  
10/14/2017 03:40 EST0.86P  5.10P  17.8P  7.6P  410P  8.6P  0.9P  
10/14/2017 03:45 EST0.86P  5.10P  17.8P  7.6P  411P  8.6P  0.8P  
10/14/2017 03:50 EST0.86P  5.10P  17.8P  7.6P  411P  8.6P  0.8P  
10/14/2017 03:55 EST0.86P  5.10P  17.8P  7.6P  412P  8.6P  0.8P  
10/14/2017 04:00 EST0.86P  5.10P  17.8P  7.6P  412P  8.6P  0.8P  
10/14/2017 04:05 EST0.86P  5.10P  17.8P  7.6P  412P  8.6P  0.8P  
10/14/2017 04:10 EST0.86P  5.10P  17.8P  7.6P  413P  8.6P  0.8P  
10/14/2017 04:15 EST0.86P  5.10P  17.8P  7.6P  413P  8.6P  0.8P  
10/14/2017 04:20 EST0.86P  5.10P  17.8P  7.6P  413P  8.6P  0.8P  
10/14/2017 04:25 EST0.86P  5.10P  17.8P  7.6P  414P  8.6P  0.8P  
10/14/2017 04:30 EST0.86P  5.10P  17.7P  7.6P  414P  8.6P  0.8P  
10/14/2017 04:35 EST0.86P  5.10P  17.7P  7.6P  414P  8.6P  0.7P  
10/14/2017 04:40 EST0.86P  5.10P  17.7P  7.6P  415P  8.6P  0.8P  
10/14/2017 04:45 EST0.86P  5.10P  17.7P  7.6P  415P  8.6P  0.8P  
10/14/2017 04:50 EST0.86P  5.10P  17.7P  7.6P  415P  8.6P  0.9P  
10/14/2017 04:55 EST0.86P  5.10P  17.7P  7.6P  415P  8.6P  0.8P  
10/14/2017 05:00 EST0.86P  5.10P  17.7P  7.6P  416P  8.6P  0.8P  
10/14/2017 05:05 EST0.86P  5.10P  17.7P  7.7P  416P  8.6P  0.8P  
10/14/2017 05:10 EST0.86P  5.10P  17.7P  7.6P  416P  8.6P  0.7P  
10/14/2017 05:15 EST0.86P  5.10P  17.7P  7.6P  416P  8.6P  0.8P  
10/14/2017 05:20 EST0.86P  5.10P  17.7P  7.6P  416P  8.6P  0.8P  
10/14/2017 05:25 EST0.86P  5.10P  17.7P  7.6P  417P  8.6P  0.8P  
10/14/2017 05:30 EST0.86P  5.10P  17.7P  7.6P  417P  8.6P  0.7P  
10/14/2017 05:35 EST0.86P  5.10P  17.7P  7.6P  417P  8.6P  0.8P  
10/14/2017 05:40 EST0.86P  5.10P  17.7P  7.6P  417P  8.6P  0.7P  
10/14/2017 05:45 EST0.86P  5.10P  17.7P  7.6P  417P  8.6P  0.8P  
10/14/2017 05:50 EST0.86P  5.10P  17.7P  7.6P  417P  8.6P  0.8P  
10/14/2017 05:55 EST0.86P  5.10P  17.7P  7.6P  418P  8.6P  0.7P  
10/14/2017 06:00 EST0.86P  5.10P  17.7P  7.6P  418P  8.6P  0.7P  
10/14/2017 06:05 EST0.86P  5.10P  17.7P  7.6P  418P  8.6P  0.8P  
10/14/2017 06:10 EST0.86P  5.10P  17.7P  7.6P  418P  8.6P  0.7P  
10/14/2017 06:15 EST0.86P  5.10P  17.7P  7.6P  419P  8.6P  0.8P  
10/14/2017 06:20 EST0.86P  5.10P  17.7P  7.6P  419P  8.6P  0.7P  
10/14/2017 06:25 EST0.86P  5.10P  17.7P  7.6P  419P  8.6P  0.8P  
10/14/2017 06:30 EST0.86P  5.10P  17.7P  7.6P  419P  8.6P  0.8P  
10/14/2017 06:35 EST0.86P  5.10P  17.7P  7.6P  419P  8.6P  0.8P  
10/14/2017 06:40 EST0.86P  5.10P  17.7P  7.7P  419P  8.6P  0.7P  
10/14/2017 06:45 EST0.85P  4.86P  17.7P  7.6P  420P  8.6P  0.7P  
10/14/2017 06:50 EST0.85P  4.86P  17.7P  7.6P  420P  8.6P  0.8P  
10/14/2017 06:55 EST0.85P  4.86P  17.7P  7.7P  420P  8.6P  0.8P  
10/14/2017 07:00 EST0.85P  4.86P  17.7P  7.6P  420P  8.6P  0.8P  
10/14/2017 07:05 EST0.85P  4.86P  17.7P  7.6P  421P  8.6P  0.7P  
10/14/2017 07:10 EST0.85P  4.86P  17.7P  7.6P  421P  8.6P  0.7P  
10/14/2017 07:15 EST0.85P  4.86P  17.7P  7.7P  421P  8.6P  0.7P  
10/14/2017 07:20 EST0.85P  4.86P  17.7P  7.7P  421P  8.6P  0.7P  
10/14/2017 07:25 EST0.85P  4.86P  17.7P  7.6P  422P  8.6P  0.7P  
10/14/2017 07:30 EST0.85P  4.86P  17.7P  7.6P  422P  8.6P  0.7P  
10/14/2017 07:35 EST0.85P  4.86P  17.7P  7.7P  422P  8.6P  0.8P  
10/14/2017 07:40 EST0.85P  4.86P  17.7P  7.7P  423P  8.6P  0.7P  
10/14/2017 07:45 EST0.85P  4.86P  17.7P  7.7P  423P  8.6P  0.7P  
10/14/2017 07:50 EST0.85P  4.86P  17.7P  7.7P  424P  8.6P  0.9P  
10/14/2017 07:55 EST0.85P  4.86P  17.7P  7.7P  424P  8.6P  0.8P  
10/14/2017 08:00 EST0.85P  4.86P  17.7P  7.7P  424P  8.6P  0.8P  
10/14/2017 08:05 EST0.85P  4.86P  17.7P  7.7P  425P  8.6P  0.8P  
10/14/2017 08:10 EST0.85P  4.86P  17.7P  7.7P  425P  8.6P  0.8P  
10/14/2017 08:15 EST0.85P  4.86P  17.7P  7.7P  425P  8.6P  0.7P  
10/14/2017 08:20 EST0.85P  4.86P  17.7P  7.6P  426P  8.6P  0.7P  
10/14/2017 08:25 EST0.85P  4.86P  17.7P  7.7P  426P  8.6P  0.7P  
10/14/2017 08:30 EST0.85P  4.86P  17.7P  7.7P  427P  8.6P  1.0P  
10/14/2017 08:35 EST0.85P  4.86P  17.7P  7.7P  427P  8.6P  0.7P  
10/14/2017 08:40 EST0.85P  4.86P  17.7P  7.7P  428P  8.6P  0.8P  
10/14/2017 08:45 EST0.85P  4.86P  17.8P  7.6P  428P  8.6P  0.7P  
10/14/2017 08:50 EST0.85P  4.86P  17.8P  7.7P  429P  8.6P  0.7P  
10/14/2017 08:55 EST0.85P  4.86P  17.8P  7.7P  430P  8.6P  0.7P  
10/14/2017 09:00 EST0.85P  4.86P  17.8P  7.7P  430P  8.6P  0.8P  
10/14/2017 09:05 EST0.85P  4.86P  17.8P  7.7P  431P  8.6P  0.8P  
10/14/2017 09:10 EST0.85P  4.86P  17.8P  7.7P  431P  8.6P  0.7P  
10/14/2017 09:15 EST0.86P  5.10P  17.8P  7.7P  432P  8.7P  0.7P  
10/14/2017 09:20 EST0.86P  5.10P  17.8P  7.7P  432P  8.7P  0.7P  
10/14/2017 09:25 EST0.86P  5.10P  17.8P  7.6P  433P  8.7P  0.7P  
10/14/2017 09:30 EST0.86P  5.10P  17.8P  7.7P  434P  8.7P  0.8P  
10/14/2017 09:35 EST0.87P  5.35P  17.8P  7.7P  434P  8.7P  0.7P  
10/14/2017 09:40 EST0.87P  5.35P  17.8P  7.6P  435P  8.7P  0.7P  
10/14/2017 09:45 EST0.87P  5.35P  17.8P  7.7P  435P  8.7P  0.7P  
10/14/2017 09:50 EST0.87P  5.35P  17.8P  7.7P  436P  8.7P  0.7P  
10/14/2017 09:55 EST0.88P  5.61P  17.8P  7.7P  436P  8.7P  0.7P  
10/14/2017 10:00 EST0.88P  5.61P  17.8P  7.7P  437P  8.7P  0.7P  
10/14/2017 10:05 EST0.88P  5.61P  17.8P  7.6P  437P  8.7P  0.7P  
10/14/2017 10:10 EST0.88P  5.61P  17.8P  7.7P  438P  8.7P  0.8P  
10/14/2017 10:15 EST0.88P  5.61P  17.8P  7.7P  438P  8.7P  0.7P  
10/14/2017 10:20 EST0.88P  5.61P  17.8P  7.7P  439P  8.7P  0.7P  
10/14/2017 10:25 EST0.88P  5.61P  17.8P  7.7P  439P  8.7P  0.7P  
10/14/2017 10:30 EST0.88P  5.61P  17.8P  7.7P  440P  8.7P  0.8P  
10/14/2017 10:35 EST0.88P  5.61P  17.8P  7.7P  440P  8.7P  0.7P  
10/14/2017 10:40 EST0.88P  5.61P  17.8P  7.7P  441P  8.7P  0.7P  
10/14/2017 10:45 EST0.88P  5.61P  17.8P  7.7P  441P  8.7P  0.7P  
10/14/2017 10:50 EST0.88P  5.61P  17.8P  7.7P  442P  8.7P  0.7P  
10/14/2017 10:55 EST0.88P  5.61P  17.8P  7.7P  442P  8.7P  0.7P  
10/14/2017 11:00 EST0.88P  5.61P  17.9P  7.7P  442P  8.7P  0.7P  
10/14/2017 11:05 EST0.88P  5.61P  17.9P  7.7P  443P  8.7P  0.6P  
10/14/2017 11:10 EST0.88P  5.61P  17.9P  7.7P  443P  8.7P  0.7P  
10/14/2017 11:15 EST0.88P  5.61P  17.9P  7.7P  443P  8.7P  0.7P  
10/14/2017 11:20 EST0.87P  5.35P  17.9P  7.7P  444P  8.7P  0.7P  
10/14/2017 11:25 EST0.87P  5.35P  17.9P  7.7P  444P  8.7P  0.6P  
10/14/2017 11:30 EST0.87P  5.35P  17.9P  7.7P  444P  8.7P  0.6P  
10/14/2017 11:35 EST0.87P  5.35P  17.9P  7.7P  445P  8.7P  0.6P  
10/14/2017 11:40 EST0.87P  5.35P  17.9P  7.7P  445P  8.7P  0.6P  
10/14/2017 11:45 EST0.87P  5.35P  17.9P  7.7P  445P  8.7P  0.6P  
10/14/2017 11:50 EST0.87P  5.35P  17.9P  7.7P  445P  8.7P  0.6P  
10/14/2017 11:55 EST0.86P  5.10P  17.9P  7.7P  446P  8.7P  0.7P  
10/14/2017 12:00 EST0.86P  5.10P  17.9P  7.7P  446P  8.7P  0.6P  
10/14/2017 12:05 EST0.86P  5.10P  17.9P  7.7P  446P  8.7P  0.6P  
10/14/2017 12:10 EST0.86P  5.10P  18.0P  7.7P  447P  8.7P  0.6P  
10/14/2017 12:15 EST0.85P  4.86P  18.0P  7.7P  447P  8.7P  0.6P  
10/14/2017 12:20 EST0.85P  4.86P  18.0P  7.7P  447P  8.8P  0.7P  
10/14/2017 12:25 EST0.85P  4.86P  18.0P  7.7P  448P  8.7P  0.6P  
10/14/2017 12:30 EST0.85P  4.86P  18.0P  7.7P  448P  8.7P  0.6P  
10/14/2017 12:35 EST0.85P  4.86P  18.0P  7.7P  448P  8.7P  0.7P  
10/14/2017 12:40 EST0.84P  4.62P  18.0P  7.7P  449P  8.8P  0.7P  
10/14/2017 12:45 EST0.84P  4.62P  18.0P  7.7P  449P  8.7P  0.7P  
10/14/2017 12:50 EST0.84P  4.62P  18.0P  7.7P  449P  8.7P  0.7P  
10/14/2017 12:55 EST0.84P  4.62P  18.0P  7.7P  449P  8.7P  0.7P  
10/14/2017 13:00 EST0.84P  4.62P  18.0P  7.7P  450P  8.8P  0.7P  
10/14/2017 13:05 EST0.83P  4.39P  18.0P  7.7P  450P  8.7P  0.6P  
10/14/2017 13:10 EST0.83P  4.39P  18.1P  7.7P  450P  8.7P  0.7P  
10/14/2017 13:15 EST0.83P  4.39P  18.1P  7.7P  450P  8.7P  0.7P  
10/14/2017 13:20 EST0.83P  4.39P  18.1P  7.7P  450P  8.7P  0.8P  
10/14/2017 13:25 EST0.83P  4.39P  18.1P  7.7P  450P  8.7P  0.7P  
10/14/2017 13:30 EST0.83P  4.39P  18.1P  7.7P  451P  8.7P  0.6P  
10/14/2017 13:35 EST0.83P  4.39P  18.1P  7.7P  451P  8.7P  0.7P  
10/14/2017 13:40 EST0.83P  4.39P  18.1P  7.7P  451P  8.7P  0.6P  
10/14/2017 13:45 EST0.83P  4.39P  18.1P  7.7P  452P  8.7P  0.7P  
10/14/2017 13:50 EST0.83P  4.39P  18.1P  7.7P  452P  8.7P  0.7P  
10/14/2017 13:55 EST0.83P  4.39P  18.2P  7.7P  452P  8.7P  0.6P  
10/14/2017 14:00 EST0.84P  4.62P  18.2P  7.7P  452P  8.7P  0.8P  
10/14/2017 14:05 EST0.84P  4.62P  18.2P  7.7P  453P  8.7P  0.7P  
10/14/2017 14:10 EST0.84P  4.62P  18.2P  7.7P  453P  8.7P  0.6P  
10/14/2017 14:15 EST0.84P  4.62P  18.2P  7.7P  453P  8.7P  0.7P  
10/14/2017 14:20 EST0.84P  4.62P  18.2P  7.7P  454P  8.7P  0.6P  
10/14/2017 14:25 EST0.84P  4.62P  18.2P  7.7P  454P  8.7P  0.6P  
10/14/2017 14:30 EST0.84P  4.62P  18.2P  7.7P  454P  8.7P  0.6P  
10/14/2017 14:35 EST0.84P  4.62P  18.2P  7.7P  454P  8.7P  0.6P  
10/14/2017 14:40 EST0.84P  4.62P  18.2P  7.7P  455P  8.7P  0.7P  
10/14/2017 14:45 EST0.84P  4.62P  18.3P  7.7P  455P  8.7P  0.6P  
10/14/2017 14:50 EST0.84P  4.62P  18.3P  7.7P  455P  8.7P  0.7P  
10/14/2017 14:55 EST0.84P  4.62P  18.3P  7.7P  455P  8.7P  0.8P  
10/14/2017 15:00 EST0.84P  4.62P  18.3P  7.7P  455P  8.7P  0.6P  
10/14/2017 15:05 EST0.84P  4.62P  18.3P  7.7P  456P  8.7P  0.6P  
10/14/2017 15:10 EST0.84P  4.62P  18.3P  7.7P  456P  8.7P  0.6P  
10/14/2017 15:15 EST0.84P  4.62P  18.3P  7.7P  456P  8.7P  0.7P  
10/14/2017 15:20 EST0.84P  4.62P  18.3P  7.7P  456P  8.7P  0.6P  
10/14/2017 15:25 EST0.84P  4.62P  18.3P  7.7P  456P  8.7P  0.7P  
10/14/2017 15:30 EST0.84P  4.62P  18.3P  7.7P  456P  8.7P  0.6P  
10/14/2017 15:35 EST0.85P  4.86P  18.3P  7.7P  457P  8.7P  0.6P  
10/14/2017 15:40 EST0.85P  4.86P  18.3P  7.7P  457P  8.7P  0.6P  
10/14/2017 15:45 EST0.85P  4.86P  18.3P  7.7P  457P  8.7P  0.7P  
10/14/2017 15:50 EST0.85P  4.86P  18.3P  7.7P  457P  8.7P  0.6P  
10/14/2017 15:55 EST0.86P  5.10P  18.3P  7.7P  457P  8.7P  0.6P  
10/14/2017 16:00 EST0.86P  5.10P  18.3P  7.7P  458P  8.6P  0.6P  
10/14/2017 16:05 EST0.86P  5.10P  18.3P  7.7P  458P  8.6P  0.6P  
10/14/2017 16:10 EST0.87P  5.35P  18.3P  7.7P  458P  8.6P  0.6P  
10/14/2017 16:15 EST0.87P  5.35P  18.3P  7.7P  458P  8.6P  0.6P  
10/14/2017 16:20 EST0.87P  5.35P  18.3P  7.7P  458P  8.6P  0.7P  
10/14/2017 16:25 EST0.88P  5.61P  18.3P  7.7P  459P  8.6P  0.6P  
10/14/2017 16:30 EST0.88P  5.61P  18.3P  7.7P  459P  8.6P  0.6P  
10/14/2017 16:35 EST0.88P  5.61P  18.3P  7.7P  459P  8.6P  0.7P  
10/14/2017 16:40 EST0.88P  5.61P  18.3P  7.7P  459P  8.6P  0.6P  
10/14/2017 16:45 EST0.88P  5.61P  18.3P  7.7P  460P  8.6P  0.6P  
10/14/2017 16:50 EST0.88P  5.61P  18.3P  7.7P  460P  8.6P  0.6P  
10/14/2017 16:55 EST0.88P  5.61P  18.3P  7.7P  460P  8.6P  0.6P  
10/14/2017 17:00 EST0.88P  5.61P  18.3P  7.7P  460P  8.6P  0.6P  
10/14/2017 17:05 EST0.88P  5.61P  18.3P  7.7P  461P  8.6P  0.6P  
10/14/2017 17:10 EST0.88P  5.61P  18.3P  7.7P  461P  8.6P  0.6P  
10/14/2017 17:15 EST0.88P  5.61P  18.3P  7.7P  461P  8.6P  0.6P  
10/14/2017 17:20 EST0.87P  5.35P  18.3P  7.7P  461P  8.6P  0.7P  
10/14/2017 17:25 EST0.87P  5.35P  18.3P  7.7P  462P  8.6P  0.7P  
10/14/2017 17:30 EST0.87P  5.35P  18.3P  7.7P  462P  8.6P  0.6P  
10/14/2017 17:35 EST0.87P  5.35P  18.3P  7.7P  462P  8.6P  0.6P  
10/14/2017 17:40 EST0.87P  5.35P  18.2P  7.7P  463P  8.6P  0.7P  
10/14/2017 17:45 EST0.87P  5.35P  18.2P  7.7P  463P  8.6P  0.6P  
10/14/2017 17:50 EST0.86P  5.10P  18.2P  7.7P  463P  8.6P  0.7P  
10/14/2017 17:55 EST0.86P  5.10P  18.2P  7.7P  464P  8.6P  0.7P  
10/14/2017 18:00 EST0.86P  5.10P  18.2P  7.7P  464P  8.6P  0.6P  
10/14/2017 18:05 EST0.86P  5.10P  18.2P  7.7P  464P  8.6P  0.7P  
10/14/2017 18:10 EST0.85P  4.86P  18.2P  7.7P  465P  8.6P  0.6P  
10/14/2017 18:15 EST0.85P  4.86P  18.2P  7.7P  465P  8.5P  0.6P  
10/14/2017 18:20 EST0.85P  4.86P  18.2P  7.7P  465P  8.5P  0.8P  
10/14/2017 18:25 EST0.85P  4.86P  18.2P  7.7P  466P  8.5P  0.6P  
10/14/2017 18:30 EST0.84P  4.62P  18.2P  7.7P  466P  8.5P  0.6P  
10/14/2017 18:35 EST0.84P  4.62P  18.2P  7.7P  466P  8.5P  0.6P  
10/14/2017 18:40 EST0.84P  4.62P  18.2P  7.7P  467P  8.5P  0.6P  
10/14/2017 18:45 EST0.84P  4.62P  18.2P  7.7P  467P  8.5P  0.6P  
10/14/2017 18:50 EST0.84P  4.62P  18.2P  7.7P  467P  8.5P  0.6P  
10/14/2017 18:55 EST0.83P  4.39P  18.2P  7.7P  468P  8.5P  0.9P  
10/14/2017 19:00 EST0.83P  4.39P  18.2P  7.7P  468P  8.5P  0.6P  
10/14/2017 19:05 EST0.83P  4.39P  18.2P  7.7P  469P  8.5P  0.6P  
10/14/2017 19:10 EST0.83P  4.39P  18.2P  7.7P  469P  8.5P  0.7P  
10/14/2017 19:15 EST0.83P  4.39P  18.2P  7.7P  469P  8.5P  0.6P  
10/14/2017 19:20 EST0.83P  4.39P  18.2P  7.7P  470P  8.5P  0.7P  
10/14/2017 19:25 EST0.82P  4.16P  18.2P  7.7P  470P  8.5P  0.6P  
10/14/2017 19:30 EST0.82P  4.16P  18.2P  7.7P  471P  8.5P  0.6P  
10/14/2017 19:35 EST0.82P  4.16P  18.2P  7.7P  471P  8.5P  0.6P  
10/14/2017 19:40 EST0.82P  4.16P  18.2P  7.7P  471P  8.5P  0.6P  
10/14/2017 19:45 EST0.82P  4.16P  18.1P  7.7P  472P  8.5P  0.7P  
10/14/2017 19:50 EST0.82P  4.16P  18.1P  7.7P  472P  8.5P  0.6P  
10/14/2017 19:55 EST0.82P  4.16P  18.1P  7.7P  473P  8.5P  0.6P  
10/14/2017 20:00 EST0.82P  4.16P  18.1P  7.7P  473P  8.5P  0.6P  
10/14/2017 20:05 EST0.82P  4.16P  18.1P  7.7P  473P  8.5P  0.6P  
10/14/2017 20:10 EST0.82P  4.16P  18.1P  7.7P  473P  8.5P  0.6P  
10/14/2017 20:15 EST0.82P  4.16P  18.1P  7.7P  474P  8.5P  0.6P  
10/14/2017 20:20 EST0.82P  4.16P  18.1P  7.7P  474P  8.4P  0.7P  
10/14/2017 20:25 EST0.82P  4.16P  18.1P  7.7P  475P  8.4P  0.6P  
10/14/2017 20:30 EST0.82P  4.16P  18.1P  7.7P  475P  8.4P  0.6P  
10/14/2017 20:35 EST0.82P  4.16P  18.1P  7.7P  475P  8.4P  0.7P  
10/14/2017 20:40 EST0.82P  4.16P  18.1P  7.7P  476P  8.5P  0.6P  
10/14/2017 20:45 EST0.82P  4.16P  18.1P  7.7P  476P  8.4P  0.7P  
10/14/2017 20:50 EST0.82P  4.16P  18.1P  7.7P  476P  8.4P  0.6P  
10/14/2017 20:55 EST0.82P  4.16P  18.1P  7.7P  476P  8.4P  0.7P  
10/14/2017 21:00 EST0.82P  4.16P  18.1P  7.7P  477P  8.4P  0.7P  
10/14/2017 21:05 EST0.82P  4.16P  18.1P  7.7P  477P  8.4P  0.6P  
10/14/2017 21:10 EST0.82P  4.16P  18.0P  7.7P  477P  8.4P  0.7P  
10/14/2017 21:15 EST0.83P  4.39P  18.0P  7.7P  477P  8.4P  0.7P  
10/14/2017 21:20 EST0.83P  4.39P  18.0P  7.7P  478P  8.4P  0.6P  
10/14/2017 21:25 EST0.83P  4.39P  18.0P  7.7P  478P  8.4P  0.6P  
10/14/2017 21:30 EST0.83P  4.39P  18.0P  7.7P  478P  8.4P  0.6P  
10/14/2017 21:35 EST0.83P  4.39P  18.0P  7.7P  479P  8.4P  0.6P  
10/14/2017 21:40 EST0.83P  4.39P  18.0P  7.7P  479P  8.4P  0.6P  
10/14/2017 21:45 EST0.83P  4.39P  18.0P  7.7P  479P  8.4P  0.7P  
10/14/2017 21:50 EST0.83P  4.39P  18.0P  7.7P  479P  8.4P  0.7P  
10/14/2017 21:55 EST0.83P  4.39P  18.0P  7.7P  480P  8.4P  0.6P  
10/14/2017 22:00 EST0.83P  4.39P  18.0P  7.7P  480P  8.4P  0.7P  
10/14/2017 22:05 EST0.83P  4.39P  18.0P  7.7P  480P  8.4P  0.6P  
10/14/2017 22:10 EST0.83P  4.39P  18.0P  7.7P  480P  8.4P  0.6P  
10/14/2017 22:15 EST0.83P  4.39P  18.0P  7.7P  481P  8.4P  0.6P  
10/14/2017 22:20 EST0.83P  4.39P  18.0P  7.7P  481P  8.4P  0.6P  
10/14/2017 22:25 EST0.83P  4.39P  18.0P  7.7P  481P  8.4P  0.7P  
10/14/2017 22:30 EST0.83P  4.39P  18.0P  7.7P  481P  8.4P  0.7P  
10/14/2017 22:35 EST0.83P  4.39P  18.0P  7.7P  481P  8.4P  0.7P  
10/14/2017 22:40 EST0.83P  4.39P  18.0P  7.7P  482P  8.4P  0.7P  
10/14/2017 22:45 EST0.83P  4.39P  18.0P  7.7P  482P  8.5P  0.6P  
10/14/2017 22:50 EST0.83P  4.39P  18.0P  7.7P  482P  8.5P  0.6P  
10/14/2017 22:55 EST0.83P  4.39P  18.0P  7.7P  482P  8.5P  0.6P  
10/14/2017 23:00 EST0.83P  4.39P  18.0P  7.7P  483P  8.5P  0.7P  
10/14/2017 23:05 EST0.83P  4.39P  18.0P  7.7P  483P  8.5P  0.6P  
10/14/2017 23:10 EST0.83P  4.39P  18.0P  7.7P  483P  8.5P  0.7P  
10/14/2017 23:15 EST0.83P  4.39P  18.0P  7.7P  484P  8.5P  0.7P  
10/14/2017 23:20 EST0.83P  4.39P  18.0P  7.7P  484P  8.5P  0.7P  
10/14/2017 23:25 EST0.83P  4.39P  18.0P  7.7P  484P  8.5P  0.7P  
10/14/2017 23:30 EST0.83P  4.39P  18.0P  7.7P  484P  8.5P  0.7P  
10/14/2017 23:35 EST0.83P  4.39P  18.0P  7.7P  485P  8.5P  0.7P  
10/14/2017 23:40 EST0.83P  4.39P  18.0P  7.7P  485P  8.5P  0.8P  
10/14/2017 23:45 EST0.83P  4.39P  18.0P  7.7P  485P  8.5P  0.6P  
10/14/2017 23:50 EST0.83P  4.39P  18.0P  7.7P  486P  8.5P  0.7P  
10/14/2017 23:55 EST0.83P  4.39P  18.0P  7.7P  486P  8.5P  0.6P  
10/15/2017 00:00 EST0.83P  4.39P  18.0P  7.7P  487P  8.5P  0.7P  
10/15/2017 00:05 EST0.83P  4.39P  18.0P  7.7P  487P  8.5P  0.9P  
10/15/2017 00:10 EST0.83P  4.39P  18.0P  7.7P  487P  8.5P  0.9P  
10/15/2017 00:15 EST0.83P  4.39P  18.0P  7.7P  488P  8.5P  0.9P  
10/15/2017 00:20 EST0.83P  4.39P  18.0P  7.7P  488P  8.5P  1.0P  
10/15/2017 00:25 EST0.83P  4.39P  18.0P  7.7P  488P  8.4P  1.0P  
10/15/2017 00:30 EST0.84P  4.62P  18.0P  7.7P  489P  8.5P  0.9P  
10/15/2017 00:35 EST0.84P  4.62P  18.0P  7.7P  489P  8.5P  0.9P  
10/15/2017 00:40 EST0.84P  4.62P  18.0P  7.7P  490P  8.5P  1.0P  
10/15/2017 00:45 EST0.84P  4.62P  18.0P  7.7P  490P  8.5P  0.9P  
10/15/2017 00:50 EST0.84P  4.62P  18.0P  7.7P  491P  8.4P  8.5P  
10/15/2017 00:55 EST0.84P  4.62P  18.0P  7.7P  491P  8.5P  1.1P  
10/15/2017 01:00 EST0.84P  4.62P  18.0P  7.7P  491P  8.5P  1.1P  
10/15/2017 01:05 EST0.84P  4.62P  18.0P  7.7P  492P  8.5P  1.1P  
10/15/2017 01:10 EST0.84P  4.62P  18.0P  7.7P  493P  8.5P  1.1P  
10/15/2017 01:15 EST0.85P  4.86P  18.0P  7.7P  493P  8.5P  1.1P  
10/15/2017 01:20 EST0.85P  4.86P  18.0P  7.7P  493P  8.5P  1.2P  
10/15/2017 01:25 EST0.86P  5.10P  18.0P  7.7P  494P  8.5P  1.2P  
10/15/2017 01:30 EST0.86P  5.10P  18.0P  7.7P  494P  8.5P  1.1P  
10/15/2017 01:35 EST0.87P  5.35P  18.0P  7.7P  495P  8.5P  1.1P  
10/15/2017 01:40 EST0.88P  5.61P  18.0P  7.7P  495P  8.5P  1.1P  
10/15/2017 01:45 EST0.88P  5.61P  18.0P  7.7P  496P  8.5P  1.1P  
10/15/2017 01:50 EST0.89P  5.88P  18.0P  7.7P  497P  8.5P  1.1P  
10/15/2017 01:55 EST0.89P  5.88P  18.0P  7.7P  497P  8.5P  1.2P  
10/15/2017 02:00 EST0.90P  6.15P  18.0P  7.7P  498P  8.5P  1.2P  
10/15/2017 02:05 EST0.90P  6.15P  18.0P  7.7P  498P  8.5P  1.1P  
10/15/2017 02:10 EST0.90P  6.15P  18.0P  7.7P  499P  8.5P  1.1P  
10/15/2017 02:15 EST0.90P  6.15P  18.0P  7.7P  500P  8.5P  1.2P  
10/15/2017 02:20 EST0.90P  6.15P  18.0P  7.7P  500P  8.5P  1.1P  
10/15/2017 02:25 EST0.90P  6.15P  18.0P  7.7P  501P  8.5P  1.3P  
10/15/2017 02:30 EST0.90P  6.15P  18.0P  7.7P  501P  8.5P  1.1P  
10/15/2017 02:35 EST0.90P  6.15P  18.0P  7.7P  502P  8.5P  1.1P  
10/15/2017 02:40 EST0.90P  6.15P  18.0P  7.7P  503P  8.5P  1.2P  
10/15/2017 02:45 EST0.90P  6.15P  18.0P  7.7P  503P  8.5P  1.2P  
10/15/2017 02:50 EST0.90P  6.15P  18.0P  7.7P  503P  8.6P  1.1P  
10/15/2017 02:55 EST0.90P  6.15P  18.0P  7.7P  504P  8.6P  1.3P  
10/15/2017 03:00 EST0.90P  6.15P  18.0P  7.7P  505P  8.6P  1.3P  
10/15/2017 03:05 EST0.90P  6.15P  18.0P  7.7P  505P  8.6P  1.3P  
10/15/2017 03:10 EST0.90P  6.15P  18.0P  7.7P  505P  8.6P  1.2P  
10/15/2017 03:15 EST0.90P  6.15P  18.0P  7.7P  506P  8.6P  1.3P  
10/15/2017 03:20 EST0.91P  6.43P  18.0P  7.7P  506P  8.6P  1.1P  
10/15/2017 03:25 EST0.91P  6.43P  18.0P  7.7P  507P  8.6P  1.0P  
10/15/2017 03:30 EST0.91P  6.43P  18.0P  7.7P  507P  8.6P  0.9P  
10/15/2017 03:35 EST0.91P  6.43P  18.0P  7.7P  507P  8.6P  1.1P  
10/15/2017 03:40 EST0.91P  6.43P  18.0P  7.7P  508P  8.6P  1.1P  
10/15/2017 03:45 EST0.92P  6.69P  18.0P  7.7P  508P  8.6P  1.1P  
10/15/2017 03:50 EST0.92P  6.69P  18.0P  7.7P  509P  8.6P  1.2P  
10/15/2017 03:55 EST0.92P  6.69P  18.0P  7.7P  509P  8.6P  1.1P  
10/15/2017 04:00 EST0.92P  6.69P  18.0P  7.7P  509P  8.6P  0.9P  
10/15/2017 04:05 EST0.92P  6.69P  18.0P  7.7P  509P  8.6P  1.5P  
10/15/2017 04:10 EST0.92P  6.69P  18.0P  7.7P  510P  8.6P  1.0P  
10/15/2017 04:15 EST0.92P  6.69P  18.0P  7.7P  510P  8.6P  0.9P  
10/15/2017 04:20 EST0.92P  6.69P  18.0P  7.7P  510P  8.6P  0.8P  
10/15/2017 04:25 EST0.92P  6.69P  18.1P  7.7P  511P  8.6P  0.8P  
10/15/2017 04:30 EST0.92P  6.69P  18.1P  7.7P  511P  8.6P  1.1P  
10/15/2017 04:35 EST0.92P  6.69P  18.1P  7.7P  511P  8.6P  0.9P  
10/15/2017 04:40 EST0.92P  6.69P  18.0P  7.7P  512P  8.6P  0.9P  
10/15/2017 04:45 EST0.91P  6.43P  18.0P  7.7P  512P  8.6P  1.0P  
10/15/2017 04:50 EST0.91P  6.43P  18.0P  7.7P  512P  8.6P  0.8P  
10/15/2017 04:55 EST0.91P  6.43P  18.0P  7.7P  512P  8.6P  0.7P  
10/15/2017 05:00 EST0.91P  6.43P  18.0P  7.7P  512P  8.6P  0.8P  
10/15/2017 05:05 EST0.91P  6.43P  18.0P  7.7P  513P  8.6P  0.9P  
10/15/2017 05:10 EST0.90P  6.15P  18.0P  7.7P  513P  8.6P  0.8P  
10/15/2017 05:15 EST0.90P  6.15P  18.0P  7.7P  513P  8.6P  0.8P  
10/15/2017 05:20 EST0.90P  6.15P  18.0P  7.7P  513P  8.6P  0.9P  
10/15/2017 05:25 EST0.90P  6.15P  18.0P  7.7P  513P  8.6P  0.8P  
10/15/2017 05:30 EST0.89P  5.88P  18.0P  7.7P  513P  8.6P  0.8P  
10/15/2017 05:35 EST0.89P  5.88P  18.0P  7.7P  514P  8.6P  0.8P  
10/15/2017 05:40 EST0.89P  5.88P  18.0P  7.7P  514P  8.6P  0.8P  
10/15/2017 05:45 EST0.89P  5.88P  18.0P  7.7P  514P  8.6P  0.7P  
10/15/2017 05:50 EST0.88P  5.61P  18.0P  7.7P  514P  8.6P  0.7P  
10/15/2017 05:55 EST0.88P  5.61P  18.0P  7.7P  514P  8.6P  0.8P  
10/15/2017 06:00 EST0.88P  5.61P  18.0P  7.7P  514P  8.6P  0.8P  
10/15/2017 06:05 EST0.88P  5.61P  18.0P  7.7P  515P  8.6P  0.7P  
10/15/2017 06:10 EST0.88P  5.61P  18.0P  7.7P  515P  8.6P  0.8P  
10/15/2017 06:15 EST0.87P  5.35P  18.0P  7.7P  515P  8.6P  0.9P  
10/15/2017 06:20 EST0.87P  5.35P  18.0P  7.7P  515P  8.5P  0.9P  
10/15/2017 06:25 EST0.87P  5.35P  18.0P  7.7P  515P  8.6P  0.9P  
10/15/2017 06:30 EST0.87P  5.35P  18.0P  7.7P  515P  8.6P  1.1P  
10/15/2017 06:35 EST0.87P  5.35P  18.0P  7.7P  515P  8.6P  0.9P  
10/15/2017 06:40 EST0.87P  5.35P  18.0P  7.7P  516P  8.5P  0.9P  
10/15/2017 06:45 EST0.87P  5.35P  18.0P  7.7P  516P  8.6P  0.9P  
10/15/2017 06:50 EST0.87P  5.35P  18.0P  7.7P  516P  8.6P  1.0P  
10/15/2017 06:55 EST0.87P  5.35P  18.0P  7.7P  516P  8.6P  0.9P  
10/15/2017 07:00 EST0.87P  5.35P  18.0P  7.7P  517P  8.6P  0.9P  
10/15/2017 07:05 EST0.87P  5.35P  18.0P  7.7P  517P  8.6P  0.9P  
10/15/2017 07:10 EST0.87P  5.35P  18.0P  7.7P  517P  8.6P  1.0P  
10/15/2017 07:15 EST0.87P  5.35P  18.0P  7.7P  517P  8.6P  0.8P  
10/15/2017 07:20 EST0.87P  5.35P  18.0P  7.7P  518P  8.6P  1.1P  
10/15/2017 07:25 EST0.87P  5.35P  18.0P  7.7P  518P  8.5P  0.9P  
10/15/2017 07:30 EST0.87P  5.35P  18.0P  7.7P  518P  8.5P  1.4P  
10/15/2017 07:35 EST0.87P  5.35P  18.0P  7.7P  518P  8.5P  1.3P  
10/15/2017 07:40 EST0.87P  5.35P  18.0P  7.7P  518P  8.6P  1.5P  
10/15/2017 07:45 EST0.87P  5.35P  18.0P  7.7P  518P  8.6P  1.4P  
10/15/2017 07:50 EST0.87P  5.35P  18.0P  7.7P  519P  8.6P  1.3P  
10/15/2017 07:55 EST0.87P  5.35P  18.0P  7.7P  519P  8.5P  0.9P  
10/15/2017 08:00 EST0.87P  5.35P  18.0P  7.7P  519P  8.5P  0.9P  
10/15/2017 08:05 EST0.87P  5.35P  18.0P  7.7P  519P  8.5P  0.9P  
10/15/2017 08:10 EST0.87P  5.35P  18.0P  7.7P  519P  8.6P  0.9P  
10/15/2017 08:15 EST0.87P  5.35P  18.0P  7.7P  520P  8.5P  1.0P  
10/15/2017 08:20 EST0.87P  5.35P  18.0P  7.7P  520P  8.5P  1.4P  
10/15/2017 08:25 EST0.87P  5.35P  18.0P  7.7P  520P  8.6P  1.1P  
10/15/2017 08:30 EST0.87P  5.35P  18.1P  7.7P  520P  8.6P  1.0P  
10/15/2017 08:35 EST0.87P  5.35P  18.1P  7.7P  520P  8.6P  1.1P  
10/15/2017 08:40 EST0.87P  5.35P  18.1P  7.7P  521P  8.6P  1.2P  
10/15/2017 08:45 EST0.87P  5.35P  18.1P  7.7P  521P  8.6P  1.0P  
10/15/2017 08:50 EST0.87P  5.35P  18.1P  7.7P  521P  8.6P  1.1P  
10/15/2017 08:55 EST0.87P  5.35P  18.1P  7.7P  521P  8.6P  1.1P  
10/15/2017 09:00 EST0.87P  5.35P  18.1P  7.7P  521P  8.5P  1.0P  
10/15/2017 09:05 EST0.87P  5.35P  18.1P  7.7P  521P  8.6P  1.0P  
10/15/2017 09:10 EST0.87P  5.35P  18.1P  7.7P  521P  8.6P  1.3P  
10/15/2017 09:15 EST0.87P  5.35P  18.1P  7.7P  521P  8.6P  1.1P  
10/15/2017 09:20 EST0.87P  5.35P  18.1P  7.7P  521P  8.6P  1.0P  
10/15/2017 09:25 EST0.87P  5.35P  18.1P  7.7P  521P  8.6P  1.5P  
10/15/2017 09:30 EST0.87P  5.35P  18.1P  7.8P  521P  8.6P  1.1P  
10/15/2017 09:35 EST0.87P  5.35P  18.1P  7.7P  521P  8.6P  0.8P  
10/15/2017 09:40 EST0.87P  5.35P  18.1P  7.7P  522P  8.6P  0.8P  
10/15/2017 09:45 EST0.87P  5.35P  18.1P  7.7P  522P  8.6P  1.0P  
10/15/2017 09:50 EST0.87P  5.35P  18.1P  7.7P  522P  8.6P  1.1P  
10/15/2017 09:55 EST0.87P  5.35P  18.1P  7.7P  522P  8.6P  1.2P  
10/15/2017 10:00 EST0.87P  5.35P  18.1P  7.8P  522P  8.6P  1.1P  
10/15/2017 10:05 EST0.87P  5.35P  18.2P  7.8P  522P  8.6P  1.0P  
10/15/2017 10:10 EST0.87P  5.35P  18.2P  7.8P  522P  8.6P  1.0P  
10/15/2017 10:15 EST0.87P  5.35P  18.2P  7.8P  522P  8.6P  1.0P  
10/15/2017 10:20 EST0.87P  5.35P  18.2P  7.8P  522P  8.6P  0.8P  
10/15/2017 10:25 EST0.87P  5.35P  18.2P  7.8P  522P  8.6P  0.8P  
10/15/2017 10:30 EST0.87P  5.35P  18.2P  7.8P  522P  8.6P  0.7P  
10/15/2017 10:35 EST0.87P  5.35P  18.2P  7.7P  522P  8.6P  0.7P  
10/15/2017 10:40 EST0.87P  5.35P  18.2P  7.8P  522P  8.6P  0.7P  
10/15/2017 10:45 EST0.87P  5.35P  18.2P  7.8P  521P  8.6P  0.7P  
10/15/2017 10:50 EST0.87P  5.35P  18.2P  7.7P  521P  8.6P  0.7P  
10/15/2017 10:55 EST0.87P  5.35P  18.2P  7.8P  521P  8.6P  0.7P  
10/15/2017 11:00 EST0.87P  5.35P  18.2P  7.8P  521P  8.6P  0.7P  
10/15/2017 11:05 EST0.87P  5.35P  18.3P  7.8P  521P  8.6P  0.7P  
10/15/2017 11:10 EST0.87P  5.35P  18.3P  7.8P  521P  8.6P  0.7P  
10/15/2017 11:15 EST0.86P  5.10P  18.3P  7.8P  521P  8.6P  0.6P  
10/15/2017 11:20 EST0.86P  5.10P  18.3P  7.8P  521P  8.6P  0.7P  
10/15/2017 11:25 EST0.87P  5.35P  18.3P  7.8P  521P  8.6P  0.6P  
10/15/2017 11:30 EST0.86P  5.10P  18.3P  7.8P  521P  8.6P  0.6P  
10/15/2017 11:35 EST0.86P  5.10P  18.3P  7.8P  521P  8.6P  0.7P  
10/15/2017 11:40 EST0.87P  5.35P  18.3P  7.8P  521P  8.6P  0.7P  
10/15/2017 11:45 EST0.87P  5.35P  18.4P  7.8P  521P  8.6P  0.6P  
10/15/2017 11:50 EST0.87P  5.35P  18.4P  7.8P  520P  8.6P  0.6P  
10/15/2017 11:55 EST0.87P  5.35P  18.4P  7.8P  520P  8.6P  0.6P  
10/15/2017 12:00 EST0.87P  5.35P  18.4P  7.8P  520P  8.6P  0.6P  
10/15/2017 12:05 EST0.87P  5.35P  18.4P  7.7P  520P  8.7P  0.6P  
10/15/2017 12:10 EST0.88P  5.61P  18.4P  7.8P  520P  8.7P  0.6P  
10/15/2017 12:15 EST0.88P  5.61P  18.4P  7.8P  520P  8.6P  0.6P  
10/15/2017 12:20 EST0.88P  5.61P  18.4P  7.8P  520P  8.6P  0.6P  
10/15/2017 12:25 EST0.88P  5.61P  18.5P  7.8P  519P  8.7P  0.6P  
10/15/2017 12:30 EST0.88P  5.61P  18.5P  7.8P  519P  8.6P  0.6P  
10/15/2017 12:35 EST0.89P  5.88P  18.5P  7.8P  519P  8.7P  0.6P  
10/15/2017 12:40 EST0.89P  5.88P  18.5P  7.8P  519P  8.7P  0.6P  
10/15/2017 12:45 EST0.89P  5.88P  18.5P  7.8P  519P  8.7P  0.6P  
10/15/2017 12:50 EST0.89P  5.88P  18.5P  7.8P  519P  8.7P  0.6P  
10/15/2017 12:55 EST0.89P  5.88P  18.6P  7.8P  518P  8.7P  0.6P  
10/15/2017 13:00 EST0.89P  5.88P  18.6P  7.8P  518P  8.7P  0.6P  
10/15/2017 13:05 EST0.89P  5.88P  18.6P  7.8P  518P  8.7P  0.6P  
10/15/2017 13:10 EST0.89P  5.88P  18.6P  7.7P  518P  8.7P  0.6P  
10/15/2017 13:15 EST0.89P  5.88P  18.6P  7.8P  518P  8.7P  0.6P  
10/15/2017 13:20 EST0.88P  5.61P  18.6P  7.8P  518P  8.7P  0.6P  
10/15/2017 13:25 EST0.88P  5.61P  18.7P  7.8P  518P  8.7P  0.6P  
10/15/2017 13:30 EST0.88P  5.61P  18.7P  7.8P  517P  8.7P  0.6P  
10/15/2017 13:35 EST0.88P  5.61P  18.7P  7.8P  517P  8.7P  0.7P  
10/15/2017 13:40 EST0.88P  5.61P  18.7P  7.8P  517P  8.7P  0.6P  
10/15/2017 13:45 EST0.88P  5.61P  18.7P  7.8P  516P  8.7P  0.6P  
10/15/2017 13:50 EST0.88P  5.61P  18.8P  7.8P  516P  8.7P  0.6P  
10/15/2017 13:55 EST0.88P  5.61P  18.8P  7.8P  516P  8.7P  0.6P  
10/15/2017 14:00 EST0.87P  5.35P  18.8P  7.8P  516P  8.6P  0.6P  
10/15/2017 14:05 EST0.87P  5.35P  18.8P  7.8P  516P  8.7P  0.6P  
10/15/2017 14:10 EST0.87P  5.35P  18.8P  7.8P  516P  8.6P  0.6P  
10/15/2017 14:15 EST0.87P  5.35P  18.8P  7.8P  515P  8.6P  0.6P  
10/15/2017 14:20 EST0.87P  5.35P  18.8P  7.8P  515P  8.6P  0.6P  
10/15/2017 14:25 EST0.86P  5.10P  18.8P  7.8P  515P  8.6P  0.6P  
10/15/2017 14:30 EST0.86P  5.10P  18.8P  7.8P  514P  8.6P  0.6P  
10/15/2017 14:35 EST0.86P  5.10P  18.8P  7.8P  514P  8.6P  0.6P  
10/15/2017 14:40 EST0.86P  5.10P  18.9P  7.8P  514P  8.6P  0.7P  
10/15/2017 14:45 EST0.86P  5.10P  18.9P  7.8P  514P  8.6P  0.6P  
10/15/2017 14:50 EST0.85P  4.86P  18.9P  7.8P  514P  8.6P  0.6P  
10/15/2017 14:55 EST0.85P  4.86P  18.9P  7.8P  513P  8.6P  0.6P  
10/15/2017 15:00 EST0.85P  4.86P  18.9P  7.8P  513P  8.6P  0.7P  
10/15/2017 15:05 EST0.85P  4.86P  18.9P  7.8P  513P  8.6P  0.7P  
10/15/2017 15:10 EST0.85P  4.86P  18.9P  7.8P  512P  8.6P  0.6P  
10/15/2017 15:15 EST0.84P  4.62P  18.9P  7.8P  512P  8.6P  0.6P  
10/15/2017 15:20 EST0.84P  4.62P  18.9P  7.8P  512P  8.6P  0.6P  
10/15/2017 15:25 EST0.84P  4.62P  18.9P  7.8P  511P  8.6P  0.6P  
10/15/2017 15:30 EST0.84P  4.62P  18.9P  7.8P  511P  8.6P  0.6P  
10/15/2017 15:35 EST0.83P  4.39P  18.9P  7.8P  511P  8.5P  0.6P  
10/15/2017 15:40 EST0.83P  4.39P  19.0P  7.8P  511P  8.5P  0.6P  
10/15/2017 15:45 EST0.83P  4.39P  19.0P  7.8P  510P  8.5P  0.5P  
10/15/2017 15:50 EST0.83P  4.39P  19.0P  7.8P  510P  8.5P  0.6P  
10/15/2017 15:55 EST0.83P  4.39P  19.0P  7.8P  510P  8.5P  0.6P  
10/15/2017 16:00 EST0.83P  4.39P  19.0P  7.8P  509P  8.4P  0.7P  
10/15/2017 16:05 EST0.83P  4.39P  19.0P  7.8P  509P  8.4P  0.6P  
10/15/2017 16:10 EST0.83P  4.39P  19.0P  7.8P  508P  8.4P  0.6P  
10/15/2017 16:15 EST0.83P  4.39P  19.0P  7.8P  508P  8.4P  0.7P  
10/15/2017 16:20 EST0.83P  4.39P  19.0P  7.8P  508P  8.4P  0.8P  
10/15/2017 16:25 EST0.83P  4.39P  19.0P  7.8P  507P  8.4P  0.7P  
10/15/2017 16:30 EST0.82P  4.16P  19.0P  7.8P  507P  8.4P  0.6P  
10/15/2017 16:35 EST0.82P  4.16P  19.0P  7.8P  507P  8.4P  0.6P  
10/15/2017 16:40 EST0.82P  4.16P  19.0P  7.8P  506P  8.4P  0.6P  
10/15/2017 16:45 EST0.82P  4.16P  19.0P  7.7P  506P  8.4P  0.6P  
10/15/2017 16:50 EST0.82P  4.16P  19.0P  7.7P  506P  8.4P  0.6P  
10/15/2017 16:55 EST0.83P  4.39P  19.0P  7.7P  506P  8.4P  0.6P  
10/15/2017 17:00 EST0.83P  4.39P  19.0P  7.7P  505P  8.3P  0.6P  
10/15/2017 17:05 EST0.83P  4.39P  19.0P  7.7P  505P  8.3P  0.6P  
10/15/2017 17:10 EST0.83P  4.39P  19.0P  7.7P  505P  8.3P  0.7P  
10/15/2017 17:15 EST0.83P  4.39P  19.0P  7.7P  505P  8.3P  0.7P  
10/15/2017 17:20 EST0.83P  4.39P  19.0P  7.7P  504P  8.3P  0.6P  
10/15/2017 17:25 EST0.83P  4.39P  19.0P  7.7P  504P  8.3P  0.7P  
10/15/2017 17:30 EST0.83P  4.39P  19.0P  7.7P  504P  8.3P  0.7P  
10/15/2017 17:35 EST0.83P  4.39P  19.0P  7.7P  504P  8.3P  0.6P  
10/15/2017 17:40 EST0.83P  4.39P  19.0P  7.7P  504P  8.3P  0.7P  
10/15/2017 17:45 EST0.83P  4.39P  19.0P  7.7P  504P  8.3P  0.7P  
10/15/2017 17:50 EST0.84P  4.62P  19.0P  7.7P  503P  8.3P  0.6P  
10/15/2017 17:55 EST0.84P  4.62P  19.0P  7.7P  503P  8.3P  0.7P  
10/15/2017 18:00 EST0.84P  4.62P  19.0P  7.7P  503P  8.2P  0.6P  
10/15/2017 18:05 EST0.85P  4.86P  19.0P  7.7P  503P  8.3P  0.6P  
10/15/2017 18:10 EST0.85P  4.86P  19.0P  7.7P  503P  8.2P  0.6P  
10/15/2017 18:15 EST0.85P  4.86P  19.0P  7.7P  503P  8.2P  0.7P  
10/15/2017 18:20 EST0.86P  5.10P  19.0P  7.7P  503P  8.2P  0.6P  
10/15/2017 18:25 EST0.86P  5.10P  19.0P  7.7P  503P  8.2P  0.7P  
10/15/2017 18:30 EST0.86P  5.10P  19.0P  7.7P  503P  8.2P  0.6P  
10/15/2017 18:35 EST0.86P  5.10P  19.0P  7.7P  503P  8.2P  0.7P  
10/15/2017 18:40 EST0.86P  5.10P  19.0P  7.7P  503P  8.2P  0.6P  
10/15/2017 18:45 EST0.86P  5.10P  19.0P  7.7P  503P  8.2P  0.6P  
10/15/2017 18:50 EST0.86P  5.10P  19.0P  7.7P  503P  8.2P  0.7P  
10/15/2017 18:55 EST0.86P  5.10P  19.0P  7.7P  503P  8.2P  0.6P  
10/15/2017 19:00 EST0.86P  5.10P  19.0P  7.7P  503P  8.2P  0.6P  
10/15/2017 19:05 EST0.87P  5.35P  19.0P  7.7P  503P  8.2P  0.6P  
10/15/2017 19:10 EST0.86P  5.10P  19.0P  7.7P  504P  8.2P  0.7P  
10/15/2017 19:15 EST0.86P  5.10P  19.0P  7.7P  504P  8.2P  0.7P  
10/15/2017 19:20 EST0.86P  5.10P  19.0P  7.7P  504P  8.2P  0.6P  
10/15/2017 19:25 EST0.86P  5.10P  19.0P  7.7P  504P  8.2P  0.6P  
10/15/2017 19:30 EST0.86P  5.10P  19.0P  7.7P  504P  8.2P  0.7P  
10/15/2017 19:35 EST0.86P  5.10P  19.0P  7.7P  504P  8.2P  0.6P  
10/15/2017 19:40 EST0.86P  5.10P  19.0P  7.7P  504P  8.2P  0.6P  
10/15/2017 19:45 EST0.86P  5.10P  19.0P  7.7P  505P  8.2P  0.7P  
10/15/2017 19:50 EST0.86P  5.10P  19.0P  7.7P  505P  8.2P  0.6P  
10/15/2017 19:55 EST0.86P  5.10P  19.0P  7.7P  505P  8.2P  0.6P  
10/15/2017 20:00 EST0.86P  5.10P  19.0P  7.7P  505P  8.2P  0.7P  
10/15/2017 20:05 EST0.86P  5.10P  19.0P  7.7P  505P  8.2P  0.6P  
10/15/2017 20:10 EST0.85P  4.86P  19.0P  7.7P  506P  8.2P  0.6P  
10/15/2017 20:15 EST0.85P  4.86P  19.0P  7.7P  506P  8.2P  0.6P  
10/15/2017 20:20 EST0.85P  4.86P  19.0P  7.7P  506P  8.2P  0.6P  
10/15/2017 20:25 EST0.85P  4.86P  19.0P  7.7P  506P  8.2P  0.6P  
10/15/2017 20:30 EST0.85P  4.86P  19.0P  7.7P  507P  8.2P  0.7P  
10/15/2017 20:35 EST0.85P  4.86P  19.0P  7.7P  507P  8.2P  0.6P  
10/15/2017 20:40 EST0.84P  4.62P  19.0P  7.7P  507P  8.2P  0.6P  
10/15/2017 20:45 EST0.84P  4.62P  19.0P  7.7P  507P  8.2P  0.6P  
10/15/2017 20:50 EST0.84P  4.62P  19.0P  7.7P  507P  8.2P  0.6P  
10/15/2017 20:55 EST0.84P  4.62P  19.0P  7.7P  508P  8.2P  0.7P  
10/15/2017 21:00 EST0.83P  4.39P  19.0P  7.7P  508P  8.2P  0.6P  
10/15/2017 21:05 EST0.83P  4.39P  19.0P  7.7P  508P  8.2P  0.6P  
10/15/2017 21:10 EST0.83P  4.39P  19.0P  7.7P  508P  8.2P  0.6P  
10/15/2017 21:15 EST0.83P  4.39P  19.0P  7.7P  508P  8.2P  0.6P  
10/15/2017 21:20 EST0.82P  4.16P  19.0P  7.7P  508P  8.2P  0.6P  
10/15/2017 21:25 EST0.82P  4.16P  19.0P  7.7P  508P  8.2P  0.6P  
10/15/2017 21:30 EST0.82P  4.16P  19.0P  7.7P  508P  8.2P  0.6P  
10/15/2017 21:35 EST0.82P  4.16P  19.0P  7.7P  508P  8.2P  0.6P  
10/15/2017 21:40 EST0.82P  4.16P  19.0P  7.7P  509P  8.2P  0.6P  
10/15/2017 21:45 EST0.81P  3.95P  19.0P  7.7P  509P  8.2P  0.6P  
10/15/2017 21:50 EST0.81P  3.95P  19.0P  7.7P  509P  8.2P  0.6P  
10/15/2017 21:55 EST0.81P  3.95P  19.0P  7.7P  509P  8.2P  0.6P  
10/15/2017 22:00 EST0.81P  3.95P  19.0P  7.7P  509P  8.2P  0.6P  
10/15/2017 22:05 EST0.81P  3.95P  19.0P  7.7P  509P  8.2P  0.6P  
10/15/2017 22:10 EST0.81P  3.95P  19.0P  7.7P  509P  8.2P  0.6P  
10/15/2017 22:15 EST0.81P  3.95P  19.0P  7.7P  509P  8.2P  0.7P  
10/15/2017 22:20 EST0.80P  3.74P  19.0P  7.7P  509P  8.1P  0.6P  
10/15/2017 22:25 EST0.80P  3.74P  19.0P  7.6P  509P  8.1P  0.6P  
10/15/2017 22:30 EST0.80P  3.74P  19.0P  7.7P  509P  8.1P  0.6P  
10/15/2017 22:35 EST0.80P  3.74P  19.0P  7.7P  509P  8.1P  0.6P  
10/15/2017 22:40 EST0.80P  3.74P  19.0P  7.7P  509P  8.1P  0.6P  
10/15/2017 22:45 EST0.80P  3.74P  19.0P  7.7P  510P  8.1P  0.6P  
10/15/2017 22:50 EST0.80P  3.74P  19.0P  7.7P  510P  8.1P  0.6P  
10/15/2017 22:55 EST0.80P  3.74P  19.0P  7.7P  510P  8.1P  0.6P  
10/15/2017 23:00 EST0.80P  3.74P  19.0P  7.7P  510P  8.1P  0.7P  
10/15/2017 23:05 EST0.80P  3.74P  19.0P  7.7P  510P  8.1P  0.6P  
10/15/2017 23:10 EST0.80P  3.74P  19.0P  7.7P  510P  8.1P  0.6P  
10/15/2017 23:15 EST0.80P  3.74P  19.0P  7.7P  510P  8.1P  0.6P  
10/15/2017 23:20 EST0.80P  3.74P  19.0P  7.6P  510P  8.1P  0.6P  
10/15/2017 23:25 EST0.80P  3.74P  19.0P  7.6P  510P  8.1P  0.7P  
10/15/2017 23:30 EST0.80P  3.74P  19.0P  7.7P  510P  8.1P  0.7P  
10/15/2017 23:35 EST0.80P  3.74P  19.0P  7.7P  510P  8.1P  0.7P  
10/15/2017 23:40 EST0.80P  3.74P  19.0P  7.7P  510P  8.1P  0.7P  
10/15/2017 23:45 EST0.80P  3.74P  19.0P  7.7P  510P  8.1P  0.7P  
10/15/2017 23:50 EST0.80P  3.74P  19.0P  7.7P  510P  8.1P  0.7P  
10/15/2017 23:55 EST0.80P  3.74P  19.0P  7.7P  510P  8.1P  0.6P  
10/16/2017 00:00 EST0.80P  3.74P  19.0P  7.7P  510P  8.1P  0.7P  
10/16/2017 00:05 EST0.81P  3.95P  19.0P  7.6P  510P  8.1P  0.6P  
10/16/2017 00:10 EST0.80P  3.74P  19.0P  7.7P  510P  8.1P  0.6P  
10/16/2017 00:15 EST0.81P  3.95P  19.0P  7.7P  510P  8.1P  0.6P  
10/16/2017 00:20 EST0.80P  3.74P  19.0P  7.7P  510P  8.1P  0.6P  
10/16/2017 00:25 EST0.80P  3.74P  19.1P  7.7P  510P  8.1P  0.7P  
10/16/2017 00:30 EST0.81P  3.95P  19.1P  7.6P  510P  8.1P  0.6P  
10/16/2017 00:35 EST0.81P  3.95P  19.1P  7.7P  510P  8.1P  0.7P  
10/16/2017 00:40 EST0.81P  3.95P  19.1P  7.7P  510P  8.1P  0.7P  
10/16/2017 00:45 EST0.81P  3.95P  19.1P  7.7P  510P  8.1P  0.6P  
10/16/2017 00:50 EST0.81P  3.95P  19.1P  7.7P  510P  8.1P  0.7P  
10/16/2017 00:55 EST0.81P  3.95P  19.1P  7.7P  510P  8.1P  0.7P  
10/16/2017 01:00 EST0.81P  3.95P  19.1P  7.6P  511P  8.1P  0.6P  
10/16/2017 01:05 EST0.81P  3.95P  19.1P  7.7P  511P  8.1P  0.7P  
10/16/2017 01:10 EST0.80P  3.74P  19.1P  7.7P  511P  8.1P  0.6P  
10/16/2017 01:15 EST0.81P  3.95P  19.1P  7.6P  511P  8.1P  0.6P  
10/16/2017 01:20 EST0.81P  3.95P  19.0P  7.7P  511P  8.1P  0.6P  
10/16/2017 01:25 EST0.81P  3.95P  19.0P  7.7P  511P  8.1P  0.7P  
10/16/2017 01:30 EST0.81P  3.95P  19.0P  7.7P  512P  8.1P  0.7P  
10/16/2017 01:35 EST0.81P  3.95P  19.0P  7.6P  512P  8.1P  0.6P  
10/16/2017 01:40 EST0.81P  3.95P  19.0P  7.7P  512P  8.1P  0.6P  
10/16/2017 01:45 EST0.81P  3.95P  19.0P  7.7P  512P  8.1P  0.6P  
10/16/2017 01:50 EST0.81P  3.95P  19.0P  7.7P  512P  8.1P  0.7P  
10/16/2017 01:55 EST0.81P  3.95P  19.0P  7.7P  512P  8.1P  0.6P  
10/16/2017 02:00 EST0.81P  3.95P  19.0P  7.7P  513P  8.1P  0.6P  
10/16/2017 02:05 EST0.82P  4.16P  19.0P  7.7P  513P  8.1P  0.6P  
10/16/2017 02:10 EST0.82P  4.16P  19.0P  7.7P  513P  8.1P  0.6P  
10/16/2017 02:15 EST0.82P  4.16P  19.0P  7.7P  513P  8.1P  0.7P  
10/16/2017 02:20 EST0.82P  4.16P  19.0P  7.7P  513P  8.1P  0.6P  
10/16/2017 02:25 EST0.83P  4.39P  19.0P  7.7P  513P  8.1P  0.7P  
10/16/2017 02:30 EST0.83P  4.39P  19.0P  7.7P  513P  8.1P  0.6P  
10/16/2017 02:35 EST0.83P  4.39P  19.0P  7.7P  513P  8.1P  0.6P  
10/16/2017 02:40 EST0.83P  4.39P  19.0P  7.7P  513P  8.1P  0.7P  
10/16/2017 02:45 EST0.83P  4.39P  18.9P  7.7P  513P  8.1P  0.6P  
10/16/2017 02:50 EST0.83P  4.39P  18.9P  7.7P  513P  8.1P  0.7P  
10/16/2017 02:55 EST0.84P  4.62P  18.9P  7.7P  513P  8.1P  0.6P  
10/16/2017 03:00 EST0.84P  4.62P  18.9P  7.6P  513P  8.1P  0.6P  
10/16/2017 03:05 EST0.84P  4.62P  18.9P  7.7P  513P  8.1P  0.7P  
10/16/2017 03:10 EST0.84P  4.62P  18.9P  7.7P  513P  8.1P  0.8P  
10/16/2017 03:15 EST0.83P  4.39P  18.9P  7.7P  513P  8.1P  0.7P  
10/16/2017 03:20 EST0.83P  4.39P  18.9P  7.7P  513P  8.1P  0.7P  
10/16/2017 03:25 EST0.83P  4.39P  18.9P  7.7P  513P  8.1P  0.7P  
10/16/2017 03:30 EST0.86P  5.10P  18.9P  7.7P  514P  8.1P  0.7P  
10/16/2017 03:35 EST0.85P  4.86P  18.8P  7.7P  514P  8.1P  0.7P  
10/16/2017 03:40 EST      18.8P  7.7P  514P  8.1P  0.7P  
10/16/2017 03:45 EST      18.8P  7.7P  514P  8.1P  0.7P  
10/16/2017 03:50 EST      18.8P  7.7P  515P  8.1P  0.7P  
10/16/2017 03:55 EST      18.8P  7.6P  515P  8.1P  0.7P  
10/16/2017 04:00 EST      18.8P  7.7P  515P  8.1P  0.8P  
10/16/2017 04:05 EST      18.8P  7.7P  515P  8.1P  0.7P  
10/16/2017 04:10 EST      18.8P  7.7P  515P  8.1P  0.7P  
10/16/2017 04:15 EST      18.8P  7.7P  515P  8.1P  0.7P  
10/16/2017 04:20 EST      18.8P  7.7P  516P  8.1P  0.7P  
10/16/2017 04:25 EST      18.8P  7.7P  516P  8.1P  0.7P  
10/16/2017 04:30 EST      18.8P  7.7P  517P  8.1P  0.8P  
10/16/2017 04:35 EST      18.8P  7.7P  517P  8.1P  0.7P  
10/16/2017 04:40 EST      18.8P  7.6P  517P  8.1P  0.7P  
10/16/2017 04:45 EST      18.8P  7.7P  517P  8.1P  0.8P  
10/16/2017 04:50 EST      18.8P  7.7P  518P  8.1P  0.8P  
10/16/2017 04:55 EST      18.8P  7.6P  518P  8.1P  0.7P  
10/16/2017 05:00 EST      18.7P  7.7P  518P  8.1P  0.8P  
10/16/2017 05:05 EST      18.7P  7.7P  519P  8.1P  0.7P  
10/16/2017 05:10 EST      18.7P  7.7P  519P  8.1P  0.8P  
10/16/2017 05:15 EST      18.7P  7.7P  519P  8.1P  0.8P  
10/16/2017 05:20 EST      18.7P  7.7P  519P  8.1P  0.9P  
10/16/2017 05:25 EST      18.7P  7.7P  519P  8.1P  0.8P  
10/16/2017 05:30 EST      18.7P  7.6P  519P  8.1P  0.8P  
10/16/2017 05:35 EST      18.7P  7.7P  519P  8.0P  0.8P  
10/16/2017 05:40 EST      18.7P  7.7P  520P  8.1P  1.2P  
10/16/2017 05:45 EST      18.7P  7.7P  520P  8.1P  0.8P  
10/16/2017 05:50 EST      18.7P  7.7P  521P  8.1P  0.9P  
10/16/2017 05:55 EST      18.7P  7.7P  521P  8.1P  0.8P  
10/16/2017 06:00 EST      18.6P  7.7P  522P  8.1P  0.8P  
10/16/2017 06:05 EST      18.6P  7.7P  522P  8.1P  0.7P  
10/16/2017 06:10 EST      18.6P  7.7P  523P  8.1P  0.8P  
10/16/2017 06:15 EST      18.6P  7.6P  523P  8.1P  0.7P  
10/16/2017 06:20 EST      18.6P  7.7P  524P  8.1P  0.9P  
10/16/2017 06:25 EST      18.6P  7.7P  524P  8.1P  0.8P  
10/16/2017 06:30 EST      18.6P  7.7P  525P  8.1P  0.8P  
10/16/2017 06:35 EST      18.6P  7.7P  525P  8.1P  0.8P  
10/16/2017 06:40 EST      18.6P  7.7P  526P  8.0P  0.8P  
10/16/2017 06:45 EST      18.5P  7.7P  526P  8.1P  0.8P  
10/16/2017 06:50 EST      18.5P  7.7P  526P  8.1P  0.8P  
10/16/2017 06:55 EST      18.5P  7.7P  527P  8.0P  0.8P  
10/16/2017 07:00 EST      18.5P  7.7P  527P  8.0P  0.9P  
10/16/2017 07:05 EST      18.5P  7.7P  528P  8.1P  0.7P  
10/16/2017 07:10 EST      18.5P  7.7P  528P  8.1P  0.8P  
10/16/2017 07:15 EST      18.5P  7.7P  528P  8.1P  0.8P  
10/16/2017 07:20 EST      18.4P  7.7P  529P  8.1P  0.8P  
10/16/2017 07:25 EST      18.4P  7.7P  529P  8.1P  0.8P  
10/16/2017 07:30 EST      18.4P  7.7P  529P  8.1P  0.8P  
10/16/2017 07:35 EST      18.4P  7.7P  529P  8.0P  0.8P  
10/16/2017 07:40 EST      18.4P  7.7P  530P  8.1P  0.9P  
10/16/2017 07:45 EST      18.4P  7.6P  530P  8.1P  0.8P  
10/16/2017 07:50 EST      18.4P  7.7P  530P  8.1P  0.9P  
10/16/2017 07:55 EST      18.4P  7.7P  530P  8.1P  0.8P  
10/16/2017 08:00 EST      18.4P  7.7P  531P  8.1P  0.8P  
10/16/2017 08:05 EST      18.3P  7.7P  531P  8.1P  0.8P  
10/16/2017 08:10 EST      18.3P  7.7P  531P  8.1P  0.8P  
10/16/2017 08:15 EST      18.3P  7.7P  531P  8.1P  0.9P  
10/16/2017 08:20 EST      18.3P  7.7P  531P  8.1P  0.8P  
10/16/2017 08:25 EST      18.3P  7.7P  532P  8.1P  0.8P  
10/16/2017 08:30 EST      18.3P  7.7P  532P  8.1P  0.8P  
10/16/2017 08:35 EST      18.3P  7.7P  532P  8.1P  0.9P  
10/16/2017 08:40 EST      18.3P  7.7P  532P  8.1P  0.9P  
10/16/2017 08:45 EST      18.3P  7.7P  532P  8.2P  0.9P  
10/16/2017 08:50 EST      18.3P  7.7P  532P  8.2P  0.9P  
10/16/2017 08:55 EST      18.3P  7.7P  532P  8.1P  0.9P  
10/16/2017 09:00 EST      18.3P  7.7P  532P  8.2P  0.9P  
10/16/2017 09:05 EST      18.3P  7.7P  532P  8.2P  0.9P  
10/16/2017 09:10 EST      18.2P  7.7P  532P  8.2P  1.0P  
10/16/2017 09:15 EST      18.2P  7.7P  532P  8.2P  1.0P  
10/16/2017 09:20 EST      18.2P  7.7P  532P  8.2P  1.0P  
10/16/2017 09:25 EST      18.2P  7.7P  532P  8.2P  1.1P  
10/16/2017 09:30 EST      18.2P  7.6P  532P  8.2P  1.1P  
10/16/2017 09:35 EST      18.2P  7.7P  532P  8.2P  1.1P  
10/16/2017 09:40 EST      18.2P  7.7P  532P  8.2P  1.1P  
10/16/2017 09:45 EST      18.2P  7.7P  533P  8.2P  1.2P  
10/16/2017 09:50 EST      18.2P  7.7P  533P  8.2P  1.3P  
10/16/2017 09:55 EST      18.2P  7.7P  533P  8.2P  1.2P  
10/16/2017 10:00 EST      18.2P  7.7P  533P  8.2P  1.2P  
10/16/2017 10:05 EST      18.2P  7.7P  533P  8.3P  1.3P  
10/16/2017 10:10 EST      18.2P  7.7P  533P  8.3P  1.2P  
10/16/2017 10:15 EST      18.2P  7.7P  533P  8.3P  1.3P  
10/16/2017 10:20 EST      18.2P  7.7P  533P  8.3P  1.3P  
10/16/2017 10:25 EST      18.1P  7.7P  533P  8.3P  1.3P  
10/16/2017 10:30 EST      18.1P  7.6P  533P  8.3P  1.3P  
10/16/2017 10:35 EST      18.1P  7.7P  533P  8.3P  1.3P  
10/16/2017 10:40 EST      18.1P  7.7P  533P  8.3P  1.2P  
10/16/2017 10:45 EST      18.1P  7.7P  533P  8.3P  1.2P  
10/16/2017 10:50 EST      18.1P  7.7P  533P  8.3P  1.2P  
10/16/2017 10:55 EST      18.1P  7.7P  533P  8.4P  1.1P  
10/16/2017 11:00 EST      18.1P  7.7P  533P  8.4P  1.2P  
10/16/2017 11:05 EST      18.1P  7.7P  533P  8.4P  1.1P  
10/16/2017 11:10 EST      18.1P  7.7P  533P  8.4P  1.1P  
10/16/2017 11:15 EST      18.1P  7.7P  533P  8.4P  1.1P  
10/16/2017 11:20 EST      18.1P  7.7P  533P  8.4P  1.1P  
10/16/2017 11:25 EST      18.1P  7.7P  533P  8.4P  1.1P  
10/16/2017 11:30 EST      18.1P  7.7P  533P  8.4P  1.1P  
10/16/2017 11:35 EST      18.1P  7.7P  533P  8.4P  1.1P  
10/16/2017 11:40 EST      18.1P  7.7P  534P  8.5P  1.0P  
10/16/2017 11:45 EST      18.1P  7.7P  534P  8.5P  1.0P  
10/16/2017 11:50 EST      18.1P  7.7P  534P  8.5P  1.0P  
10/16/2017 11:55 EST      18.1P  7.7P  534P  8.5P  1.0P  
10/16/2017 12:00 EST      18.1P  7.7P  534P  8.5P  1.0P  
10/16/2017 12:05 EST      18.1P  7.7P  534P  8.5P  1.0P  
10/16/2017 12:10 EST      18.1P  7.7P  534P  8.5P  1.0P  
10/16/2017 12:15 EST      18.1P  7.7P  535P  8.5P  1.0P  
10/16/2017 12:20 EST      18.1P  7.7P  535P  8.5P  0.9P  
10/16/2017 12:25 EST      18.1P  7.7P  535P  8.5P  0.9P  
10/16/2017 12:30 EST      18.1P  7.7P  535P  8.5P  0.9P  
10/16/2017 12:35 EST      18.1P  7.7P  536P  8.5P  0.9P  
10/16/2017 12:40 EST      18.1P  7.7P  536P  8.5P  1.0P  
10/16/2017 12:45 EST      18.1P  7.7P  537P  8.5P  0.9P  
10/16/2017 12:50 EST      18.1P  7.7P  537P  8.5P  0.9P  
10/16/2017 12:55 EST      18.1P  7.7P  538P  8.5P  1.0P  
10/16/2017 13:00 EST      18.1P  7.7P  539P  8.5P  1.1P  
10/16/2017 13:05 EST      18.2P  7.7P  539P  8.5P  0.9P  
10/16/2017 13:10 EST      18.2P  7.7P  540P  8.6P  1.0P  
10/16/2017 13:15 EST      18.2P  7.7P  541P  8.5P  0.9P  
10/16/2017 13:20 EST      18.2P  7.7P  542P  8.5P  1.0P  
10/16/2017 13:25 EST      18.2P  7.7P  544P  8.5P  1.0P  
10/16/2017 13:30 EST      18.2P  7.7P  545P  8.5P  1.0P  
10/16/2017 13:35 EST      18.2P  7.7P  547P  8.6P  1.0P  
10/16/2017 13:40 EST      18.2P  7.7P  548P  8.6P  1.0P  
10/16/2017 13:45 EST      18.1P  7.7P  550P  8.6P  1.0P  
10/16/2017 13:50 EST      18.1P  7.7P  551P  8.6P  1.0P  
10/16/2017 13:55 EST      18.1P  7.7P  553P  8.6P  1.0P  
10/16/2017 14:00 EST      18.1P  7.7P  555P  8.6P  1.0P  
10/16/2017 14:05 EST      18.0P  7.7P  557P  8.6P  1.0P  
10/16/2017 14:10 EST      18.0P  7.8P  558P  8.6P  1.1P  
10/16/2017 14:15 EST      18.0P  7.8P  560P  8.6P  1.1P  
10/16/2017 14:20 EST      18.0P  7.7P  562P  8.6P  1.0P  
10/16/2017 14:25 EST      17.9P  7.8P  563P  8.6P  1.0P  
10/16/2017 14:30 EST      17.9P  7.8P  565P  8.6P  1.0P  
10/16/2017 14:35 EST      17.9P  7.8P  567P  8.6P  1.0P  
10/16/2017 14:40 EST      17.9P  7.8P  568P  8.6P  1.1P  
10/16/2017 14:45 EST      17.9P  7.8P  570P  8.6P  1.1P  
10/16/2017 14:50 EST      17.9P  7.7P  571P  8.5P  1.0P  
10/16/2017 14:55 EST      17.9P  7.8P  573P  8.6P  1.0P  
10/16/2017 15:00 EST      17.8P  7.8P  575P  8.5P  1.1P  
10/16/2017 15:05 EST      17.8P  7.8P  576P  8.5P  1.0P  
10/16/2017 15:10 EST      17.8P  7.8P  579P  8.5P  1.0P  
10/16/2017 15:15 EST      17.8P  7.7P  581P  8.6P  1.0P  
10/16/2017 15:20 EST0.83P  4.39P  17.8P  7.7P  583P  8.5P  1.0P  
10/16/2017 15:25 EST0.84P  4.62P  17.8P  7.8P  584P  8.6P  1.1P  
10/16/2017 15:30 EST0.84P  4.62P  17.8P  7.7P  586P  8.5P  1.0P  
10/16/2017 15:35 EST0.84P  4.62P  17.8P  7.8P  587P  8.5P  1.1P  
10/16/2017 15:40 EST0.84P  4.62P  17.8P  7.7P  588P  8.5P  1.0P  
10/16/2017 15:45 EST0.84P  4.62P  17.8P  7.7P  589P  8.5P  1.0P  
10/16/2017 15:50 EST0.84P  4.62P  17.8P  7.7P  590P  8.5P  1.1P  
10/16/2017 15:55 EST0.85P  4.86P  17.7P  7.7P  591P  8.5P  1.0P  
10/16/2017 16:00 EST0.84P  4.62P  17.7P  7.7P  592P  8.5P  1.0P  
10/16/2017 16:05 EST0.83P  4.39P  17.7P  7.7P  593P  8.5P  1.1P  
10/16/2017 16:10 EST0.83P  4.39P  17.7P  7.8P  593P  8.5P  1.0P  
10/16/2017 16:15 EST0.83P  4.39P  17.7P  7.7P  594P  8.5P  1.0P  
10/16/2017 16:20 EST0.83P  4.39P  17.7P  7.7P  595P  8.5P  1.0P  
10/16/2017 16:25 EST0.83P  4.39P  17.7P  7.7P  595P  8.5P  1.0P  
10/16/2017 16:30 EST0.83P  4.39P  17.6P  7.7P  596P  8.4P  1.1P  
10/16/2017 16:35 EST0.82P  4.16P  17.6P  7.7P  596P  8.5P  1.0P  
10/16/2017 16:40 EST0.82P  4.16P  17.6P  7.7P  597P  8.4P  1.0P  
10/16/2017 16:45 EST0.83P  4.39P  17.6P  7.7P  597P  8.4P  1.0P  
10/16/2017 16:50 EST0.81P  3.95P  17.6P  7.7P  597P  8.4P  1.0P  
10/16/2017 16:55 EST0.81P  3.95P  17.6P  7.7P  598P  8.4P  1.0P  
10/16/2017 17:00 EST0.81P  3.95P  17.6P  7.7P  598P  8.4P  1.0P  
10/16/2017 17:05 EST0.81P  3.95P  17.5P  7.7P  598P  8.4P  1.0P  
10/16/2017 17:10 EST0.81P  3.95P  17.5P  7.7P  599P  8.4P  1.0P  
10/16/2017 17:15 EST0.80P  3.74P  17.5P  7.7P  599P  8.4P  1.0P  
10/16/2017 17:20 EST0.80P  3.74P  17.5P  7.7P  599P  8.4P  1.1P  
10/16/2017 17:25 EST0.81P  3.95P  17.5P  7.7P  599P  8.4P  1.1P  
10/16/2017 17:30 EST0.80P  3.74P  17.4P  7.7P  600P  8.4P  1.1P  
10/16/2017 17:35 EST0.80P  3.74P  17.4P  7.7P  600P  8.4P  1.0P  
10/16/2017 17:40 EST0.79P  3.50P  17.4P  7.7P  600P  8.4P  1.2P  
10/16/2017 17:45 EST0.79P  3.50P  17.4P  7.7P  600P  8.4P  1.1P  
10/16/2017 17:50 EST0.79P  3.50P  17.4P  7.7P  601P  8.4P  1.1P  
10/16/2017 17:55 EST0.79P  3.50P  17.4P  7.7P  601P  8.3P  1.1P  
10/16/2017 18:00 EST0.79P  3.50P  17.4P  7.7P  601P  8.4P  1.1P  
10/16/2017 18:05 EST0.79P  3.50P  17.3P  7.7P  602P  8.4P  1.1P  
10/16/2017 18:10 EST0.79P  3.50P  17.3P  7.7P  602P  8.4P  1.0P  
10/16/2017 18:15 EST0.79P  3.50P  17.3P  7.7P  602P  8.4P  1.1P  
10/16/2017 18:20 EST0.79P  3.50P  17.3P  7.7P  603P  8.4P  1.1P  
10/16/2017 18:25 EST0.79P  3.50P  17.3P  7.7P  603P  8.4P  1.1P  
10/16/2017 18:30 EST0.79P  3.50P  17.2P  7.7P  603P  8.4P  1.0P  
10/16/2017 18:35 EST0.80P  3.74P  17.2P  7.7P  603P  8.4P  1.0P  
10/16/2017 18:40 EST0.80P  3.74P  17.2P  7.7P  604P  8.4P  1.0P  
10/16/2017 18:45 EST0.80P  3.74P  17.2P  7.7P  604P  8.4P  1.1P  
10/16/2017 18:50 EST0.80P  3.74P  17.2P  7.7P  604P  8.4P  1.0P  
10/16/2017 18:55 EST0.81P  3.95P  17.2P  7.7P  604P  8.4P  1.0P  
10/16/2017 19:00 EST0.81P  3.95P  17.1P  7.7P  605P  8.4P  1.0P  
10/16/2017 19:05 EST0.82P  4.16P  17.1P  7.7P  605P  8.4P  1.1P  
10/16/2017 19:10 EST0.82P  4.16P  17.1P  7.7P  605P  8.4P  1.0P  
10/16/2017 19:15 EST0.82P  4.16P  17.1P  7.7P  605P  8.4P  1.1P  
10/16/2017 19:20 EST0.84P  4.62P  17.1P  7.7P  605P  8.4P  1.0P  
10/16/2017 19:25 EST0.82P  4.16P  17.0P  7.7P  605P  8.4P  1.0P  
10/16/2017 19:30 EST0.83P  4.39P  17.0P  7.7P  605P  8.4P  1.0P  
10/16/2017 19:35 EST0.83P  4.39P  17.0P  7.7P  605P  8.4P  0.9P  
10/16/2017 19:40 EST0.83P  4.39P  17.0P  7.7P  604P  8.4P  1.0P  
10/16/2017 19:45 EST0.83P  4.39P  17.0P  7.7P  604P  8.4P  0.9P  
10/16/2017 19:50 EST0.83P  4.39P  17.0P  7.7P  604P  8.4P  1.0P  
10/16/2017 19:55 EST0.83P  4.39P  16.9P  7.7P  604P  8.4P  0.9P  
10/16/2017 20:00 EST0.83P  4.39P  16.9P  7.7P  603P  8.4P  1.0P  
10/16/2017 20:05 EST0.83P  4.39P  16.9P  7.7P  603P  8.4P  0.8P  
10/16/2017 20:10 EST0.83P  4.39P  16.9P  7.7P  603P  8.4P  0.9P  
10/16/2017 20:15 EST0.83P  4.39P  16.8P  7.7P  602P  8.4P  0.9P  
10/16/2017 20:20 EST0.83P  4.39P  16.8P  7.7P  601P  8.4P  0.9P  
10/16/2017 20:25 EST0.83P  4.39P  16.8P  7.7P  601P  8.4P  0.8P  
10/16/2017 20:30 EST0.83P  4.39P  16.8P  7.7P  600P  8.4P  0.9P  
10/16/2017 20:35 EST0.83P  4.39P  16.8P  7.7P  599P  8.5P  0.8P  
10/16/2017 20:40 EST0.83P  4.39P  16.8P  7.7P  598P  8.5P  0.8P  
10/16/2017 20:45 EST0.82P  4.16P  16.7P  7.7P  597P  8.5P  0.9P  
10/16/2017 20:50 EST0.82P  4.16P  16.7P  7.7P  596P  8.5P  0.8P  
10/16/2017 20:55 EST0.82P  4.16P  16.7P  7.7P  595P  8.5P  0.8P  
10/16/2017 21:00 EST0.82P  4.16P  16.7P  7.7P  594P  8.5P  0.8P  
10/16/2017 21:05 EST0.82P  4.16P  16.6P  7.7P  594P  8.5P  0.8P  
10/16/2017 21:10 EST0.82P  4.16P  16.6P  7.7P  593P  8.5P  0.8P  
10/16/2017 21:15 EST0.81P  3.95P  16.6P  7.7P  592P  8.5P  0.8P  
10/16/2017 21:20 EST0.81P  3.95P  16.6P  7.7P  591P  8.5P  0.8P  
10/16/2017 21:25 EST0.81P  3.95P  16.6P  7.7P  590P  8.5P  0.8P  
10/16/2017 21:30 EST0.81P  3.95P  16.6P  7.7P  589P  8.5P  0.8P  
10/16/2017 21:35 EST0.81P  3.95P  16.5P  7.7P  588P  8.5P  0.8P  
10/16/2017 21:40 EST0.80P  3.74P  16.5P  7.7P  587P  8.6P  0.8P  
10/16/2017 21:45 EST0.81P  3.95P  16.5P  7.7P  586P  8.5P  0.7P  
10/16/2017 21:50 EST0.80P  3.74P  16.5P  7.7P  585P  8.5P  0.7P  
10/16/2017 21:55 EST0.80P  3.74P  16.4P  7.7P  584P  8.6P  0.8P  
10/16/2017 22:00 EST0.79P  3.50P  16.4P  7.7P  584P  8.6P  0.8P  
10/16/2017 22:05 EST0.79P  3.50P  16.4P  7.7P  583P  8.6P  0.7P  
10/16/2017 22:10 EST0.79P  3.50P  16.4P  7.7P  582P  8.6P  0.8P  
10/16/2017 22:15 EST0.79P  3.50P  16.4P  7.7P  581P  8.6P  0.8P  
10/16/2017 22:20 EST0.79P  3.50P  16.4P  7.7P  580P  8.6P  0.8P  
10/16/2017 22:25 EST0.79P  3.50P  16.3P  7.7P  579P  8.6P  0.7P  
10/16/2017 22:30 EST0.79P  3.50P  16.3P  7.7P  579P  8.6P  0.7P  
10/16/2017 22:35 EST0.80P  3.74P  16.3P  7.7P  578P  8.6P  0.8P  
10/16/2017 22:40 EST0.79P  3.50P  16.3P  7.7P  577P  8.6P  0.9P  
10/16/2017 22:45 EST0.79P  3.50P  16.3P  7.7P  576P  8.6P  0.7P  
10/16/2017 22:50 EST0.79P  3.50P  16.2P  7.7P  576P  8.6P  0.7P  
10/16/2017 22:55 EST0.79P  3.50P  16.2P  7.7P  575P  8.6P  0.7P  
10/16/2017 23:00 EST0.79P  3.50P  16.2P  7.7P  574P  8.6P  0.7P  
10/16/2017 23:05 EST0.79P  3.50P  16.2P  7.7P  573P  8.6P  0.7P  
10/16/2017 23:10 EST0.79P  3.50P  16.2P  7.7P  572P  8.6P  0.8P  
10/16/2017 23:15 EST0.79P  3.50P  16.1P  7.7P  572P  8.6P  0.7P  
10/16/2017 23:20 EST0.79P  3.50P  16.1P  7.7P  571P  8.6P  0.7P  
10/16/2017 23:25 EST0.79P  3.50P  16.1P  7.7P  570P  8.6P  0.7P  
10/16/2017 23:30 EST0.79P  3.50P  16.1P  7.7P  570P  8.6P  0.7P  
10/16/2017 23:35 EST0.80P  3.74P  16.0P  7.7P  569P  8.6P  0.7P  
10/16/2017 23:40 EST0.79P  3.50P  16.0P  7.7P  569P  8.6P  0.7P  
10/16/2017 23:45 EST0.79P  3.50P  16.0P  7.7P  568P  8.6P  0.7P  
10/16/2017 23:50 EST0.79P  3.50P  16.0P  7.7P  568P  8.6P  0.7P  
10/16/2017 23:55 EST0.79P  3.50P  16.0P  7.7P  567P  8.6P  0.7P  
10/17/2017 00:00 EST0.79P  3.50P  16.0P  7.7P  567P  8.6P  0.8P  
10/17/2017 00:05 EST0.79P  3.50P  15.9P  7.7P  566P  8.6P  0.7P  
10/17/2017 00:10 EST0.79P  3.50P  15.9P  7.7P  566P  8.7P  0.7P  
10/17/2017 00:15 EST0.80P  3.74P  15.9P  7.7P  565P  8.7P  0.7P  
10/17/2017 00:20 EST0.81P  3.95P  15.9P  7.7P  565P  8.7P  0.7P  
10/17/2017 00:25 EST0.80P  3.74P  15.9P  7.7P  564P  8.7P  0.7P  
10/17/2017 00:30 EST0.80P  3.74P  15.8P  7.7P  564P  8.7P  0.7P  
10/17/2017 00:35 EST0.80P  3.74P  15.8P  7.7P  563P  8.7P  0.7P  
10/17/2017 00:40 EST0.79P  3.50P  15.8P  7.7P  563P  8.7P  0.7P  
10/17/2017 00:45 EST0.80P  3.74P  15.8P  7.7P  562P  8.7P  0.7P  
10/17/2017 00:50 EST0.80P  3.74P  15.8P  7.7P  562P  8.7P  0.7P  
10/17/2017 00:55 EST0.80P  3.74P  15.7P  7.7P  561P  8.7P  0.7P  
10/17/2017 01:00 EST0.80P  3.74P  15.7P  7.7P  561P  8.7P  0.7P  
10/17/2017 01:05 EST0.80P  3.74P  15.7P  7.7P  561P  8.7P  0.7P  
10/17/2017 01:10 EST0.80P  3.74P  15.7P  7.7P  560P  8.7P  0.7P  
10/17/2017 01:15 EST0.81P  3.95P  15.7P  7.7P  560P  8.7P  0.7P  
10/17/2017 01:20 EST0.80P  3.74P  15.6P  7.7P  560P  8.7P  0.7P  
10/17/2017 01:25 EST0.80P  3.74P  15.6P  7.7P  559P  8.7P  0.7P  
10/17/2017 01:30 EST0.80P  3.74P  15.6P  7.7P  559P  8.8P  0.7P  
10/17/2017 01:35 EST0.80P  3.74P  15.6P  7.7P  558P  8.8P  0.7P  
10/17/2017 01:40 EST0.80P  3.74P  15.6P  7.7P  558P  8.8P  0.7P  
10/17/2017 01:45 EST0.80P  3.74P  15.5P  7.7P  558P  8.8P  0.7P  
10/17/2017 01:50 EST0.80P  3.74P  15.5P  7.7P  558P  8.8P  0.7P  
10/17/2017 01:55 EST0.80P  3.74P  15.5P  7.7P  558P  8.8P  0.7P  
10/17/2017 02:00 EST0.81P  3.95P  15.5P  7.7P  557P  8.8P  0.7P  
10/17/2017 02:05 EST0.80P  3.74P  15.4P  7.7P  557P  8.8P  0.7P  
10/17/2017 02:10 EST0.80P  3.74P  15.4P  7.7P  557P  8.8P  0.6P  
10/17/2017 02:15 EST0.80P  3.74P  15.4P  7.7P  557P  8.8P  0.7P  
10/17/2017 02:20 EST0.80P  3.74P  15.4P  7.7P  556P  8.8P  0.6P  
10/17/2017 02:25 EST0.80P  3.74P  15.4P  7.7P  556P  8.8P  0.7P  
10/17/2017 02:30 EST0.80P  3.74P  15.4P  7.7P  556P  8.8P  0.7P  
10/17/2017 02:35 EST0.80P  3.74P  15.3P  7.7P  556P  8.8P  0.7P  
10/17/2017 02:40 EST0.80P  3.74P  15.3P  7.7P  556P  8.8P  0.7P  
10/17/2017 02:45 EST0.80P  3.74P  15.3P  7.7P  555P  8.8P  1.1P  
10/17/2017 02:50 EST0.80P  3.74P  15.3P  7.7P  555P  8.8P  3.1P  
10/17/2017 02:55 EST0.80P  3.74P  15.3P  7.7P  555P  8.8P  0.9P  
10/17/2017 03:00 EST0.80P  3.74P  15.2P  7.7P  555P  8.8P  0.8P  
10/17/2017 03:05 EST0.80P  3.74P  15.2P  7.7P  555P  8.8P  0.8P  
10/17/2017 03:10 EST0.81P  3.95P  15.2P  7.7P  555P  8.8P  0.8P  
10/17/2017 03:15 EST0.80P  3.74P  15.2P  7.7P  554P  8.9P  0.7P  
10/17/2017 03:20 EST0.80P  3.74P  15.2P  7.7P  554P  8.9P  0.8P  
10/17/2017 03:25 EST0.80P  3.74P  15.1P  7.7P  554P  8.9P  0.8P  
10/17/2017 03:30 EST0.80P  3.74P  15.1P  7.7P  554P  8.9P  0.7P  
10/17/2017 03:35 EST0.80P  3.74P  15.1P  7.7P  554P  8.9P  0.7P  
10/17/2017 03:40 EST0.80P  3.74P  15.1P  7.7P  554P  8.9P  0.7P  
10/17/2017 03:45 EST0.80P  3.74P  15.0P  7.7P  554P  8.9P  0.7P  
10/17/2017 03:50 EST0.81P  3.95P  15.0P  7.7P  554P  8.9P  0.8P  
10/17/2017 03:55 EST0.80P  3.74P  15.0P  7.7P  554P  8.9P  0.7P  
10/17/2017 04:00 EST0.80P  3.74P  15.0P  7.7P  554P  8.9P  0.7P  
10/17/2017 04:05 EST0.81P  3.95P  15.0P  7.7P  554P  8.9P  0.8P  
10/17/2017 04:10 EST0.80P  3.74P  14.9P  7.7P  554P  8.9P  0.7P  
10/17/2017 04:15 EST0.80P  3.74P  14.9P  7.7P  554P  8.9P  0.7P  
10/17/2017 04:20 EST0.80P  3.74P  14.9P  7.7P  554P  8.9P  0.8P  
10/17/2017 04:25 EST0.80P  3.74P  14.9P  7.7P  554P  8.9P  0.7P  
10/17/2017 04:30 EST0.80P  3.74P  14.9P  7.7P  554P  9.0P  0.7P  
10/17/2017 04:35 EST0.80P  3.74P  14.8P  7.7P  554P  9.0P  0.7P  
10/17/2017 04:40 EST0.80P  3.74P  14.8P  7.7P  554P  9.0P  0.7P  
10/17/2017 04:45 EST0.80P  3.74P  14.8P  7.7P  554P  9.0P  0.7P  
10/17/2017 04:50 EST0.80P  3.74P  14.8P  7.7P  554P  9.0P  0.7P  
10/17/2017 04:55 EST0.80P  3.74P  14.8P  7.7P  554P  9.0P  0.7P  
10/17/2017 05:00 EST0.81P  3.95P  14.7P  7.7P  554P  9.0P  0.7P  
10/17/2017 05:05 EST0.80P  3.74P  14.7P  7.7P  554P  9.0P  0.6P  
10/17/2017 05:10 EST0.80P  3.74P  14.7P  7.7P  555P  9.0P  0.7P  
10/17/2017 05:15 EST0.81P  3.95P  14.7P  7.7P  555P  9.0P  0.8P  
10/17/2017 05:20 EST0.80P  3.74P  14.6P  7.7P  555P  9.0P  0.7P  
10/17/2017 05:25 EST0.80P  3.74P  14.6P  7.7P  555P  9.0P  0.7P  
10/17/2017 05:30 EST0.80P  3.74P  14.6P  7.7P  555P  9.0P  0.6P  
10/17/2017 05:35 EST0.80P  3.74P  14.6P  7.7P  555P  9.0P  0.7P  
10/17/2017 05:40 EST0.80P  3.74P  14.6P  7.7P  556P  9.0P  0.7P  
10/17/2017 05:45 EST0.80P  3.74P  14.6P  7.7P  556P  9.0P  0.7P  
10/17/2017 05:50 EST0.80P  3.74P  14.5P  7.7P  556P  9.0P  0.7P  
10/17/2017 05:55 EST0.80P  3.74P  14.5P  7.7P  556P  9.0P  0.7P  
10/17/2017 06:00 EST0.80P  3.74P  14.5P  7.7P  557P  9.0P  0.7P  
10/17/2017 06:05 EST0.80P  3.74P  14.5P  7.7P  557P  9.1P  0.7P  
10/17/2017 06:10 EST0.81P  3.95P  14.4P  7.7P  557P  9.1P  0.7P  
10/17/2017 06:15 EST0.80P  3.74P  14.4P  7.7P  557P  9.1P  0.7P  
10/17/2017 06:20 EST0.80P  3.74P  14.4P  7.7P  558P  9.1P  0.7P  
10/17/2017 06:25 EST0.80P  3.74P  14.4P  7.7P  558P  9.1P  0.7P  
10/17/2017 06:30 EST0.80P  3.74P  14.4P  7.7P  558P  9.1P  0.7P  
10/17/2017 06:35 EST0.80P  3.74P  14.3P  7.7P  559P  9.1P  0.7P  
10/17/2017 06:40 EST0.80P  3.74P  14.3P  7.7P  559P  9.1P  0.7P  
10/17/2017 06:45 EST0.81P  3.95P  14.3P  7.7P  559P  9.1P  0.7P  
10/17/2017 06:50 EST0.80P  3.74P  14.3P  7.7P  560P  9.1P  0.7P  
10/17/2017 06:55 EST0.80P  3.74P  14.3P  7.7P  560P  9.2P  0.7P  
10/17/2017 07:00 EST0.80P  3.74P  14.2P  7.7P  560P  9.2P  0.7P  
10/17/2017 07:05 EST0.80P  3.74P  14.2P  7.7P  561P  9.2P  0.7P  
10/17/2017 07:10 EST0.81P  3.95P  14.2P  7.7P  561P  9.2P  0.7P  
10/17/2017 07:15 EST0.80P  3.74P  14.2P  7.7P  561P  9.2P  0.7P  
10/17/2017 07:20 EST0.80P  3.74P  14.2P  7.7P  562P  9.2P  0.7P  
10/17/2017 07:25 EST0.81P  3.95P  14.2P  7.7P  562P  9.2P  0.6P  
10/17/2017 07:30 EST0.80P  3.74P  14.2P  7.7P  563P  9.2P  0.6P  
10/17/2017 07:35 EST0.80P  3.74P  14.1P  7.7P  563P  9.2P  0.7P  
10/17/2017 07:40 EST0.81P  3.95P  14.1P  7.8P  563P  9.2P  0.7P  
10/17/2017 07:45 EST0.80P  3.74P  14.1P  7.8P  564P  9.2P  0.6P  
10/17/2017 07:50 EST0.80P  3.74P  14.1P  7.8P  564P  9.2P  0.7P  
10/17/2017 07:55 EST0.81P  3.95P  14.1P  7.8P  565P  9.2P  0.7P  
10/17/2017 08:00 EST0.80P  3.74P  14.1P  7.8P  565P  9.2P  0.7P  
10/17/2017 08:05 EST0.80P  3.74P  14.1P  7.8P  565P  9.2P  0.7P  
10/17/2017 08:10 EST0.80P  3.74P  14.0P  7.8P  566P  9.3P  0.7P  
10/17/2017 08:15 EST0.81P  3.95P  14.0P  7.8P  566P  9.3P  0.7P  
10/17/2017 08:20 EST0.81P  3.95P  14.0P  7.8P  567P  9.3P  0.8P  
10/17/2017 08:25 EST0.81P  3.95P  14.0P  7.8P  567P  9.3P  0.7P  
10/17/2017 08:30 EST0.83P  4.39P  14.0P  7.8P  568P  9.3P  0.7P  
10/17/2017 08:35 EST0.82P  4.16P  14.0P  7.8P  568P  9.3P  0.6P  
10/17/2017 08:40 EST0.82P  4.16P  14.0P  7.8P  569P  9.3P  0.6P  
10/17/2017 08:45 EST0.83P  4.39P  14.0P  7.7P  569P  9.3P  0.6P  
10/17/2017 08:50 EST0.83P  4.39P  14.0P  7.8P  569P  9.3P  0.6P  
10/17/2017 08:55 EST0.83P  4.39P  14.0P  7.8P  570P  9.4P  0.6P  
10/17/2017 09:00 EST0.83P  4.39P  14.0P  7.8P  570P  9.4P  0.7P  
10/17/2017 09:05 EST0.83P  4.39P  14.0P  7.7P  571P  9.4P  0.7P  
10/17/2017 09:10 EST0.84P  4.62P  14.0P  7.8P  572P  9.4P  0.7P  
10/17/2017 09:15 EST0.84P  4.62P  14.0P  7.8P  572P  9.4P  0.7P  
10/17/2017 09:20 EST0.84P  4.62P  14.0P  7.8P  572P  9.4P  0.7P  
10/17/2017 09:25 EST0.84P  4.62P  14.0P  7.7P  573P  9.4P  0.8P  
10/17/2017 09:30 EST0.84P  4.62P  14.0P  7.8P  573P  9.4P  0.7P  
10/17/2017 09:35 EST0.83P  4.39P  14.0P  7.8P  574P  9.4P  0.6P  
10/17/2017 09:40 EST0.83P  4.39P  14.0P  7.8P  574P  9.4P  0.7P  
10/17/2017 09:45 EST0.83P  4.39P  14.0P  7.8P  575P  9.4P  0.6P  
10/17/2017 09:50 EST0.83P  4.39P  14.0P  7.8P  575P  9.5P  0.6P  
10/17/2017 09:55 EST0.83P  4.39P  14.0P  7.8P  575P  9.5P  0.7P  
10/17/2017 10:00 EST0.83P  4.39P  14.0P  7.8P  576P  9.5P  0.6P  
10/17/2017 10:05 EST0.83P  4.39P  14.0P  7.8P  576P  9.5P  0.6P  
10/17/2017 10:10 EST0.82P  4.16P  14.0P  7.7P  577P  9.5P  0.6P  
10/17/2017 10:15 EST0.82P  4.16P  14.0P  7.8P  577P  9.5P  0.6P  
10/17/2017 10:20 EST0.82P  4.16P  14.1P  7.8P  577P  9.5P  0.6P  
10/17/2017 10:25 EST0.82P  4.16P  14.1P  7.8P  578P  9.5P  0.6P  
10/17/2017 10:30 EST0.82P  4.16P  14.1P  7.8P  578P  9.5P  0.6P  
10/17/2017 10:35 EST0.82P  4.16P  14.1P  7.8P  578P  9.5P  0.7P  
10/17/2017 10:40 EST0.82P  4.16P  14.1P  7.8P  579P  9.5P  0.7P  
10/17/2017 10:45 EST0.81P  3.95P  14.2P  7.8P  579P  9.5P  0.7P  
10/17/2017 10:50 EST0.81P  3.95P  14.2P  7.8P  579P  9.5P  0.6P  
10/17/2017 10:55 EST0.81P  3.95P  14.2P  7.8P  579P  9.5P  0.6P  
10/17/2017 11:00 EST0.81P  3.95P  14.2P  7.8P  580P  9.5P  0.7P  
10/17/2017 11:05 EST0.81P  3.95P  14.2P  7.8P  580P  9.5P  0.7P  
10/17/2017 11:10 EST0.81P  3.95P  14.2P  7.8P  580P  9.5P  0.7P  
10/17/2017 11:15 EST0.81P  3.95P  14.2P  7.8P  581P  9.5P  0.7P  
10/17/2017 11:20 EST0.81P  3.95P  14.3P  7.8P  581P  9.5P  0.6P  
10/17/2017 11:25 EST0.81P  3.95P  14.3P  7.8P  581P  9.5P  0.7P  
10/17/2017 11:30 EST0.81P  3.95P  14.3P  7.8P  581P  9.5P  0.6P  
10/17/2017 11:35 EST0.81P  3.95P  14.3P  7.8P  581P  9.5P  0.6P  
10/17/2017 11:40 EST0.81P  3.95P  14.4P  7.8P  582P  9.5P  0.6P  
10/17/2017 11:45 EST0.81P  3.95P  14.4P  7.8P  582P  9.5P  0.6P  
10/17/2017 11:50 EST0.81P  3.95P  14.4P  7.8P  582P  9.5P  0.6P  
10/17/2017 11:55 EST0.81P  3.95P  14.4P  7.8P  582P  9.6P  0.6P  
10/17/2017 12:00 EST0.81P  3.95P  14.4P  7.8P  582P  9.5P  0.6P  
10/17/2017 12:05 EST0.81P  3.95P  14.4P  7.8P  583P  9.5P  0.6P  
10/17/2017 12:10 EST0.81P  3.95P  14.4P  7.8P  583P  9.6P  0.6P  
10/17/2017 12:15 EST0.81P  3.95P  14.5P  7.8P  583P  9.5P  0.6P  
10/17/2017 12:20 EST0.81P  3.95P  14.5P  7.8P  583P  9.5P  0.6P  
10/17/2017 12:25 EST0.81P  3.95P  14.5P  7.8P  583P  9.5P  0.6P  
10/17/2017 12:30 EST0.81P  3.95P  14.5P  7.8P  583P  9.5P  0.6P  
10/17/2017 12:35 EST0.81P  3.95P  14.5P  7.8P  583P  9.5P  0.6P  
10/17/2017 12:40 EST0.81P  3.95P  14.5P  7.8P  583P  9.5P  0.8P  
10/17/2017 12:45 EST0.81P  3.95P  14.5P  7.8P  583P  9.6P  0.6P  
10/17/2017 12:50 EST0.81P  3.95P  14.5P  7.8P  583P  9.6P  0.6P  
10/17/2017 12:55 EST0.81P  3.95P  14.5P  7.8P  583P  9.6P  0.6P  
10/17/2017 13:00 EST0.81P  3.95P  14.5P  7.8P  584P  9.6P  0.6P  
10/17/2017 13:05 EST0.81P  3.95P  14.5P  7.8P  584P  9.6P  0.6P  
10/17/2017 13:10 EST0.81P  3.95P  14.6P  7.8P  584P  9.6P  0.6P  
10/17/2017 13:15 EST0.81P  3.95P  14.6P  7.8P  584P  9.6P  0.7P  
10/17/2017 13:20 EST0.81P  3.95P  14.6P  7.8P  584P  9.6P  0.6P  
10/17/2017 13:25 EST0.81P  3.95P  14.6P  7.8P  584P  9.6P  0.6P  
10/17/2017 13:30 EST0.81P  3.95P  14.6P  7.8P  584P  9.6P  0.6P  
10/17/2017 13:35 EST0.81P  3.95P  14.6P  7.8P  585P  9.6P  0.6P  
10/17/2017 13:40 EST0.81P  3.95P  14.6P  7.8P  585P  9.6P  0.6P  
10/17/2017 13:45 EST0.81P  3.95P  14.6P  7.8P  585P  9.6P  0.6P  
10/17/2017 13:50 EST0.81P  3.95P  14.6P  7.8P  585P  9.6P  0.6P  
10/17/2017 13:55 EST0.81P  3.95P  14.6P  7.8P  585P  9.6P  0.6P  
10/17/2017 14:00 EST0.82P  4.16P  14.6P  7.8P  586P  9.6P  0.6P  
10/17/2017 14:05 EST0.82P  4.16P  14.6P  7.8P  586P  9.6P  0.6P  
10/17/2017 14:10 EST0.82P  4.16P  14.6P  7.8P  586P  9.6P  0.6P  
10/17/2017 14:15 EST0.82P  4.16P  14.5P  7.8P  587P  9.6P  0.7P  
10/17/2017 14:20 EST0.82P  4.16P  14.5P  7.8P  587P  9.6P  0.7P  
10/17/2017 14:25 EST0.82P  4.16P  14.5P  7.8P  588P  9.6P  0.8P  
10/17/2017 14:30 EST0.82P  4.16P  14.5P  7.8P  588P  9.6P  0.7P  
10/17/2017 14:35 EST0.82P  4.16P  14.5P  7.8P  588P  9.6P  0.7P  
10/17/2017 14:40 EST0.82P  4.16P  14.5P  7.8P  589P  9.6P  0.6P  
10/17/2017 14:45 EST0.82P  4.16P  14.5P  7.8P  589P  9.6P  0.6P  
10/17/2017 14:50 EST0.82P  4.16P  14.5P  7.8P  589P  9.6P  0.7P  
10/17/2017 14:55 EST0.82P  4.16P  14.5P  7.8P  590P  9.6P  0.6P  
10/17/2017 15:00 EST0.82P  4.16P  14.5P  7.8P  590P  9.6P  0.7P  
10/17/2017 15:05 EST0.81P  3.95P  14.5P  7.8P  591P  9.6P  0.7P  
10/17/2017 15:10 EST0.81P  3.95P  14.5P  7.8P  591P  9.5P  0.7P  
10/17/2017 15:15 EST0.81P  3.95P  14.5P  7.8P  591P  9.5P  0.8P  
10/17/2017 15:20 EST0.81P  3.95P  14.5P  7.8P  591P  9.5P  0.7P  
10/17/2017 15:25 EST0.81P  3.95P  14.5P  7.8P  592P  9.5P  0.7P  
10/17/2017 15:30 EST0.81P  3.95P  14.5P  7.8P  592P  9.5P  0.7P  
10/17/2017 15:35 EST0.80P  3.74P  14.5P  7.8P  592P  9.5P  0.7P  
10/17/2017 15:40 EST0.80P  3.74P  14.5P  7.8P  592P  9.5P  0.7P  
10/17/2017 15:45 EST0.80P  3.74P  14.5P  7.8P  593P  9.5P  0.7P  
10/17/2017 15:50 EST0.80P  3.74P  14.5P  7.8P  593P  9.5P  0.7P  
10/17/2017 15:55 EST0.80P  3.74P  14.6P  7.8P  593P  9.5P  0.7P  
10/17/2017 16:00 EST0.80P  3.74P  14.6P  7.8P  594P  9.4P  0.7P  
10/17/2017 16:05 EST0.80P  3.74P  14.6P  7.8P  594P  9.5P  0.7P  
10/17/2017 16:10 EST0.80P  3.74P  14.5P  7.8P  594P  9.4P  0.7P  
10/17/2017 16:15 EST0.80P  3.74P  14.5P  7.8P  594P  9.4P  0.7P  
10/17/2017 16:20 EST0.80P  3.74P  14.5P  7.8P  594P  9.4P  0.7P  
10/17/2017 16:25 EST0.80P  3.74P  14.5P  7.8P  595P  9.4P  0.7P  
10/17/2017 16:30 EST0.80P  3.74P  14.5P  7.8P  595P  9.4P  0.7P  
10/17/2017 16:35 EST0.80P  3.74P  14.5P  7.8P  595P  9.4P  0.7P  
10/17/2017 16:40 EST0.80P  3.74P  14.5P  7.8P  595P  9.4P  0.7P  
10/17/2017 16:45 EST0.80P  3.74P  14.5P  7.8P  595P  9.4P  0.7P  
10/17/2017 16:50 EST0.80P  3.74P  14.5P  7.8P  595P  9.4P  0.7P  
10/17/2017 16:55 EST0.80P  3.74P  14.5P  7.8P  595P  9.4P  0.8P  
10/17/2017 17:00 EST0.80P  3.74P  14.5P  7.8P  595P  9.4P  0.7P  
10/17/2017 17:05 EST0.80P  3.74P  14.5P  7.8P  595P  9.4P  0.7P  
10/17/2017 17:10 EST0.80P  3.74P  14.5P  7.8P  595P  9.4P  0.7P  
10/17/2017 17:15 EST0.81P  3.95P  14.5P  7.8P  596P  9.4P  0.7P  
10/17/2017 17:20 EST0.80P  3.74P  14.5P  7.8P  596P  9.4P  0.7P  
10/17/2017 17:25 EST0.80P  3.74P  14.5P  7.8P  596P  9.4P  1.7P  
10/17/2017 17:30 EST0.80P  3.74P  14.5P  7.8P  596P  9.4P  0.8P  
10/17/2017 17:35 EST0.80P  3.74P  14.5P  7.8P  596P  9.4P  0.7P  
10/17/2017 17:40 EST0.81P  3.95P  14.4P  7.8P  596P  9.3P  0.7P  
10/17/2017 17:45 EST0.80P  3.74P  14.4P  7.8P  596P  9.3P  0.7P  
10/17/2017 17:50 EST0.80P  3.74P  14.4P  7.8P  597P  9.4P  0.7P  
10/17/2017 17:55 EST0.80P  3.74P  14.4P  7.8P  597P  9.4P  0.7P  
10/17/2017 18:00 EST0.80P  3.74P  14.4P  7.8P  597P  9.3P  0.7P  
10/17/2017 18:05 EST0.80P  3.74P  14.4P  7.8P  597P  9.3P  0.7P  
10/17/2017 18:10 EST0.80P  3.74P  14.4P  7.8P  597P  9.3P  0.7P  
10/17/2017 18:15 EST0.80P  3.74P  14.4P  7.8P  597P  9.3P  0.7P  
10/17/2017 18:20 EST0.80P  3.74P  14.4P  7.8P  597P  9.3P  0.8P  
10/17/2017 18:25 EST0.80P  3.74P  14.4P  7.8P  597P  9.3P  0.8P  
10/17/2017 18:30 EST0.80P  3.74P  14.3P  7.8P  598P  9.3P  0.7P  
10/17/2017 18:35 EST0.80P  3.74P  14.3P  7.8P  598P  9.3P  0.7P  
10/17/2017 18:40 EST0.80P  3.74P  14.3P  7.8P  598P  9.3P  0.7P  
10/17/2017 18:45 EST0.80P  3.74P  14.3P  7.8P  598P  9.3P  0.8P  
10/17/2017 18:50 EST0.80P  3.74P  14.3P  7.8P  598P  9.3P  0.8P  
10/17/2017 18:55 EST0.80P  3.74P  14.3P  7.8P  598P  9.3P  0.8P  
10/17/2017 19:00 EST0.80P  3.74P  14.3P  7.8P  598P  9.3P  0.7P  
10/17/2017 19:05 EST0.80P  3.74P  14.2P  7.8P  599P  9.3P  0.7P  
10/17/2017 19:10 EST0.80P  3.74P  14.2P  7.8P  599P  9.3P  0.7P  
10/17/2017 19:15 EST0.79P  3.50P  14.2P  7.8P  599P  9.3P  0.8P  
10/17/2017 19:20 EST0.80P  3.74P  14.2P  7.8P  599P  9.3P  0.8P  
10/17/2017 19:25 EST0.80P  3.74P  14.2P  7.8P  599P  9.3P  0.7P  
10/17/2017 19:30 EST0.80P  3.74P  14.2P  7.8P  599P  9.3P  0.8P  
10/17/2017 19:35 EST0.80P  3.74P  14.2P  7.8P  599P  9.3P  0.8P  
10/17/2017 19:40 EST0.80P  3.74P  14.2P  7.8P  600P  9.3P  0.8P  
10/17/2017 19:45 EST0.80P  3.74P  14.2P  7.8P  600P  9.3P  0.8P  
10/17/2017 19:50 EST0.80P  3.74P  14.1P  7.8P  600P  9.3P  0.7P  
10/17/2017 19:55 EST0.80P  3.74P  14.1P  7.7P  600P  9.3P  0.7P  
10/17/2017 20:00 EST0.80P  3.74P  14.1P  7.8P  600P  9.3P  0.8P  
10/17/2017 20:05 EST0.80P  3.74P  14.1P  7.8P  601P  9.3P  0.8P  
10/17/2017 20:10 EST0.80P  3.74P  14.1P  7.8P  601P  9.3P  0.8P  
10/17/2017 20:15 EST0.80P  3.74P  14.1P  7.8P  601P  9.3P  0.8P  
10/17/2017 20:20 EST0.80P  3.74P  14.1P  7.8P  601P  9.3P  0.8P  
10/17/2017 20:25 EST0.80P  3.74P  14.1P  7.7P  601P  9.3P  0.8P  
10/17/2017 20:30 EST0.80P  3.74P  14.1P  7.8P  601P  9.2P  0.8P  
10/17/2017 20:35 EST0.80P  3.74P  14.0P  7.7P  601P  9.3P  0.7P  
10/17/2017 20:40 EST0.80P  3.74P  14.0P  7.7P  601P  9.3P  0.7P  
10/17/2017 20:45 EST0.80P  3.74P  14.0P  7.8P  601P  9.3P  0.8P  
10/17/2017 20:50 EST0.80P  3.74P  14.0P  7.8P  601P  9.3P  0.8P  
10/17/2017 20:55 EST0.80P  3.74P  14.0P  7.8P  601P  9.3P  0.8P  
10/17/2017 21:00 EST0.80P  3.74P  14.0P  7.8P  601P  9.3P  0.8P  
10/17/2017 21:05 EST0.80P  3.74P  14.0P  7.8P  600P  9.3P  0.7P  
10/17/2017 21:10 EST0.81P  3.95P  14.0P  7.8P  600P  9.3P  0.7P  
10/17/2017 21:15 EST0.80P  3.74P  14.0P  7.8P  600P  9.3P  0.8P  
10/17/2017 21:20 EST0.80P  3.74P  14.0P  7.8P  600P  9.3P  0.8P  
10/17/2017 21:25 EST0.80P  3.74P  13.9P  7.8P  600P  9.3P  0.8P  
10/17/2017 21:30 EST0.80P  3.74P  13.9P  7.8P  600P  9.2P  0.7P  
10/17/2017 21:35 EST0.80P  3.74P  13.9P  7.8P  599P  9.2P  0.7P  
10/17/2017 21:40 EST0.80P  3.74P  13.9P  7.8P  599P  9.2P  0.7P  
10/17/2017 21:45 EST0.80P  3.74P  13.9P  7.8P  599P  9.3P  0.8P  
10/17/2017 21:50 EST0.80P  3.74P  13.9P  7.8P  598P  9.3P  0.7P  
10/17/2017 21:55 EST0.80P  3.74P  13.9P  7.8P  598P  9.3P  0.7P  
10/17/2017 22:00 EST0.80P  3.74P  13.9P  7.8P  598P  9.3P  0.8P  
10/17/2017 22:05 EST0.80P  3.74P  13.9P  7.8P  598P  9.3P  0.8P  
10/17/2017 22:10 EST0.80P  3.74P  13.8P  7.8P  597P  9.3P  0.8P  
10/17/2017 22:15 EST0.80P  3.74P  13.8P  7.8P  597P  9.3P  0.7P  
10/17/2017 22:20 EST0.80P  3.74P  13.8P  7.8P  597P  9.3P  0.8P  
10/17/2017 22:25 EST0.80P  3.74P  13.8P  7.8P  596P  9.3P  0.8P  
10/17/2017 22:30 EST0.81P  3.95P  13.8P  7.8P  596P  9.3P  0.8P  
10/17/2017 22:35 EST0.81P  3.95P  13.8P  7.7P  596P  9.3P  0.7P  
10/17/2017 22:40 EST0.82P  4.16P  13.8P  7.7P  596P  9.3P  0.7P  
10/17/2017 22:45 EST0.81P  3.95P  13.8P  7.8P  595P  9.3P  0.8P  
10/17/2017 22:50 EST0.81P  3.95P  13.8P  7.8P  595P  9.3P  0.7P  
10/17/2017 22:55 EST0.81P  3.95P  13.7P  7.8P  595P  9.4P  0.7P  
10/17/2017 23:00 EST0.81P  3.95P  13.7P  7.8P  594P  9.4P  0.8P  
10/17/2017 23:05 EST0.81P  3.95P  13.7P  7.8P  594P  9.4P  0.7P  
10/17/2017 23:10 EST0.81P  3.95P  13.7P  7.8P  594P  9.4P  0.7P  
10/17/2017 23:15 EST0.81P  3.95P  13.7P  7.8P  593P  9.4P  0.7P  
10/17/2017 23:20 EST0.81P  3.95P  13.7P  7.8P  593P  9.4P  0.7P  
10/17/2017 23:25 EST0.81P  3.95P  13.7P  7.8P  593P  9.4P  0.7P  
10/17/2017 23:30 EST0.81P  3.95P  13.6P  7.8P  593P  9.4P  0.7P  
10/17/2017 23:35 EST0.82P  4.16P  13.6P  7.8P  593P  9.4P  0.7P  
10/17/2017 23:40 EST0.81P  3.95P  13.6P  7.8P  593P  9.4P  0.7P  
10/17/2017 23:45 EST0.81P  3.95P  13.6P  7.8P  592P  9.4P  0.8P  
10/17/2017 23:50 EST0.82P  4.16P  13.6P  7.8P  592P  9.4P  0.7P  
10/17/2017 23:55 EST0.81P  3.95P  13.6P  7.8P  592P  9.4P  0.7P  
10/18/2017 00:00 EST0.81P  3.95P  13.6P  7.8P  592P  9.4P  0.7P  
10/18/2017 00:05 EST0.82P  4.16P  13.6P  7.8P  592P  9.4P  0.8P  
10/18/2017 00:10 EST0.81P  3.95P  13.6P  7.8P  592P  9.4P  0.7P  
10/18/2017 00:15 EST0.81P  3.95P  13.5P  7.8P  591P  9.4P  0.7P  
10/18/2017 00:20 EST0.81P  3.95P  13.5P  7.8P  591P  9.4P  0.7P  
10/18/2017 00:25 EST0.81P  3.95P  13.5P  7.8P  591P  9.4P  0.7P  
10/18/2017 00:30 EST0.81P  3.95P  13.5P  7.8P  591P  9.4P  0.7P  
10/18/2017 00:35 EST0.81P  3.95P  13.5P  7.8P  591P  9.4P  0.8P  
10/18/2017 00:40 EST0.81P  3.95P  13.5P  7.8P  591P  9.4P  0.8P  
10/18/2017 00:45 EST0.81P  3.95P  13.5P  7.8P  591P  9.4P  0.8P  
10/18/2017 00:50 EST0.80P  3.74P  13.5P  7.8P  591P  9.5P  0.8P  
10/18/2017 00:55 EST0.80P  3.74P  13.4P  7.8P  591P  9.5P  0.8P  
10/18/2017 01:00 EST0.80P  3.74P  13.4P  7.8P  591P  9.4P  0.8P  
10/18/2017 01:05 EST0.80P  3.74P  13.4P  7.8P  591P  9.4P  0.7P  
10/18/2017 01:10 EST0.81P  3.95P  13.4P  7.8P  591P  9.5P  0.8P  
10/18/2017 01:15 EST0.80P  3.74P  13.4P  7.8P  591P  9.4P  0.8P  
10/18/2017 01:20 EST0.81P  3.95P  13.4P  7.8P  591P  9.5P  0.8P  
10/18/2017 01:25 EST0.80P  3.74P  13.4P  7.8P  591P  9.5P  0.8P  
10/18/2017 01:30 EST0.80P  3.74P  13.4P  7.8P  591P  9.5P  0.8P  
10/18/2017 01:35 EST0.81P  3.95P  13.4P  7.8P  591P  9.5P  0.7P  
10/18/2017 01:40 EST0.80P  3.74P  13.3P  7.8P  591P  9.5P  0.8P  
10/18/2017 01:45 EST0.80P  3.74P  13.3P  7.8P  591P  9.5P  0.8P  
10/18/2017 01:50 EST0.80P  3.74P  13.3P  7.8P  591P  9.5P  0.8P  
10/18/2017 01:55 EST0.80P  3.74P  13.3P  7.8P  591P  9.5P  0.8P  
10/18/2017 02:00 EST0.80P  3.74P  13.3P  7.8P  591P  9.4P  0.8P  
10/18/2017 02:05 EST0.80P  3.74P  13.3P  7.8P  591P  9.4P  0.8P  
10/18/2017 02:10 EST0.80P  3.74P  13.3P  7.8P  591P  9.5P  0.7P  
10/18/2017 02:15 EST0.80P  3.74P  13.2P  7.8P  591P  9.5P  0.7P  
10/18/2017 02:20 EST0.80P  3.74P  13.2P  7.7P  591P  9.5P  0.8P  
10/18/2017 02:25 EST0.80P  3.74P  13.2P  7.8P  591P  9.5P  0.8P  
10/18/2017 02:30 EST0.79P  3.50P  13.2P  7.7P  591P  9.5P  0.8P  
10/18/2017 02:35 EST0.79P  3.50P  13.2P  7.8P  591P  9.5P  0.8P  
10/18/2017 02:40 EST0.79P  3.50P  13.2P  7.8P  591P  9.5P  0.8P  
10/18/2017 02:45 EST0.80P  3.74P  13.2P  7.8P  591P  9.5P  0.8P  
10/18/2017 02:50 EST0.79P  3.50P  13.2P  7.8P  590P  9.5P  0.7P  
10/18/2017 02:55 EST0.79P  3.50P  13.2P  7.8P  590P  9.5P  0.8P  
10/18/2017 03:00 EST0.79P  3.50P  13.1P  7.8P  590P  9.5P  0.8P  
10/18/2017 03:05 EST0.80P  3.74P  13.1P  7.8P  590P  9.5P  0.8P  
10/18/2017 03:10 EST0.80P  3.74P  13.1P  7.8P  590P  9.5P  0.8P  
10/18/2017 03:15 EST0.79P  3.50P  13.1P  7.8P  590P  9.5P  0.7P  
10/18/2017 03:20 EST0.79P  3.50P  13.1P  7.7P  590P  9.5P  0.8P  
10/18/2017 03:25 EST0.79P  3.50P  13.1P  7.8P  590P  9.5P  0.8P  
10/18/2017 03:30 EST0.79P  3.50P  13.1P  7.8P  590P  9.5P  0.8P  
10/18/2017 03:35 EST0.79P  3.50P  13.1P  7.8P  590P  9.6P  0.8P  
10/18/2017 03:40 EST0.80P  3.74P  13.0P  7.8P  590P  9.5P  0.7P  
10/18/2017 03:45 EST0.79P  3.50P  13.0P  7.8P  590P  9.5P  0.8P  
10/18/2017 03:50 EST0.79P  3.50P  13.0P  7.8P  590P  9.5P  0.8P  
10/18/2017 03:55 EST0.79P  3.50P  13.0P  7.8P  590P  9.5P  0.8P  
10/18/2017 04:00 EST0.79P  3.50P  13.0P  7.8P  590P  9.5P  0.9P  
10/18/2017 04:05 EST0.79P  3.50P  13.0P  7.8P  590P  9.5P  0.9P  
10/18/2017 04:10 EST0.79P  3.50P  13.0P  7.7P  590P  9.5P  0.7P  
10/18/2017 04:15 EST0.79P  3.50P  13.0P  7.7P  590P  9.6P  0.8P  
10/18/2017 04:20 EST0.79P  3.50P  13.0P  7.8P  589P  9.6P  0.8P  
10/18/2017 04:25 EST0.79P  3.50P  13.0P  7.8P  589P  9.5P  0.8P  
10/18/2017 04:30 EST0.79P  3.50P  12.9P  7.8P  589P  9.6P  0.8P  
10/18/2017 04:35 EST0.79P  3.50P  12.9P  7.8P  589P  9.5P  0.8P  
10/18/2017 04:40 EST0.79P  3.50P  12.9P  7.8P  589P  9.6P  0.8P  
10/18/2017 04:45 EST0.79P  3.50P  12.9P  7.8P  589P  9.6P  0.8P  
10/18/2017 04:50 EST0.79P  3.50P  12.9P  7.8P  589P  9.6P  0.8P  
10/18/2017 04:55 EST0.79P  3.50P  12.9P  7.8P  589P  9.6P  0.8P  
10/18/2017 05:00 EST0.81P  3.95P  12.9P  7.8P  589P  9.6P  0.9P  
10/18/2017 05:05 EST0.79P  3.50P  12.9P  7.8P  589P  9.6P  0.8P  
10/18/2017 05:10 EST0.79P  3.50P  12.9P  7.8P  589P  9.6P  0.8P  
10/18/2017 05:15 EST0.79P  3.50P  12.8P  7.8P  589P  9.6P  0.9P  
10/18/2017 05:20 EST0.79P  3.50P  12.8P  7.8P  589P  9.5P  0.9P  
10/18/2017 05:25 EST0.79P  3.50P  12.8P  7.8P  589P  9.6P  0.8P  
10/18/2017 05:30 EST0.79P  3.50P  12.8P  7.8P  589P  9.6P  0.8P  
10/18/2017 05:35 EST0.79P  3.50P  12.8P  7.8P  588P  9.6P  0.9P  
10/18/2017 05:40 EST0.79P  3.50P  12.8P  7.8P  588P  9.6P  0.9P  
10/18/2017 05:45 EST0.79P  3.50P  12.8P  7.8P  588P  9.6P  0.9P  
10/18/2017 05:50 EST0.79P  3.50P  12.8P  7.8P  588P  9.6P  0.9P  
10/18/2017 05:55 EST0.79P  3.50P  12.8P  7.8P  587P  9.6P  0.9P  
10/18/2017 06:00 EST0.79P  3.50P  12.7P  7.8P  587P  9.6P  0.9P  
10/18/2017 06:05 EST0.79P  3.50P  12.7P  7.8P  587P  9.6P  0.9P  
10/18/2017 06:10 EST0.79P  3.50P  12.7P  7.7P  586P  9.6P  1.0P  
10/18/2017 06:15 EST0.79P  3.50P  12.7P  7.8P  586P  9.6P  1.0P  
10/18/2017 06:20 EST0.79P  3.50P  12.7P  7.8P  586P  9.6P  1.0P  
10/18/2017 06:25 EST0.79P  3.50P  12.7P  7.8P  586P  9.7P  1.0P  
10/18/2017 06:30 EST0.79P  3.50P  12.7P  7.8P  585P  9.6P  1.0P  
10/18/2017 06:35 EST0.79P  3.50P  12.7P  7.8P  585P  9.6P  1.0P  
10/18/2017 06:40 EST0.79P  3.50P  12.6P  7.7P  585P  9.6P  1.0P  
10/18/2017 06:45 EST0.79P  3.50P  12.6P  7.8P  585P  9.6P  0.9P  
10/18/2017 06:50 EST0.79P  3.50P  12.6P  7.8P  584P  9.6P  0.9P  
10/18/2017 06:55 EST0.79P  3.50P  12.6P  7.8P  584P  9.6P  0.9P  
10/18/2017 07:00 EST0.80P  3.74P  12.6P  7.8P  584P  9.7P  1.0P  
10/18/2017 07:05 EST0.79P  3.50P  12.6P  7.8P  584P  9.7P  0.9P  
10/18/2017 07:10 EST0.79P  3.50P  12.6P  7.8P  584P  9.7P  0.8P  
10/18/2017 07:15 EST0.79P  3.50P  12.6P  7.8P  584P  9.7P  0.9P  
10/18/2017 07:20 EST0.79P  3.50P  12.6P  7.7P  583P  9.7P  0.9P  
10/18/2017 07:25 EST0.79P  3.50P  12.6P  7.8P  583P  9.7P  0.9P  
10/18/2017 07:30 EST0.80P  3.74P  12.6P  7.8P  583P  9.7P  0.9P  
10/18/2017 07:35 EST0.79P  3.50P  12.6P  7.7P  583P  9.8P  0.9P  
10/18/2017 07:40 EST0.79P  3.50P  12.6P  7.8P  583P  9.8P  0.8P  
10/18/2017 07:45 EST0.81P  3.95P  12.6P  7.8P  583P  9.8P  0.8P  
10/18/2017 07:50 EST0.79P  3.50P  12.6P  7.8P  583P  9.8P  0.9P  
10/18/2017 07:55 EST0.79P  3.50P  12.6P  7.8P  583P  9.8P  0.8P  
10/18/2017 08:00 EST0.79P  3.50P  12.5P  7.8P  583P  9.8P  0.9P  
10/18/2017 08:05 EST0.79P  3.50P  12.5P  7.8P  582P  9.8P  0.8P  
10/18/2017 08:10 EST0.79P  3.50P  12.5P  7.8P  582P  9.8P  0.8P  
10/18/2017 08:15 EST0.79P  3.50P  12.6P  7.8P  582P  9.8P  0.8P  
10/18/2017 08:20 EST0.79P  3.50P  12.5P  7.8P  582P  9.8P  0.8P  
10/18/2017 08:25 EST0.79P  3.50P  12.6P  7.8P  582P  9.8P  0.8P  
10/18/2017 08:30 EST0.79P  3.50P  12.6P  7.8P  582P  9.8P  0.8P  
10/18/2017 08:35 EST0.79P  3.50P  12.6P  7.8P  582P  9.8P  0.7P  
10/18/2017 08:40 EST0.79P  3.50P  12.6P  7.8P  582P  9.8P  0.8P  
10/18/2017 08:45 EST0.79P  3.50P  12.6P  7.8P  582P  9.8P  0.8P  
10/18/2017 08:50 EST0.79P  3.50P  12.6P  7.8P  582P  9.8P  0.9P  
10/18/2017 08:55 EST0.79P  3.50P  12.6P  7.7P  582P  9.8P  0.8P  
10/18/2017 09:00 EST0.79P  3.50P  12.6P  7.8P  582P  9.8P  0.8P  
10/18/2017 09:05 EST0.79P  3.50P  12.6P  7.8P  582P  9.8P  0.7P  
10/18/2017 09:10 EST0.79P  3.50P  12.6P  7.8P  582P  9.8P  0.8P  
10/18/2017 09:15 EST0.79P  3.50P  12.6P  7.8P  581P  9.9P  0.8P  
10/18/2017 09:20 EST0.79P  3.50P  12.7P  7.7P  581P  9.8P  0.8P  
10/18/2017 09:25 EST0.79P  3.50P  12.7P  7.8P  581P  9.9P  0.8P  
10/18/2017 09:30 EST0.79P  3.50P  12.7P  7.8P  581P  9.9P  0.8P  
10/18/2017 09:35 EST0.79P  3.50P  12.7P  7.8P  581P  9.9P  0.8P  
10/18/2017 09:40 EST0.79P  3.50P  12.7P  7.8P  581P  9.9P  0.7P  
10/18/2017 09:45 EST0.79P  3.50P  12.8P  7.8P  581P  9.9P  0.8P  
10/18/2017 09:50 EST0.79P  3.50P  12.8P  7.8P  581P  9.9P  0.8P  
10/18/2017 09:55 EST0.79P  3.50P  12.8P  7.8P  581P  9.9P  0.7P  
10/18/2017 10:00 EST0.79P  3.50P  12.8P  7.8P  580P  9.9P  0.7P  
10/18/2017 10:05 EST0.79P  3.50P  12.9P  7.8P  580P  9.9P  0.8P  
10/18/2017 10:10 EST0.79P  3.50P  12.9P  7.8P  580P  9.9P  0.8P  
10/18/2017 10:15 EST0.79P  3.50P  12.9P  7.8P  580P  9.9P  0.8P  
10/18/2017 10:20 EST0.79P  3.50P  13.0P  7.8P  580P  9.9P  0.8P  
10/18/2017 10:25 EST0.79P  3.50P  13.0P  7.8P  580P  9.9P  0.8P  
10/18/2017 10:30 EST0.79P  3.50P  13.0P  7.8P  580P  9.9P  0.8P  
10/18/2017 10:35 EST0.79P  3.50P  13.0P  7.8P  580P  9.9P  0.8P  
10/18/2017 10:40 EST0.79P  3.50P  13.1P  7.8P  580P  10.0P  0.7P  
10/18/2017 10:45 EST0.79P  3.50P  13.1P  7.8P  580P  9.9P  0.7P  
10/18/2017 10:50 EST0.79P  3.50P  13.1P  7.8P  580P  9.9P  0.8P  
10/18/2017 10:55 EST0.79P  3.50P  13.2P  7.8P  580P  9.9P  0.7P  
10/18/2017 11:00 EST0.79P  3.50P  13.2P  7.8P  580P  9.9P  0.7P  
10/18/2017 11:05 EST0.79P  3.50P  13.2P  7.8P  580P  9.9P  0.7P  
10/18/2017 11:10 EST0.79P  3.50P  13.2P  7.8P  580P  9.9P  0.7P  
10/18/2017 11:15 EST0.79P  3.50P  13.3P  7.8P  580P  9.9P  0.7P  
10/18/2017 11:20 EST0.79P  3.50P  13.3P  7.8P  580P  9.9P  0.7P  
10/18/2017 11:25 EST0.79P  3.50P  13.4P  7.8P  580P  9.9P  0.7P  
10/18/2017 11:30 EST0.79P  3.50P  13.4P  7.8P  580P  9.9P  0.7P  
10/18/2017 11:35 EST0.79P  3.50P  13.4P  7.8P  580P  9.9P  0.7P  
10/18/2017 11:40 EST0.79P  3.50P  13.5P  7.8P  580P  9.9P  0.7P  
10/18/2017 11:45 EST0.79P  3.50P  13.5P  7.8P  580P  9.9P  0.7P  
10/18/2017 11:50 EST0.79P  3.50P  13.5P  7.8P  580P  9.9P  0.8P  
10/18/2017 11:55 EST0.79P  3.50P  13.6P  7.8P  580P  9.9P  0.7P  
10/18/2017 12:00 EST0.79P  3.50P  13.6P  7.8P  580P  9.9P  0.7P  
10/18/2017 12:05 EST0.80P  3.74P  13.6P  7.8P  580P  9.9P  0.7P  
10/18/2017 12:10 EST0.80P  3.74P  13.7P  7.8P  580P  9.9P  0.7P  
10/18/2017 12:15 EST0.80P  3.74P  13.7P  7.8P  581P  9.9P  0.7P  
10/18/2017 12:20 EST0.80P  3.74P  13.7P  7.8P  581P  9.9P  0.8P  
10/18/2017 12:25 EST0.81P  3.95P  13.7P  7.8P  581P  9.9P  0.7P  
10/18/2017 12:30 EST0.81P  3.95P  13.7P  7.8P  581P  9.9P  0.7P  
10/18/2017 12:35 EST0.81P  3.95P  13.7P  7.8P  581P  9.9P  0.7P  
10/18/2017 12:40 EST0.81P  3.95P  13.8P  7.8P  581P  9.9P  0.7P  
10/18/2017 12:45 EST0.81P  3.95P  13.8P  7.8P  581P  9.9P  0.7P  
10/18/2017 12:50 EST0.81P  3.95P  13.8P  7.8P  581P  9.9P  0.7P  
10/18/2017 12:55 EST0.81P  3.95P  13.8P  7.8P  581P  9.9P  0.7P  
10/18/2017 13:00 EST0.81P  3.95P  13.8P  7.8P  581P  9.9P  0.7P  
10/18/2017 13:05 EST0.81P  3.95P  13.9P  7.8P  581P  9.9P  0.7P  
10/18/2017 13:10 EST0.81P  3.95P  13.9P  7.8P  581P  9.9P  0.7P  
10/18/2017 13:15 EST0.82P  4.16P  13.9P  7.8P  581P  9.9P  0.7P  
10/18/2017 13:20 EST0.82P  4.16P  13.9P  7.8P  581P  9.9P  0.8P  
10/18/2017 13:25 EST0.82P  4.16P  14.0P  7.8P  581P  9.9P  0.7P  
10/18/2017 13:30 EST0.82P  4.16P  14.0P  7.8P  581P  9.9P  0.9P  
10/18/2017 13:35 EST0.82P  4.16P  14.0P  7.8P  581P  9.9P  0.7P  
10/18/2017 13:40 EST0.82P  4.16P  14.0P  7.8P  581P  9.9P  0.7P  
10/18/2017 13:45 EST0.82P  4.16P  14.0P  7.8P  581P  9.9P  0.8P  
10/18/2017 13:50 EST0.82P  4.16P  14.0P  7.8P  582P  9.9P  0.7P  
10/18/2017 13:55 EST0.82P  4.16P  14.0P  7.8P  582P  9.9P  0.7P  
10/18/2017 14:00 EST0.82P  4.16P  14.0P  7.8P  582P  9.9P  0.8P  
10/18/2017 14:05 EST0.82P  4.16P  14.0P  7.8P  582P  9.9P  0.8P  
10/18/2017 14:10 EST0.82P  4.16P  14.0P  7.8P  582P  9.9P  0.8P  
10/18/2017 14:15 EST0.82P  4.16P  14.0P  7.8P  582P  9.9P  0.7P  
10/18/2017 14:20 EST0.82P  4.16P  14.0P  7.8P  582P  9.9P  0.8P  
10/18/2017 14:25 EST0.82P  4.16P  14.0P  7.8P  582P  9.9P  0.7P  
10/18/2017 14:30 EST0.82P  4.16P  14.0P  7.8P  582P  9.9P  0.7P  
10/18/2017 14:35 EST0.82P  4.16P  14.0P  7.8P  582P  9.9P  0.7P  
10/18/2017 14:40 EST0.82P  4.16P  14.0P  7.8P  583P  9.9P  0.8P  
10/18/2017 14:45 EST0.82P  4.16P  14.0P  7.8P  583P  9.9P  0.7P  
10/18/2017 14:50 EST0.81P  3.95P  14.0P  7.8P  583P  9.8P  0.8P  
10/18/2017 14:55 EST0.81P  3.95P  14.0P  7.8P  583P  9.8P  0.8P  
10/18/2017 15:00 EST0.81P  3.95P  14.0P  7.8P  583P  9.8P  0.8P  
10/18/2017 15:05 EST0.81P  3.95P  14.1P  7.8P  583P  9.8P  0.8P  
10/18/2017 15:10 EST0.81P  3.95P  14.1P  7.8P  583P  9.8P  0.7P  
10/18/2017 15:15 EST0.80P  3.74P  14.1P  7.8P  583P  9.8P  0.7P  
10/18/2017 15:20 EST0.80P  3.74P  14.1P  7.8P  583P  9.8P  0.7P  
10/18/2017 15:25 EST0.80P  3.74P  14.1P  7.8P  583P  9.8P  0.7P  
10/18/2017 15:30 EST0.80P  3.74P  14.1P  7.8P  584P  9.8P  0.7P  
10/18/2017 15:35 EST0.80P  3.74P  14.1P  7.8P  584P  9.8P  0.7P  
10/18/2017 15:40 EST0.80P  3.74P  14.1P  7.8P  584P  9.8P  0.7P  
10/18/2017 15:45 EST0.79P  3.50P  14.2P  7.8P  584P  9.8P  0.8P  
10/18/2017 15:50 EST0.79P  3.50P  14.2P  7.8P  584P  9.8P  0.8P  
10/18/2017 15:55 EST0.79P  3.50P  14.2P  7.8P  584P  9.7P  0.7P  
10/18/2017 16:00 EST0.79P  3.50P  14.2P  7.8P  584P  9.7P  0.8P  
10/18/2017 16:05 EST0.79P  3.50P  14.2P  7.8P  584P  9.7P  0.8P  
10/18/2017 16:10 EST0.79P  3.50P  14.2P  7.8P  584P  9.7P  0.8P  
10/18/2017 16:15 EST0.79P  3.50P  14.2P  7.8P  585P  9.7P  0.7P  
10/18/2017 16:20 EST0.79P  3.50P  14.2P  7.8P  585P  9.7P  0.7P  
10/18/2017 16:25 EST0.79P  3.50P  14.2P  7.8P  585P  9.7P  0.7P  
10/18/2017 16:30 EST0.79P  3.50P  14.2P  7.8P  585P  9.7P  0.7P  
10/18/2017 16:35 EST0.79P  3.50P  14.2P  7.8P  585P  9.7P  0.8P  
10/18/2017 16:40 EST0.79P  3.50P  14.2P  7.8P  585P  9.7P  0.7P  
10/18/2017 16:45 EST0.79P  3.50P  14.2P  7.8P  585P  9.6P  0.7P  
10/18/2017 16:50 EST0.79P  3.50P  14.2P  7.8P  586P  9.7P  0.7P  
10/18/2017 16:55 EST0.79P  3.50P  14.2P  7.8P  586P  9.6P  0.8P  
10/18/2017 17:00 EST0.79P  3.50P  14.2P  7.8P  586P  9.6P  0.7P  
10/18/2017 17:05 EST0.79P  3.50P  14.2P  7.8P  586P  9.6P  0.7P  
10/18/2017 17:10 EST0.79P  3.50P  14.2P  7.8P  586P  9.6P  0.8P  
10/18/2017 17:15 EST0.79P  3.50P  14.2P  7.8P  586P  9.6P  0.7P  
10/18/2017 17:20 EST0.79P  3.50P  14.2P  7.8P  586P  9.6P  0.7P  
10/18/2017 17:25 EST0.79P  3.50P  14.2P  7.8P  586P  9.6P  0.8P  
10/18/2017 17:30 EST0.79P  3.50P  14.2P  7.8P  586P  9.6P  0.9P  
10/18/2017 17:35 EST0.79P  3.50P  14.2P  7.8P  586P  9.6P  0.7P  
10/18/2017 17:40 EST0.79P  3.50P  14.2P  7.8P  586P  9.6P  0.8P  
10/18/2017 17:45 EST0.79P  3.50P  14.2P  7.8P  587P  9.6P  0.8P  
10/18/2017 17:50 EST0.79P  3.50P  14.2P  7.8P  587P  9.5P  0.7P  
10/18/2017 17:55 EST0.79P  3.50P  14.2P  7.8P  587P  9.6P  0.8P  
10/18/2017 18:00 EST0.79P  3.50P  14.2P  7.8P  587P  9.5P  0.7P  
10/18/2017 18:05 EST0.79P  3.50P  14.2P  7.8P  587P  9.5P  0.7P  
10/18/2017 18:10 EST0.79P  3.50P  14.2P  7.8P  587P  9.5P  0.8P  
10/18/2017 18:15 EST0.79P  3.50P  14.2P  7.8P  587P  9.5P  0.7P  
10/18/2017 18:20 EST0.79P  3.50P  14.2P  7.8P  588P  9.5P  0.7P  
10/18/2017 18:25 EST0.79P  3.50P  14.1P  7.8P  588P  9.5P  0.7P  
10/18/2017 18:30 EST0.79P  3.50P  14.1P  7.8P  588P  9.5P  0.7P  
10/18/2017 18:35 EST0.79P  3.50P  14.1P  7.8P  588P  9.5P  0.8P  
10/18/2017 18:40 EST0.79P  3.50P  14.1P  7.8P  588P  9.5P  0.7P  
10/18/2017 18:45 EST0.79P  3.50P  14.1P  7.8P  588P  9.5P  0.7P  
10/18/2017 18:50 EST0.79P  3.50P  14.1P  7.8P  588P  9.5P  0.8P  
10/18/2017 18:55 EST0.79P  3.50P  14.1P  7.8P  588P  9.5P  0.8P  
10/18/2017 19:00 EST0.79P  3.50P  14.1P  7.8P  588P  9.5P  0.8P  
10/18/2017 19:05 EST0.79P  3.50P  14.1P  7.8P  588P  9.5P  0.7P  
10/18/2017 19:10 EST0.79P  3.50P  14.1P  7.8P  588P  9.5P  0.8P  
10/18/2017 19:15 EST0.79P  3.50P  14.1P  7.8P  588P  9.5P  0.8P  
10/18/2017 19:20 EST0.79P  3.50P  14.1P  7.8P  589P  9.5P  0.7P  
10/18/2017 19:25 EST0.79P  3.50P  14.1P  7.8P  589P  9.5P  0.7P  
10/18/2017 19:30 EST0.79P  3.50P  14.1P  7.8P  589P  9.5P  0.7P  
10/18/2017 19:35 EST0.79P  3.50P  14.0P  7.8P  589P  9.5P  0.7P  
10/18/2017 19:40 EST0.79P  3.50P  14.0P  7.8P  589P  9.5P  0.7P  
10/18/2017 19:45 EST0.79P  3.50P  14.0P  7.8P  589P  9.5P  0.7P  
10/18/2017 19:50 EST0.79P  3.50P  14.0P  7.8P  589P  9.5P  0.7P  
10/18/2017 19:55 EST0.79P  3.50P  14.0P  7.8P  589P  9.5P  0.7P  
10/18/2017 20:00 EST0.79P  3.50P  14.0P  7.8P  589P  9.5P  0.8P  
10/18/2017 20:05 EST0.79P  3.50P  14.0P  7.8P  589P  9.5P  0.7P  
10/18/2017 20:10 EST0.79P  3.50P  14.0P  7.8P  589P  9.5P  0.7P  
10/18/2017 20:15 EST0.79P  3.50P  14.0P  7.8P  589P  9.5P  0.7P  
10/18/2017 20:20 EST0.79P  3.50P  14.0P  7.8P  589P  9.5P  0.7P  
10/18/2017 20:25 EST0.79P  3.50P  14.0P  7.8P  589P  9.5P  0.7P  
10/18/2017 20:30 EST0.79P  3.50P  14.0P  7.8P  589P  9.5P  0.8P  
10/18/2017 20:35 EST0.79P  3.50P  14.0P  7.8P  589P  9.5P  0.7P  
10/18/2017 20:40 EST0.79P  3.50P  14.0P  7.8P  589P  9.5P  0.8P  
10/18/2017 20:45 EST0.79P  3.50P  14.0P  7.8P  589P  9.4P  0.7P  
10/18/2017 20:50 EST0.79P  3.50P  14.0P  7.8P  589P  9.5P  0.7P  
10/18/2017 20:55 EST0.79P  3.50P  14.0P  7.8P  589P  9.5P  0.7P  
10/18/2017 21:00 EST0.79P  3.50P  14.0P  7.8P  589P  9.5P  0.7P  
10/18/2017 21:05 EST0.79P  3.50P  14.0P  7.7P  589P  9.5P  0.7P  
10/18/2017 21:10 EST0.79P  3.50P  14.0P  7.8P  589P  9.5P  0.7P  
10/18/2017 21:15 EST0.79P  3.50P  14.0P  7.8P  589P  9.5P  0.8P  
10/18/2017 21:20 EST0.79P  3.50P  13.9P  7.8P  589P  9.5P  0.8P  
10/18/2017 21:25 EST0.79P  3.50P  13.9P  7.8P  589P  9.5P  0.8P  
10/18/2017 21:30 EST0.79P  3.50P  13.9P  7.8P  589P  9.5P  0.7P  
10/18/2017 21:35 EST0.79P  3.50P  13.9P  7.8P  589P  9.4P  0.7P  
10/18/2017 21:40 EST0.79P  3.50P  13.9P  7.8P  589P  9.4P  0.8P  
10/18/2017 21:45 EST0.79P  3.50P  13.9P  7.7P  589P  9.4P  0.8P  
10/18/2017 21:50 EST0.79P  3.50P  13.9P  7.8P  589P  9.5P  0.8P  
10/18/2017 21:55 EST0.79P  3.50P  13.9P  7.7P  589P  9.5P  0.7P  
10/18/2017 22:00 EST0.79P  3.50P  13.9P  7.8P  589P  9.4P  0.8P  
10/18/2017 22:05 EST0.79P  3.50P  13.9P  7.7P  589P  9.5P  0.7P  
10/18/2017 22:10 EST0.79P  3.50P  13.9P  7.7P  589P  9.5P  0.8P  
10/18/2017 22:15 EST0.79P  3.50P  13.9P  7.8P  589P  9.5P  0.8P  
10/18/2017 22:20 EST0.79P  3.50P  13.9P  7.8P  589P  9.5P  0.7P  
10/18/2017 22:25 EST0.79P  3.50P  13.9P  7.8P  589P  9.5P  0.7P  
10/18/2017 22:30 EST0.79P  3.50P  13.9P  7.8P  589P  9.4P  0.9P  
10/18/2017 22:35 EST0.79P  3.50P  13.9P  7.8P  589P  9.5P  0.7P  
10/18/2017 22:40 EST0.80P  3.74P  13.9P  7.8P  589P  9.5P  0.8P  
10/18/2017 22:45 EST0.79P  3.50P  13.9P  7.8P  589P  9.4P  0.7P  
10/18/2017 22:50 EST0.79P  3.50P  13.9P  7.8P  589P  9.5P  0.7P  
10/18/2017 22:55 EST0.79P  3.50P  13.9P  7.8P  589P  9.5P  0.8P  
10/18/2017 23:00 EST0.79P  3.50P  13.9P  7.8P  589P  9.5P  0.8P  
10/18/2017 23:05 EST0.79P  3.50P  13.9P  7.8P  589P  9.5P  0.8P  
10/18/2017 23:10 EST0.79P  3.50P  13.9P  7.8P  589P  9.5P  0.7P  
10/18/2017 23:15 EST0.79P  3.50P  13.9P  7.8P  589P  9.5P  0.7P  
10/18/2017 23:20 EST0.79P  3.50P  13.9P  7.8P  589P  9.5P  0.8P  
10/18/2017 23:25 EST0.79P  3.50P  13.8P  7.8P  589P  9.5P  0.7P  
10/18/2017 23:30 EST0.79P  3.50P  13.8P  7.7P  589P  9.4P  0.7P  
10/18/2017 23:35 EST0.79P  3.50P  13.8P  7.8P  589P  9.5P  0.7P  
10/18/2017 23:40 EST0.79P  3.50P  13.8P  7.7P  589P  9.5P  0.7P  
10/18/2017 23:45 EST0.79P  3.50P  13.8P  7.8P  589P  9.5P  0.7P  
10/18/2017 23:50 EST0.79P  3.50P  13.8P  7.8P  589P  9.5P  0.7P  
10/18/2017 23:55 EST0.79P  3.50P  13.8P  7.8P  589P  9.5P  0.7P  
10/19/2017 00:00 EST0.79P  3.50P  13.8P  7.8P  589P  9.5P  0.8P  
10/19/2017 00:05 EST0.79P  3.50P  13.8P  7.8P  589P  9.5P  0.8P  
10/19/2017 00:10 EST0.79P  3.50P  13.8P  7.8P  589P  9.5P  0.8P  
10/19/2017 00:15 EST0.79P  3.50P  13.8P  7.8P  589P  9.4P  0.8P  
10/19/2017 00:20 EST0.79P  3.50P  13.8P  7.8P  589P  9.5P  0.7P  
10/19/2017 00:25 EST0.79P  3.50P  13.8P  7.8P  589P  9.5P  0.7P  
10/19/2017 00:30 EST0.79P  3.50P  13.8P  7.8P  589P  9.4P  0.7P  
10/19/2017 00:35 EST0.79P  3.50P  13.8P  7.8P  589P  9.5P  0.8P  
10/19/2017 00:40 EST0.79P  3.50P  13.8P  7.8P  589P  9.5P  0.8P  
10/19/2017 00:45 EST0.79P  3.50P  13.8P  7.8P  589P  9.4P  0.9P  
10/19/2017 00:50 EST0.79P  3.50P  13.8P  7.8P  589P  9.5P  0.8P  
10/19/2017 00:55 EST0.79P  3.50P  13.8P  7.8P  589P  9.5P  0.9P  
10/19/2017 01:00 EST0.79P  3.50P  13.8P  7.8P  589P  9.5P  0.9P  
10/19/2017 01:05 EST0.79P  3.50P  13.7P  7.8P  589P  9.5P  0.9P  
10/19/2017 01:10 EST0.79P  3.50P  13.7P  7.8P  589P  9.5P  0.9P  
10/19/2017 01:15 EST0.79P  3.50P  13.7P  7.8P  589P  9.5P  0.9P  
10/19/2017 01:20 EST0.79P  3.50P  13.7P  7.7P  589P  9.5P  0.9P  
10/19/2017 01:25 EST0.79P  3.50P  13.7P  7.8P  590P  9.5P  0.9P  
10/19/2017 01:30 EST0.79P  3.50P  13.7P  7.8P  590P  9.5P  0.8P  
10/19/2017 01:35 EST0.79P  3.50P  13.7P  7.8P  590P  9.5P  0.8P  
10/19/2017 01:40 EST0.79P  3.50P  13.7P  7.8P  590P  9.5P  0.8P  
10/19/2017 01:45 EST0.79P  3.50P  13.7P  7.8P  590P  9.5P  0.8P  
10/19/2017 01:50 EST0.79P  3.50P  13.7P  7.8P  590P  9.5P  0.9P  
10/19/2017 01:55 EST0.79P  3.50P  13.7P  7.8P  590P  9.5P  0.8P  
10/19/2017 02:00 EST0.79P  3.50P  13.7P  7.8P  590P  9.5P  0.8P  
10/19/2017 02:05 EST0.79P  3.50P  13.6P  7.8P  590P  9.5P  0.8P  
10/19/2017 02:10 EST0.79P  3.50P  13.6P  7.8P  591P  9.5P  0.8P  
10/19/2017 02:15 EST0.79P  3.50P  13.6P  7.8P  591P  9.5P  0.8P  
10/19/2017 02:20 EST0.79P  3.50P  13.6P  7.8P  591P  9.5P  0.8P  
10/19/2017 02:25 EST0.79P  3.50P  13.6P  7.8P  591P  9.5P  0.9P  
10/19/2017 02:30 EST0.79P  3.50P  13.6P  7.8P  591P  9.5P  0.8P  
10/19/2017 02:35 EST0.79P  3.50P  13.6P  7.8P  591P  9.5P  0.8P  
10/19/2017 02:40 EST0.79P  3.50P  13.6P  7.8P  592P  9.5P  0.9P  
10/19/2017 02:45 EST0.79P  3.50P  13.6P  7.8P  592P  9.5P  0.9P  
10/19/2017 02:50 EST0.79P  3.50P  13.6P  7.8P  592P  9.5P  0.8P  
10/19/2017 02:55 EST0.79P  3.50P  13.6P  7.8P  592P  9.5P  0.9P  
10/19/2017 03:00 EST0.79P  3.50P  13.6P  7.8P  592P  9.5P  0.9P  
10/19/2017 03:05 EST0.79P  3.50P  13.6P  7.8P  592P  9.5P  0.9P  
10/19/2017 03:10 EST0.79P  3.50P  13.5P  7.8P  593P  9.5P  0.8P  
10/19/2017 03:15 EST0.79P  3.50P  13.5P  7.8P  593P  9.5P  0.8P  
10/19/2017 03:20 EST0.79P  3.50P  13.5P  7.8P  593P  9.5P  0.9P  
10/19/2017 03:25 EST0.79P  3.50P  13.5P  7.8P  593P  9.5P  0.8P  
10/19/2017 03:30 EST0.79P  3.50P  13.5P  7.8P  593P  9.5P  0.7P  
10/19/2017 03:35 EST0.79P  3.50P  13.5P  7.8P  594P  9.5P  0.8P  
10/19/2017 03:40 EST0.79P  3.50P  13.5P  7.8P  594P  9.5P  1.0P  
10/19/2017 03:45 EST0.79P  3.50P  13.5P  7.8P  594P  9.5P  0.9P  
10/19/2017 03:50 EST0.79P  3.50P  13.5P  7.8P  594P  9.5P  1.0P  
10/19/2017 03:55 EST0.79P  3.50P  13.5P  7.8P  594P  9.5P  0.9P  
10/19/2017 04:00 EST0.79P  3.50P  13.5P  7.8P  595P  9.5P  0.9P  
10/19/2017 04:05 EST0.79P  3.50P  13.4P  7.8P  595P  9.5P  0.9P  
10/19/2017 04:10 EST0.79P  3.50P  13.4P  7.8P  595P  9.5P  0.9P  
10/19/2017 04:15 EST0.79P  3.50P  13.4P  7.8P  595P  9.5P  0.9P  
10/19/2017 04:20 EST0.79P  3.50P  13.4P  7.8P  595P  9.5P  1.0P  
10/19/2017 04:25 EST0.79P  3.50P  13.4P  7.8P  595P  9.5P  0.9P  
10/19/2017 04:30 EST0.79P  3.50P  13.4P  7.8P  595P  9.5P  0.8P  
10/19/2017 04:35 EST0.79P  3.50P  13.4P  7.8P  596P  9.5P  0.9P  
10/19/2017 04:40 EST0.79P  3.50P  13.4P  7.8P  596P  9.6P  0.8P  
10/19/2017 04:45 EST0.79P  3.50P  13.4P  7.8P  596P  9.6P  0.9P  
10/19/2017 04:50 EST0.79P  3.50P  13.4P  7.8P  596P  9.6P  0.9P  
10/19/2017 04:55 EST0.79P  3.50P  13.4P  7.8P  596P  9.6P  1.0P  
10/19/2017 05:00 EST0.79P  3.50P  13.4P  7.8P  597P  9.5P  0.8P  
10/19/2017 05:05 EST0.79P  3.50P  13.4P  7.8P  596P  9.5P  0.9P  
10/19/2017 05:10 EST0.79P  3.50P  13.4P  7.8P  597P  9.5P  0.8P  
10/19/2017 05:15 EST0.79P  3.50P  13.3P  7.8P  597P  9.5P  0.9P  
10/19/2017 05:20 EST0.79P  3.50P  13.3P  7.8P  597P  9.6P  0.9P  
10/19/2017 05:25 EST0.79P  3.50P  13.3P  7.8P  597P  9.6P  0.8P  
10/19/2017 05:30 EST0.79P  3.50P  13.3P  7.8P  597P  9.6P  1.0P  
10/19/2017 05:35 EST0.78P  3.27P  13.3P  7.8P  597P  9.6P  0.9P  
10/19/2017 05:40 EST0.79P  3.50P  13.3P  7.8P  597P  9.6P  0.8P  
10/19/2017 05:45 EST0.79P  3.50P  13.3P  7.8P  597P  9.6P  0.9P  
10/19/2017 05:50 EST0.79P  3.50P  13.3P  7.8P  598P  9.6P  1.0P  
10/19/2017 05:55 EST0.79P  3.50P  13.3P  7.8P  598P  9.6P  0.8P  
10/19/2017 06:00 EST0.79P  3.50P  13.3P  7.7P  598P  9.6P  0.9P  
10/19/2017 06:05 EST0.79P  3.50P  13.2P  7.8P  598P  9.6P  0.9P  
10/19/2017 06:10 EST0.79P  3.50P  13.2P  7.8P  598P  9.6P  1.1P  
10/19/2017 06:15 EST0.79P  3.50P  13.2P  7.8P  598P  9.6P  1.0P  
10/19/2017 06:20 EST0.79P  3.50P  13.2P  7.8P  598P  9.6P  0.9P  
10/19/2017 06:25 EST0.79P  3.50P  13.2P  7.8P  598P  9.6P  0.8P  
10/19/2017 06:30 EST0.79P  3.50P  13.2P  7.8P  598P  9.6P  0.9P  
10/19/2017 06:35 EST0.79P  3.50P  13.2P  7.8P  598P  9.6P  0.8P  
10/19/2017 06:40 EST0.79P  3.50P  13.2P  7.8P  598P  9.6P  1.0P  
10/19/2017 06:45 EST0.79P  3.50P  13.2P  7.8P  598P  9.6P  0.8P  
10/19/2017 06:50 EST0.79P  3.50P  13.2P  7.7P  598P  9.6P  0.9P  
10/19/2017 06:55 EST0.79P  3.50P  13.2P  7.8P  599P  9.6P  0.8P  
10/19/2017 07:00 EST0.79P  3.50P  13.2P  7.8P  599P  9.6P  0.9P  
10/19/2017 07:05 EST0.79P  3.50P  13.1P  7.8P  599P  9.6P  0.9P  
10/19/2017 07:10 EST0.79P  3.50P  13.1P  7.8P  599P  9.6P  0.8P  
10/19/2017 07:15 EST0.79P  3.50P  13.1P  7.8P  599P  9.6P  0.8P  
10/19/2017 07:20 EST0.79P  3.50P  13.1P  7.8P  599P  9.6P  0.9P  
10/19/2017 07:25 EST0.79P  3.50P  13.1P  7.8P  599P  9.6P  0.8P  
10/19/2017 07:30 EST0.79P  3.50P  13.1P  7.8P  599P  9.6P  0.9P  
10/19/2017 07:35 EST0.79P  3.50P  13.1P  7.8P  599P  9.6P  0.9P  
10/19/2017 07:40 EST0.79P  3.50P  13.1P  7.8P  599P  9.6P  0.9P  
10/19/2017 07:45 EST0.79P  3.50P  13.1P  7.8P  599P  9.6P  1.6P  
10/19/2017 07:50 EST0.79P  3.50P  13.1P  7.8P  600P  9.6P  1.0P  
10/19/2017 07:55 EST0.79P  3.50P  13.1P  7.7P  600P  9.6P  0.9P  
10/19/2017 08:00 EST0.79P  3.50P  13.1P  7.8P  600P  9.6P  1.1P  
10/19/2017 08:05 EST0.79P  3.50P  13.1P  7.8P  600P  9.7P  1.0P  
10/19/2017 08:10 EST0.79P  3.50P  13.1P  7.8P  600P  9.7P  0.9P  
10/19/2017 08:15 EST0.79P  3.50P  13.1P  7.8P  600P  9.7P  0.9P  
10/19/2017 08:20 EST0.79P  3.50P  13.1P  7.8P  600P  9.6P  0.9P  
10/19/2017 08:25 EST0.79P  3.50P  13.1P  7.8P  600P  9.7P  0.9P  
10/19/2017 08:30 EST0.79P  3.50P  13.1P  7.8P  600P  9.7P  0.9P  
10/19/2017 08:35 EST0.79P  3.50P  13.1P  7.8P  600P  9.7P  0.9P  
10/19/2017 08:40 EST0.79P  3.50P  13.1P  7.8P  600P  9.7P  1.0P  
10/19/2017 08:45 EST0.79P  3.50P  13.1P  7.7P  600P  9.7P  0.8P  
10/19/2017 08:50 EST0.79P  3.50P  13.1P  7.8P  600P  9.7P  0.8P  
10/19/2017 08:55 EST0.79P  3.50P  13.1P  7.8P  600P  9.7P  0.9P  
10/19/2017 09:00 EST0.79P  3.50P  13.1P  7.8P  600P  9.7P  0.8P  
10/19/2017 09:05 EST0.79P  3.50P  13.2P  7.8P  600P  9.7P  0.7P  
10/19/2017 09:10 EST0.79P  3.50P  13.2P  7.8P  600P  9.7P  0.8P  
10/19/2017 09:15 EST0.79P  3.50P  13.2P  7.8P  600P  9.7P  1.0P  
10/19/2017 09:20 EST0.79P  3.50P  13.2P  7.7P  600P  9.7P  0.8P  
10/19/2017 09:25 EST0.79P  3.50P  13.2P  7.8P  600P  9.7P  1.0P  
10/19/2017 09:30 EST0.79P  3.50P  13.2P  7.8P  600P  9.7P  1.2P  
10/19/2017 09:35 EST0.79P  3.50P  13.2P  7.8P  600P  9.7P  1.0P  
10/19/2017 09:40 EST0.79P  3.50P  13.3P  7.8P  600P  9.7P  0.9P  
10/19/2017 09:45 EST0.79P  3.50P  13.3P  7.8P  600P  9.8P  0.9P  
10/19/2017 09:50 EST0.79P  3.50P  13.3P  7.7P  600P  9.7P  1.0P  
10/19/2017 09:55 EST0.79P  3.50P  13.3P  7.8P  600P  9.8P  1.3P  
10/19/2017 10:00 EST0.79P  3.50P  13.4P  7.8P  600P  9.8P  1.0P  
10/19/2017 10:05 EST0.79P  3.50P  13.4P  7.8P  600P  9.8P  0.9P  
10/19/2017 10:10 EST0.79P  3.50P  13.4P  7.8P  600P  9.8P  1.0P  
10/19/2017 10:15 EST0.79P  3.50P  13.4P  7.8P  600P  9.8P  0.9P  
10/19/2017 10:20 EST0.79P  3.50P  13.5P  7.8P  601P  9.8P  1.0P  
10/19/2017 10:25 EST0.79P  3.50P  13.5P  7.8P  601P  9.8P  1.1P  
10/19/2017 10:30 EST0.79P  3.50P  13.5P  7.8P  601P  9.8P  0.9P  
10/19/2017 10:35 EST0.79P  3.50P  13.6P  7.8P  601P  9.8P  0.9P  
10/19/2017 10:40 EST0.79P  3.50P  13.6P  7.8P  601P  9.8P  1.0P  
10/19/2017 10:45 EST0.79P  3.50P  13.6P  7.8P  601P  9.8P  0.9P  
10/19/2017 10:50 EST0.79P  3.50P  13.6P  7.8P  601P  9.8P  0.9P  
10/19/2017 10:55 EST0.79P  3.50P  13.6P  7.8P  601P  9.8P  0.9P  
10/19/2017 11:00 EST0.79P  3.50P  13.7P  7.8P  601P  9.8P  0.9P  
10/19/2017 11:05 EST0.79P  3.50P  13.7P  7.8P  601P  9.8P  0.8P  
10/19/2017 11:10 EST0.79P  3.50P  13.7P  7.8P  601P  9.8P  0.9P  
10/19/2017 11:15 EST0.79P  3.50P  13.8P  7.8P  601P  9.8P  0.8P  
10/19/2017 11:20 EST      13.8P  7.8P  601P  9.8P  1.0P  
10/19/2017 11:25 EST      13.8P  7.8P  601P  9.8P  1.0P  

Explanation
  P  Provisional data subject to revision.